<?xml version="1.0" encoding="utf-8"?>
<gpx xmlns:xsi="http://www.w3.org/2001/XMLSchema-instance" xmlns:xsd="http://www.w3.org/2001/XMLSchema" version="1.1" creator="Shapelink.com" xmlns="http://www.topografix.com/GPX/1/1" xmlns:gpxtpx="http://www.garmin.com/xmlschemas/TrackPointExtension/v1">
  <metadata>
    <name>Løping 4.49 km, 2014-05-13</name>
    <desc></desc>
    <author><name>Mikael Blom</name></author> 
    <time>2014-05-13T18:49:09Z</time>
  </metadata>
  <trk>
    <name>Løping 4.49 km, 2014-05-13</name>
    <trkseg>
      <trkpt lat="59.9789871" lon="17.7392466">
        <ele>37.1481</ele>
        <time>2014-05-13T18:49:09Z</time>
      </trkpt>
      <trkpt lat="59.9789937" lon="17.7392278">
        <ele>37.1481</ele>
        <time>2014-05-13T18:49:10Z</time>
      </trkpt>
      <trkpt lat="59.9790056" lon="17.7391944">
        <ele>37.6287</ele>
        <time>2014-05-13T18:49:11Z</time>
      </trkpt>
      <trkpt lat="59.9790268" lon="17.7391663">
        <ele>38.1094</ele>
        <time>2014-05-13T18:49:12Z</time>
      </trkpt>
      <trkpt lat="59.9790521" lon="17.7391491">
        <ele>38.1094</ele>
        <time>2014-05-13T18:49:13Z</time>
      </trkpt>
      <trkpt lat="59.9790919" lon="17.739126">
        <ele>39.5513</ele>
        <time>2014-05-13T18:49:14Z</time>
      </trkpt>
      <trkpt lat="59.9791308" lon="17.7390926">
        <ele>40.0321</ele>
        <time>2014-05-13T18:49:15Z</time>
      </trkpt>
      <trkpt lat="59.9791676" lon="17.7390529">
        <ele>40.0321</ele>
        <time>2014-05-13T18:49:16Z</time>
      </trkpt>
      <trkpt lat="59.9791995" lon="17.7390248">
        <ele>40.0321</ele>
        <time>2014-05-13T18:49:17Z</time>
      </trkpt>
      <trkpt lat="59.9792273" lon="17.7389973">
        <ele>39.5513</ele>
        <time>2014-05-13T18:49:18Z</time>
      </trkpt>
      <trkpt lat="59.9792629" lon="17.7389756">
        <ele>40.0321</ele>
        <time>2014-05-13T18:49:19Z</time>
      </trkpt>
      <trkpt lat="59.9792952" lon="17.7389523">
        <ele>40.0321</ele>
        <time>2014-05-13T18:49:20Z</time>
      </trkpt>
      <trkpt lat="59.9793259" lon="17.7389325">
        <ele>40.5128</ele>
        <time>2014-05-13T18:49:21Z</time>
      </trkpt>
      <trkpt lat="59.9793563" lon="17.7389019">
        <ele>40.5128</ele>
        <time>2014-05-13T18:49:22Z</time>
      </trkpt>
      <trkpt lat="59.9793862" lon="17.7388693">
        <ele>40.0321</ele>
        <time>2014-05-13T18:49:23Z</time>
      </trkpt>
      <trkpt lat="59.979419" lon="17.7388315">
        <ele>39.5513</ele>
        <time>2014-05-13T18:49:24Z</time>
      </trkpt>
      <trkpt lat="59.9794509" lon="17.7388009">
        <ele>40.0321</ele>
        <time>2014-05-13T18:49:25Z</time>
      </trkpt>
      <trkpt lat="59.9794857" lon="17.7387865">
        <ele>40.5128</ele>
        <time>2014-05-13T18:49:26Z</time>
      </trkpt>
      <trkpt lat="59.9795203" lon="17.7387683">
        <ele>40.5128</ele>
        <time>2014-05-13T18:49:27Z</time>
      </trkpt>
      <trkpt lat="59.9795535" lon="17.738741">
        <ele>40.0321</ele>
        <time>2014-05-13T18:49:28Z</time>
      </trkpt>
      <trkpt lat="59.9795872" lon="17.7387152">
        <ele>40.5128</ele>
        <time>2014-05-13T18:49:29Z</time>
      </trkpt>
      <trkpt lat="59.9796267" lon="17.738695">
        <ele>42.4354</ele>
        <time>2014-05-13T18:49:30Z</time>
      </trkpt>
      <trkpt lat="59.9796628" lon="17.7386841">
        <ele>43.3966</ele>
        <time>2014-05-13T18:49:31Z</time>
      </trkpt>
      <trkpt lat="59.9796979" lon="17.7386737">
        <ele>44.358</ele>
        <time>2014-05-13T18:49:32Z</time>
      </trkpt>
      <trkpt lat="59.9797274" lon="17.7386648">
        <ele>45.3192</ele>
        <time>2014-05-13T18:49:33Z</time>
      </trkpt>
      <trkpt lat="59.9797587" lon="17.7386455">
        <ele>46.2806</ele>
        <time>2014-05-13T18:49:34Z</time>
      </trkpt>
      <trkpt lat="59.9797741" lon="17.738627">
        <ele>44.8386</ele>
        <time>2014-05-13T18:49:35Z</time>
      </trkpt>
      <trkpt lat="59.9798022" lon="17.7386209">
        <ele>45.7999</ele>
        <time>2014-05-13T18:49:36Z</time>
      </trkpt>
      <trkpt lat="59.9798327" lon="17.7386156">
        <ele>47.2418</ele>
        <time>2014-05-13T18:49:37Z</time>
      </trkpt>
      <trkpt lat="59.9798667" lon="17.738604">
        <ele>49.1646</ele>
        <time>2014-05-13T18:49:38Z</time>
      </trkpt>
      <trkpt lat="59.979902" lon="17.7385918">
        <ele>50.126</ele>
        <time>2014-05-13T18:49:39Z</time>
      </trkpt>
      <trkpt lat="59.9799356" lon="17.7385886">
        <ele>51.5679</ele>
        <time>2014-05-13T18:49:40Z</time>
      </trkpt>
      <trkpt lat="59.9799621" lon="17.7385901">
        <ele>53.0098</ele>
        <time>2014-05-13T18:49:41Z</time>
      </trkpt>
      <trkpt lat="59.9799828" lon="17.7385937">
        <ele>52.5292</ele>
        <time>2014-05-13T18:49:42Z</time>
      </trkpt>
      <trkpt lat="59.9800161" lon="17.7385979">
        <ele>53.4905</ele>
        <time>2014-05-13T18:49:43Z</time>
      </trkpt>
      <trkpt lat="59.9800463" lon="17.7386048">
        <ele>53.9712</ele>
        <time>2014-05-13T18:49:44Z</time>
      </trkpt>
      <trkpt lat="59.9800835" lon="17.738617">
        <ele>55.8938</ele>
        <time>2014-05-13T18:49:45Z</time>
      </trkpt>
      <trkpt lat="59.9801088" lon="17.7386243">
        <ele>56.3745</ele>
        <time>2014-05-13T18:49:46Z</time>
      </trkpt>
      <trkpt lat="59.9801406" lon="17.7386349">
        <ele>58.7777</ele>
        <time>2014-05-13T18:49:47Z</time>
      </trkpt>
      <trkpt lat="59.9801669" lon="17.7386406">
        <ele>60.2197</ele>
        <time>2014-05-13T18:49:48Z</time>
      </trkpt>
      <trkpt lat="59.9801958" lon="17.7386436">
        <ele>61.6617</ele>
        <time>2014-05-13T18:49:49Z</time>
      </trkpt>
      <trkpt lat="59.9802267" lon="17.7386452">
        <ele>63.5844</ele>
        <time>2014-05-13T18:49:50Z</time>
      </trkpt>
      <trkpt lat="59.9802605" lon="17.738646">
        <ele>65.0264</ele>
        <time>2014-05-13T18:49:51Z</time>
      </trkpt>
      <trkpt lat="59.9802958" lon="17.7386483">
        <ele>66.949</ele>
        <time>2014-05-13T18:49:52Z</time>
      </trkpt>
      <trkpt lat="59.9803217" lon="17.7386483">
        <ele>66.4683</ele>
        <time>2014-05-13T18:49:53Z</time>
      </trkpt>
      <trkpt lat="59.980345" lon="17.7386524">
        <ele>66.4683</ele>
        <time>2014-05-13T18:49:54Z</time>
      </trkpt>
      <trkpt lat="59.9803714" lon="17.7386534">
        <ele>66.949</ele>
        <time>2014-05-13T18:49:55Z</time>
      </trkpt>
      <trkpt lat="59.9804117" lon="17.7386546">
        <ele>69.3523</ele>
        <time>2014-05-13T18:49:56Z</time>
      </trkpt>
      <trkpt lat="59.9804545" lon="17.7386564">
        <ele>71.2749</ele>
        <time>2014-05-13T18:49:57Z</time>
      </trkpt>
      <trkpt lat="59.9804941" lon="17.7386482">
        <ele>72.7169</ele>
        <time>2014-05-13T18:49:58Z</time>
      </trkpt>
      <trkpt lat="59.98053" lon="17.7386344">
        <ele>74.6395</ele>
        <time>2014-05-13T18:49:59Z</time>
      </trkpt>
      <trkpt lat="59.9805516" lon="17.7386222">
        <ele>74.1588</ele>
        <time>2014-05-13T18:50:00Z</time>
      </trkpt>
      <trkpt lat="59.9805699" lon="17.738614">
        <ele>72.7169</ele>
        <time>2014-05-13T18:50:01Z</time>
      </trkpt>
      <trkpt lat="59.9806018" lon="17.7386167">
        <ele>72.7169</ele>
        <time>2014-05-13T18:50:02Z</time>
      </trkpt>
      <trkpt lat="59.9806465" lon="17.7386193">
        <ele>76.5621</ele>
        <time>2014-05-13T18:50:03Z</time>
      </trkpt>
      <trkpt lat="59.980674" lon="17.7386196">
        <ele>77.5234</ele>
        <time>2014-05-13T18:50:04Z</time>
      </trkpt>
      <trkpt lat="59.9807066" lon="17.7386255">
        <ele>78.4847</ele>
        <time>2014-05-13T18:50:05Z</time>
      </trkpt>
      <trkpt lat="59.9807293" lon="17.7386187">
        <ele>78.004</ele>
        <time>2014-05-13T18:50:06Z</time>
      </trkpt>
      <trkpt lat="59.9807572" lon="17.7386118">
        <ele>78.4847</ele>
        <time>2014-05-13T18:50:07Z</time>
      </trkpt>
      <trkpt lat="59.9807936" lon="17.7386098">
        <ele>80.4075</ele>
        <time>2014-05-13T18:50:08Z</time>
      </trkpt>
      <trkpt lat="59.9808236" lon="17.7385965">
        <ele>81.8494</ele>
        <time>2014-05-13T18:50:09Z</time>
      </trkpt>
      <trkpt lat="59.9808414" lon="17.7385851">
        <ele>79.9266</ele>
        <time>2014-05-13T18:50:10Z</time>
      </trkpt>
      <trkpt lat="59.9808604" lon="17.7385773">
        <ele>79.446</ele>
        <time>2014-05-13T18:50:11Z</time>
      </trkpt>
      <trkpt lat="59.980879" lon="17.7385747">
        <ele>78.4847</ele>
        <time>2014-05-13T18:50:12Z</time>
      </trkpt>
      <trkpt lat="59.9808988" lon="17.7385619">
        <ele>77.0428</ele>
        <time>2014-05-13T18:50:13Z</time>
      </trkpt>
      <trkpt lat="59.9809231" lon="17.7385528">
        <ele>77.0428</ele>
        <time>2014-05-13T18:50:14Z</time>
      </trkpt>
      <trkpt lat="59.980951" lon="17.7385434">
        <ele>77.5234</ele>
        <time>2014-05-13T18:50:15Z</time>
      </trkpt>
      <trkpt lat="59.9809813" lon="17.7385358">
        <ele>78.9655</ele>
        <time>2014-05-13T18:50:16Z</time>
      </trkpt>
      <trkpt lat="59.9810116" lon="17.738529">
        <ele>80.4075</ele>
        <time>2014-05-13T18:50:17Z</time>
      </trkpt>
      <trkpt lat="59.9810376" lon="17.7385141">
        <ele>80.8882</ele>
        <time>2014-05-13T18:50:18Z</time>
      </trkpt>
      <trkpt lat="59.981062" lon="17.7384989">
        <ele>80.8882</ele>
        <time>2014-05-13T18:50:19Z</time>
      </trkpt>
      <trkpt lat="59.9810828" lon="17.7384878">
        <ele>80.4075</ele>
        <time>2014-05-13T18:50:20Z</time>
      </trkpt>
      <trkpt lat="59.9811125" lon="17.7384776">
        <ele>81.8494</ele>
        <time>2014-05-13T18:50:21Z</time>
      </trkpt>
      <trkpt lat="59.9811443" lon="17.7384701">
        <ele>83.2914</ele>
        <time>2014-05-13T18:50:22Z</time>
      </trkpt>
      <trkpt lat="59.9811677" lon="17.738468">
        <ele>83.772</ele>
        <time>2014-05-13T18:50:23Z</time>
      </trkpt>
      <trkpt lat="59.9811875" lon="17.7384628">
        <ele>82.8108</ele>
        <time>2014-05-13T18:50:24Z</time>
      </trkpt>
      <trkpt lat="59.9812089" lon="17.7384592">
        <ele>82.3301</ele>
        <time>2014-05-13T18:50:25Z</time>
      </trkpt>
      <trkpt lat="59.9812372" lon="17.7384545">
        <ele>82.3301</ele>
        <time>2014-05-13T18:50:26Z</time>
      </trkpt>
      <trkpt lat="59.9812645" lon="17.7384469">
        <ele>82.8108</ele>
        <time>2014-05-13T18:50:27Z</time>
      </trkpt>
      <trkpt lat="59.9812935" lon="17.7384369">
        <ele>83.2914</ele>
        <time>2014-05-13T18:50:28Z</time>
      </trkpt>
      <trkpt lat="59.9813205" lon="17.7384276">
        <ele>83.2914</ele>
        <time>2014-05-13T18:50:29Z</time>
      </trkpt>
      <trkpt lat="59.9813427" lon="17.7384212">
        <ele>82.8108</ele>
        <time>2014-05-13T18:50:30Z</time>
      </trkpt>
      <trkpt lat="59.9813612" lon="17.7384177">
        <ele>81.8494</ele>
        <time>2014-05-13T18:50:31Z</time>
      </trkpt>
      <trkpt lat="59.9813815" lon="17.7383976">
        <ele>82.3301</ele>
        <time>2014-05-13T18:50:32Z</time>
      </trkpt>
      <trkpt lat="59.9814094" lon="17.7383841">
        <ele>83.2914</ele>
        <time>2014-05-13T18:50:33Z</time>
      </trkpt>
      <trkpt lat="59.9814312" lon="17.7383748">
        <ele>82.8108</ele>
        <time>2014-05-13T18:50:34Z</time>
      </trkpt>
      <trkpt lat="59.9814556" lon="17.7383692">
        <ele>82.8108</ele>
        <time>2014-05-13T18:50:35Z</time>
      </trkpt>
      <trkpt lat="59.9814886" lon="17.7383588">
        <ele>84.7334</ele>
        <time>2014-05-13T18:50:36Z</time>
      </trkpt>
      <trkpt lat="59.9815101" lon="17.7383587">
        <ele>83.772</ele>
        <time>2014-05-13T18:50:37Z</time>
      </trkpt>
      <trkpt lat="59.9815221" lon="17.7383556">
        <ele>81.3688</ele>
        <time>2014-05-13T18:50:38Z</time>
      </trkpt>
      <trkpt lat="59.9815423" lon="17.7383438">
        <ele>80.8882</ele>
        <time>2014-05-13T18:50:39Z</time>
      </trkpt>
      <trkpt lat="59.9815686" lon="17.7383375">
        <ele>81.3688</ele>
        <time>2014-05-13T18:50:40Z</time>
      </trkpt>
      <trkpt lat="59.9815909" lon="17.7383198">
        <ele>80.8882</ele>
        <time>2014-05-13T18:50:41Z</time>
      </trkpt>
      <trkpt lat="59.9816188" lon="17.7383096">
        <ele>80.4075</ele>
        <time>2014-05-13T18:50:42Z</time>
      </trkpt>
      <trkpt lat="59.98165" lon="17.738309">
        <ele>80.8882</ele>
        <time>2014-05-13T18:50:43Z</time>
      </trkpt>
      <trkpt lat="59.9816738" lon="17.7383135">
        <ele>80.4075</ele>
        <time>2014-05-13T18:50:44Z</time>
      </trkpt>
      <trkpt lat="59.9817033" lon="17.73831">
        <ele>80.8882</ele>
        <time>2014-05-13T18:50:45Z</time>
      </trkpt>
      <trkpt lat="59.9817437" lon="17.7382971">
        <ele>83.2914</ele>
        <time>2014-05-13T18:50:46Z</time>
      </trkpt>
      <trkpt lat="59.9817706" lon="17.7382937">
        <ele>83.2914</ele>
        <time>2014-05-13T18:50:47Z</time>
      </trkpt>
      <trkpt lat="59.981794" lon="17.7382928">
        <ele>83.2914</ele>
        <time>2014-05-13T18:50:48Z</time>
      </trkpt>
      <trkpt lat="59.9818203" lon="17.7382823">
        <ele>83.772</ele>
        <time>2014-05-13T18:50:49Z</time>
      </trkpt>
      <trkpt lat="59.9818406" lon="17.7382749">
        <ele>83.2914</ele>
        <time>2014-05-13T18:50:50Z</time>
      </trkpt>
      <trkpt lat="59.9818586" lon="17.7382647">
        <ele>82.3301</ele>
        <time>2014-05-13T18:50:51Z</time>
      </trkpt>
      <trkpt lat="59.9818819" lon="17.7382473">
        <ele>81.8494</ele>
        <time>2014-05-13T18:50:52Z</time>
      </trkpt>
      <trkpt lat="59.9819145" lon="17.7382478">
        <ele>82.3301</ele>
        <time>2014-05-13T18:50:53Z</time>
      </trkpt>
      <trkpt lat="59.9819328" lon="17.7382473">
        <ele>80.4075</ele>
        <time>2014-05-13T18:50:54Z</time>
      </trkpt>
      <trkpt lat="59.9819431" lon="17.7382405">
        <ele>77.5234</ele>
        <time>2014-05-13T18:50:55Z</time>
      </trkpt>
      <trkpt lat="59.9819688" lon="17.7382266">
        <ele>77.5234</ele>
        <time>2014-05-13T18:50:56Z</time>
      </trkpt>
      <trkpt lat="59.9819921" lon="17.7382156">
        <ele>77.5234</ele>
        <time>2014-05-13T18:50:57Z</time>
      </trkpt>
      <trkpt lat="59.9820135" lon="17.7382138">
        <ele>76.5621</ele>
        <time>2014-05-13T18:50:58Z</time>
      </trkpt>
      <trkpt lat="59.9820338" lon="17.7382067">
        <ele>76.0814</ele>
        <time>2014-05-13T18:50:59Z</time>
      </trkpt>
      <trkpt lat="59.9820489" lon="17.7381927">
        <ele>74.1588</ele>
        <time>2014-05-13T18:51:00Z</time>
      </trkpt>
      <trkpt lat="59.9820569" lon="17.738184">
        <ele>71.2749</ele>
        <time>2014-05-13T18:51:01Z</time>
      </trkpt>
      <trkpt lat="59.9820695" lon="17.7381793">
        <ele>69.3523</ele>
        <time>2014-05-13T18:51:02Z</time>
      </trkpt>
      <trkpt lat="59.9820831" lon="17.7381772">
        <ele>67.9103</ele>
        <time>2014-05-13T18:51:03Z</time>
      </trkpt>
      <trkpt lat="59.9821048" lon="17.7381784">
        <ele>66.4683</ele>
        <time>2014-05-13T18:51:04Z</time>
      </trkpt>
      <trkpt lat="59.9821348" lon="17.7381862">
        <ele>66.4683</ele>
        <time>2014-05-13T18:51:05Z</time>
      </trkpt>
      <trkpt lat="59.9821571" lon="17.73818">
        <ele>65.5071</ele>
        <time>2014-05-13T18:51:06Z</time>
      </trkpt>
      <trkpt lat="59.9821768" lon="17.7381627">
        <ele>64.5457</ele>
        <time>2014-05-13T18:51:07Z</time>
      </trkpt>
      <trkpt lat="59.9822047" lon="17.7381485">
        <ele>65.5071</ele>
        <time>2014-05-13T18:51:08Z</time>
      </trkpt>
      <trkpt lat="59.982226" lon="17.7381301">
        <ele>64.0651</ele>
        <time>2014-05-13T18:51:09Z</time>
      </trkpt>
      <trkpt lat="59.9822454" lon="17.7381199">
        <ele>63.1036</ele>
        <time>2014-05-13T18:51:10Z</time>
      </trkpt>
      <trkpt lat="59.9822627" lon="17.7381085">
        <ele>61.6617</ele>
        <time>2014-05-13T18:51:11Z</time>
      </trkpt>
      <trkpt lat="59.9821912" lon="17.7378452">
        <ele>40.9934</ele>
        <time>2014-05-13T18:51:37Z</time>
      </trkpt>
      <trkpt lat="59.9822073" lon="17.7378565">
        <ele>44.358</ele>
        <time>2014-05-13T18:51:38Z</time>
      </trkpt>
      <trkpt lat="59.9822296" lon="17.7378537">
        <ele>46.7612</ele>
        <time>2014-05-13T18:51:39Z</time>
      </trkpt>
      <trkpt lat="59.9822664" lon="17.7378609">
        <ele>51.0872</ele>
        <time>2014-05-13T18:51:40Z</time>
      </trkpt>
      <trkpt lat="59.9822968" lon="17.7378683">
        <ele>53.9712</ele>
        <time>2014-05-13T18:51:41Z</time>
      </trkpt>
      <trkpt lat="59.982326" lon="17.7378858">
        <ele>56.3745</ele>
        <time>2014-05-13T18:51:42Z</time>
      </trkpt>
      <trkpt lat="59.9823575" lon="17.7378957">
        <ele>58.2971</ele>
        <time>2014-05-13T18:51:43Z</time>
      </trkpt>
      <trkpt lat="59.9823928" lon="17.7379111">
        <ele>59.7391</ele>
        <time>2014-05-13T18:51:44Z</time>
      </trkpt>
      <trkpt lat="59.9824043" lon="17.7379311">
        <ele>58.2971</ele>
        <time>2014-05-13T18:51:45Z</time>
      </trkpt>
      <trkpt lat="59.9824245" lon="17.7379427">
        <ele>57.8165</ele>
        <time>2014-05-13T18:51:46Z</time>
      </trkpt>
      <trkpt lat="59.9824564" lon="17.7379522">
        <ele>59.2584</ele>
        <time>2014-05-13T18:51:47Z</time>
      </trkpt>
      <trkpt lat="59.9824967" lon="17.7379462">
        <ele>63.5844</ele>
        <time>2014-05-13T18:51:48Z</time>
      </trkpt>
      <trkpt lat="59.9825268" lon="17.7379356">
        <ele>65.9877</ele>
        <time>2014-05-13T18:51:49Z</time>
      </trkpt>
      <trkpt lat="59.982568" lon="17.7379304">
        <ele>68.3909</ele>
        <time>2014-05-13T18:51:50Z</time>
      </trkpt>
      <trkpt lat="59.9826063" lon="17.7379324">
        <ele>71.2749</ele>
        <time>2014-05-13T18:51:51Z</time>
      </trkpt>
      <trkpt lat="59.9826461" lon="17.7379478">
        <ele>71.7555</ele>
        <time>2014-05-13T18:51:52Z</time>
      </trkpt>
      <trkpt lat="59.9826814" lon="17.7379567">
        <ele>70.7942</ele>
        <time>2014-05-13T18:51:53Z</time>
      </trkpt>
      <trkpt lat="59.9827261" lon="17.7379664">
        <ele>70.7942</ele>
        <time>2014-05-13T18:51:54Z</time>
      </trkpt>
      <trkpt lat="59.9827642" lon="17.7379749">
        <ele>70.7942</ele>
        <time>2014-05-13T18:51:55Z</time>
      </trkpt>
      <trkpt lat="59.9827983" lon="17.7379831">
        <ele>70.3135</ele>
        <time>2014-05-13T18:51:56Z</time>
      </trkpt>
      <trkpt lat="59.9828279" lon="17.7379925">
        <ele>70.3135</ele>
        <time>2014-05-13T18:51:57Z</time>
      </trkpt>
      <trkpt lat="59.9828476" lon="17.7379987">
        <ele>69.3523</ele>
        <time>2014-05-13T18:51:58Z</time>
      </trkpt>
      <trkpt lat="59.9828912" lon="17.7379992">
        <ele>72.7169</ele>
        <time>2014-05-13T18:51:59Z</time>
      </trkpt>
      <trkpt lat="59.982931" lon="17.7379965">
        <ele>74.6395</ele>
        <time>2014-05-13T18:52:00Z</time>
      </trkpt>
      <trkpt lat="59.9829709" lon="17.7379943">
        <ele>76.0814</ele>
        <time>2014-05-13T18:52:01Z</time>
      </trkpt>
      <trkpt lat="59.983009" lon="17.7380058">
        <ele>77.5234</ele>
        <time>2014-05-13T18:52:02Z</time>
      </trkpt>
      <trkpt lat="59.9830579" lon="17.7380183">
        <ele>80.4075</ele>
        <time>2014-05-13T18:52:03Z</time>
      </trkpt>
      <trkpt lat="59.9830919" lon="17.7380292">
        <ele>81.3688</ele>
        <time>2014-05-13T18:52:04Z</time>
      </trkpt>
      <trkpt lat="59.9831267" lon="17.7380386">
        <ele>81.8494</ele>
        <time>2014-05-13T18:52:05Z</time>
      </trkpt>
      <trkpt lat="59.9831537" lon="17.738023">
        <ele>82.3301</ele>
        <time>2014-05-13T18:52:06Z</time>
      </trkpt>
      <trkpt lat="59.9831874" lon="17.7380267">
        <ele>83.2914</ele>
        <time>2014-05-13T18:52:07Z</time>
      </trkpt>
      <trkpt lat="59.9832286" lon="17.7380359">
        <ele>85.6946</ele>
        <time>2014-05-13T18:52:08Z</time>
      </trkpt>
      <trkpt lat="59.9832633" lon="17.7380375">
        <ele>87.1366</ele>
        <time>2014-05-13T18:52:09Z</time>
      </trkpt>
      <trkpt lat="59.9832956" lon="17.7380386">
        <ele>88.5787</ele>
        <time>2014-05-13T18:52:10Z</time>
      </trkpt>
      <trkpt lat="59.9833349" lon="17.7380432">
        <ele>90.9819</ele>
        <time>2014-05-13T18:52:11Z</time>
      </trkpt>
      <trkpt lat="59.98336" lon="17.738034">
        <ele>90.5013</ele>
        <time>2014-05-13T18:52:12Z</time>
      </trkpt>
      <trkpt lat="59.983399" lon="17.7380251">
        <ele>90.9819</ele>
        <time>2014-05-13T18:52:13Z</time>
      </trkpt>
      <trkpt lat="59.9834273" lon="17.7380132">
        <ele>90.9819</ele>
        <time>2014-05-13T18:52:14Z</time>
      </trkpt>
      <trkpt lat="59.9834568" lon="17.7379976">
        <ele>91.9432</ele>
        <time>2014-05-13T18:52:15Z</time>
      </trkpt>
      <trkpt lat="59.9834738" lon="17.7379847">
        <ele>90.9819</ele>
        <time>2014-05-13T18:52:16Z</time>
      </trkpt>
      <trkpt lat="59.98351" lon="17.7379842">
        <ele>92.424</ele>
        <time>2014-05-13T18:52:17Z</time>
      </trkpt>
      <trkpt lat="59.9835501" lon="17.7379812">
        <ele>93.8658</ele>
        <time>2014-05-13T18:52:18Z</time>
      </trkpt>
      <trkpt lat="59.9835842" lon="17.737979">
        <ele>95.3077</ele>
        <time>2014-05-13T18:52:19Z</time>
      </trkpt>
      <trkpt lat="59.983607" lon="17.7379806">
        <ele>94.8271</ele>
        <time>2014-05-13T18:52:20Z</time>
      </trkpt>
      <trkpt lat="59.9836319" lon="17.737978">
        <ele>94.3466</ele>
        <time>2014-05-13T18:52:21Z</time>
      </trkpt>
      <trkpt lat="59.9836495" lon="17.7379772">
        <ele>92.424</ele>
        <time>2014-05-13T18:52:22Z</time>
      </trkpt>
      <trkpt lat="59.9836639" lon="17.7379665">
        <ele>90.9819</ele>
        <time>2014-05-13T18:52:23Z</time>
      </trkpt>
      <trkpt lat="59.9836862" lon="17.7379614">
        <ele>90.5013</ele>
        <time>2014-05-13T18:52:24Z</time>
      </trkpt>
      <trkpt lat="59.9837183" lon="17.7379544">
        <ele>91.4625</ele>
        <time>2014-05-13T18:52:25Z</time>
      </trkpt>
      <trkpt lat="59.9837418" lon="17.7379454">
        <ele>91.4625</ele>
        <time>2014-05-13T18:52:26Z</time>
      </trkpt>
      <trkpt lat="59.9837725" lon="17.737938">
        <ele>91.9432</ele>
        <time>2014-05-13T18:52:27Z</time>
      </trkpt>
      <trkpt lat="59.9837966" lon="17.7379303">
        <ele>91.4625</ele>
        <time>2014-05-13T18:52:28Z</time>
      </trkpt>
      <trkpt lat="59.9838271" lon="17.737922">
        <ele>91.9432</ele>
        <time>2014-05-13T18:52:29Z</time>
      </trkpt>
      <trkpt lat="59.9838582" lon="17.7379132">
        <ele>91.4625</ele>
        <time>2014-05-13T18:52:30Z</time>
      </trkpt>
      <trkpt lat="59.9838908" lon="17.7379097">
        <ele>90.9819</ele>
        <time>2014-05-13T18:52:31Z</time>
      </trkpt>
      <trkpt lat="59.9839225" lon="17.7378997">
        <ele>90.9819</ele>
        <time>2014-05-13T18:52:32Z</time>
      </trkpt>
      <trkpt lat="59.9839492" lon="17.7378893">
        <ele>91.4625</ele>
        <time>2014-05-13T18:52:33Z</time>
      </trkpt>
      <trkpt lat="59.9839785" lon="17.7378843">
        <ele>91.4625</ele>
        <time>2014-05-13T18:52:34Z</time>
      </trkpt>
      <trkpt lat="59.9840031" lon="17.7378768">
        <ele>90.9819</ele>
        <time>2014-05-13T18:52:35Z</time>
      </trkpt>
      <trkpt lat="59.9840303" lon="17.737875">
        <ele>91.9432</ele>
        <time>2014-05-13T18:52:36Z</time>
      </trkpt>
      <trkpt lat="59.9840518" lon="17.7378755">
        <ele>90.9819</ele>
        <time>2014-05-13T18:52:37Z</time>
      </trkpt>
      <trkpt lat="59.9840738" lon="17.7378754">
        <ele>90.5013</ele>
        <time>2014-05-13T18:52:38Z</time>
      </trkpt>
      <trkpt lat="59.9840907" lon="17.73787">
        <ele>88.5787</ele>
        <time>2014-05-13T18:52:39Z</time>
      </trkpt>
      <trkpt lat="59.9841116" lon="17.737862">
        <ele>88.5787</ele>
        <time>2014-05-13T18:52:40Z</time>
      </trkpt>
      <trkpt lat="59.9841399" lon="17.7378579">
        <ele>89.0593</ele>
        <time>2014-05-13T18:52:41Z</time>
      </trkpt>
      <trkpt lat="59.9841626" lon="17.7378609">
        <ele>89.5399</ele>
        <time>2014-05-13T18:52:42Z</time>
      </trkpt>
      <trkpt lat="59.9841767" lon="17.7378619">
        <ele>88.098</ele>
        <time>2014-05-13T18:52:43Z</time>
      </trkpt>
      <trkpt lat="59.9842011" lon="17.737867">
        <ele>87.6172</ele>
        <time>2014-05-13T18:52:44Z</time>
      </trkpt>
      <trkpt lat="59.9842286" lon="17.7378705">
        <ele>87.6172</ele>
        <time>2014-05-13T18:52:45Z</time>
      </trkpt>
      <trkpt lat="59.9842535" lon="17.7378795">
        <ele>87.6172</ele>
        <time>2014-05-13T18:52:46Z</time>
      </trkpt>
      <trkpt lat="59.9842809" lon="17.7378894">
        <ele>89.0593</ele>
        <time>2014-05-13T18:52:47Z</time>
      </trkpt>
      <trkpt lat="59.9843138" lon="17.7378973">
        <ele>90.5013</ele>
        <time>2014-05-13T18:52:48Z</time>
      </trkpt>
      <trkpt lat="59.9843405" lon="17.7378986">
        <ele>90.5013</ele>
        <time>2014-05-13T18:52:49Z</time>
      </trkpt>
      <trkpt lat="59.9843751" lon="17.7378992">
        <ele>90.9819</ele>
        <time>2014-05-13T18:52:50Z</time>
      </trkpt>
      <trkpt lat="59.9844171" lon="17.73791">
        <ele>91.9432</ele>
        <time>2014-05-13T18:52:51Z</time>
      </trkpt>
      <trkpt lat="59.9844498" lon="17.7379132">
        <ele>92.424</ele>
        <time>2014-05-13T18:52:52Z</time>
      </trkpt>
      <trkpt lat="59.984475" lon="17.7379184">
        <ele>90.9819</ele>
        <time>2014-05-13T18:52:53Z</time>
      </trkpt>
      <trkpt lat="59.9845062" lon="17.7379303">
        <ele>90.5013</ele>
        <time>2014-05-13T18:52:54Z</time>
      </trkpt>
      <trkpt lat="59.9845421" lon="17.7379361">
        <ele>90.9819</ele>
        <time>2014-05-13T18:52:55Z</time>
      </trkpt>
      <trkpt lat="59.9845736" lon="17.737938">
        <ele>91.4625</ele>
        <time>2014-05-13T18:52:56Z</time>
      </trkpt>
      <trkpt lat="59.9846056" lon="17.7379438">
        <ele>90.9819</ele>
        <time>2014-05-13T18:52:57Z</time>
      </trkpt>
      <trkpt lat="59.9846325" lon="17.7379491">
        <ele>90.0206</ele>
        <time>2014-05-13T18:52:58Z</time>
      </trkpt>
      <trkpt lat="59.984659" lon="17.7379496">
        <ele>90.0206</ele>
        <time>2014-05-13T18:52:59Z</time>
      </trkpt>
      <trkpt lat="59.9847004" lon="17.7379584">
        <ele>91.4625</ele>
        <time>2014-05-13T18:53:00Z</time>
      </trkpt>
      <trkpt lat="59.9847309" lon="17.737965">
        <ele>91.9432</ele>
        <time>2014-05-13T18:53:01Z</time>
      </trkpt>
      <trkpt lat="59.9847487" lon="17.7379719">
        <ele>90.5013</ele>
        <time>2014-05-13T18:53:02Z</time>
      </trkpt>
      <trkpt lat="59.9847782" lon="17.7379718">
        <ele>91.4625</ele>
        <time>2014-05-13T18:53:03Z</time>
      </trkpt>
      <trkpt lat="59.9847979" lon="17.7379747">
        <ele>89.5399</ele>
        <time>2014-05-13T18:53:04Z</time>
      </trkpt>
      <trkpt lat="59.9848221" lon="17.7379886">
        <ele>89.5399</ele>
        <time>2014-05-13T18:53:05Z</time>
      </trkpt>
      <trkpt lat="59.9848414" lon="17.7379913">
        <ele>89.0593</ele>
        <time>2014-05-13T18:53:06Z</time>
      </trkpt>
      <trkpt lat="59.9848631" lon="17.7379955">
        <ele>89.0593</ele>
        <time>2014-05-13T18:53:07Z</time>
      </trkpt>
      <trkpt lat="59.984885" lon="17.7379991">
        <ele>88.5787</ele>
        <time>2014-05-13T18:53:08Z</time>
      </trkpt>
      <trkpt lat="59.9849133" lon="17.7380084">
        <ele>88.5787</ele>
        <time>2014-05-13T18:53:09Z</time>
      </trkpt>
      <trkpt lat="59.9849381" lon="17.7380142">
        <ele>88.5787</ele>
        <time>2014-05-13T18:53:10Z</time>
      </trkpt>
      <trkpt lat="59.9849621" lon="17.7380184">
        <ele>88.5787</ele>
        <time>2014-05-13T18:53:11Z</time>
      </trkpt>
      <trkpt lat="59.984979" lon="17.7380219">
        <ele>86.656</ele>
        <time>2014-05-13T18:53:12Z</time>
      </trkpt>
      <trkpt lat="59.9849953" lon="17.7380184">
        <ele>84.7334</ele>
        <time>2014-05-13T18:53:13Z</time>
      </trkpt>
      <trkpt lat="59.9850256" lon="17.7380225">
        <ele>84.7334</ele>
        <time>2014-05-13T18:53:14Z</time>
      </trkpt>
      <trkpt lat="59.9850563" lon="17.7380261">
        <ele>84.2527</ele>
        <time>2014-05-13T18:53:15Z</time>
      </trkpt>
      <trkpt lat="59.9850828" lon="17.7380334">
        <ele>84.2527</ele>
        <time>2014-05-13T18:53:16Z</time>
      </trkpt>
      <trkpt lat="59.9850997" lon="17.7380401">
        <ele>83.772</ele>
        <time>2014-05-13T18:53:17Z</time>
      </trkpt>
      <trkpt lat="59.985124" lon="17.7380488">
        <ele>83.772</ele>
        <time>2014-05-13T18:53:18Z</time>
      </trkpt>
      <trkpt lat="59.9851546" lon="17.7380541">
        <ele>84.7334</ele>
        <time>2014-05-13T18:53:19Z</time>
      </trkpt>
      <trkpt lat="59.9851895" lon="17.7380551">
        <ele>86.1753</ele>
        <time>2014-05-13T18:53:20Z</time>
      </trkpt>
      <trkpt lat="59.9852102" lon="17.7380518">
        <ele>85.214</ele>
        <time>2014-05-13T18:53:21Z</time>
      </trkpt>
      <trkpt lat="59.9852321" lon="17.7380523">
        <ele>85.6946</ele>
        <time>2014-05-13T18:53:22Z</time>
      </trkpt>
      <trkpt lat="59.9852603" lon="17.7380597">
        <ele>87.6172</ele>
        <time>2014-05-13T18:53:23Z</time>
      </trkpt>
      <trkpt lat="59.9853014" lon="17.7380671">
        <ele>89.5399</ele>
        <time>2014-05-13T18:53:24Z</time>
      </trkpt>
      <trkpt lat="59.9853355" lon="17.7380703">
        <ele>90.5013</ele>
        <time>2014-05-13T18:53:25Z</time>
      </trkpt>
      <trkpt lat="59.9853662" lon="17.7380782">
        <ele>91.9432</ele>
        <time>2014-05-13T18:53:26Z</time>
      </trkpt>
      <trkpt lat="59.9853975" lon="17.7380843">
        <ele>92.424</ele>
        <time>2014-05-13T18:53:27Z</time>
      </trkpt>
      <trkpt lat="59.9854296" lon="17.7380872">
        <ele>93.3851</ele>
        <time>2014-05-13T18:53:28Z</time>
      </trkpt>
      <trkpt lat="59.9854693" lon="17.7380924">
        <ele>95.7885</ele>
        <time>2014-05-13T18:53:29Z</time>
      </trkpt>
      <trkpt lat="59.9855071" lon="17.7380919">
        <ele>98.1919</ele>
        <time>2014-05-13T18:53:30Z</time>
      </trkpt>
      <trkpt lat="59.985535" lon="17.738086">
        <ele>98.6725</ele>
        <time>2014-05-13T18:53:31Z</time>
      </trkpt>
      <trkpt lat="59.9855484" lon="17.738077">
        <ele>96.2693</ele>
        <time>2014-05-13T18:53:32Z</time>
      </trkpt>
      <trkpt lat="59.9855505" lon="17.7380593">
        <ele>93.3851</ele>
        <time>2014-05-13T18:53:33Z</time>
      </trkpt>
      <trkpt lat="59.9855516" lon="17.7380287">
        <ele>90.5013</ele>
        <time>2014-05-13T18:53:34Z</time>
      </trkpt>
      <trkpt lat="59.9855578" lon="17.7379941">
        <ele>88.098</ele>
        <time>2014-05-13T18:53:35Z</time>
      </trkpt>
      <trkpt lat="59.9855634" lon="17.7379485">
        <ele>85.6946</ele>
        <time>2014-05-13T18:53:36Z</time>
      </trkpt>
      <trkpt lat="59.9855726" lon="17.7379058">
        <ele>84.2527</ele>
        <time>2014-05-13T18:53:37Z</time>
      </trkpt>
      <trkpt lat="59.9855681" lon="17.7378555">
        <ele>80.8882</ele>
        <time>2014-05-13T18:53:38Z</time>
      </trkpt>
      <trkpt lat="59.985568" lon="17.7378025">
        <ele>78.4847</ele>
        <time>2014-05-13T18:53:39Z</time>
      </trkpt>
      <trkpt lat="59.9855612" lon="17.7377424">
        <ele>75.1202</ele>
        <time>2014-05-13T18:53:40Z</time>
      </trkpt>
      <trkpt lat="59.9855584" lon="17.7376914">
        <ele>73.6782</ele>
        <time>2014-05-13T18:53:41Z</time>
      </trkpt>
      <trkpt lat="59.9855592" lon="17.7376462">
        <ele>71.7555</ele>
        <time>2014-05-13T18:53:42Z</time>
      </trkpt>
      <trkpt lat="59.9855593" lon="17.7376096">
        <ele>71.2749</ele>
        <time>2014-05-13T18:53:43Z</time>
      </trkpt>
      <trkpt lat="59.9855602" lon="17.7375787">
        <ele>70.3135</ele>
        <time>2014-05-13T18:53:44Z</time>
      </trkpt>
      <trkpt lat="59.9855679" lon="17.7375317">
        <ele>70.7942</ele>
        <time>2014-05-13T18:53:45Z</time>
      </trkpt>
      <trkpt lat="59.985579" lon="17.7374859">
        <ele>68.8716</ele>
        <time>2014-05-13T18:53:46Z</time>
      </trkpt>
      <trkpt lat="59.9855884" lon="17.7374335">
        <ele>68.3909</ele>
        <time>2014-05-13T18:53:47Z</time>
      </trkpt>
      <trkpt lat="59.9855946" lon="17.7373704">
        <ele>65.5071</ele>
        <time>2014-05-13T18:53:48Z</time>
      </trkpt>
      <trkpt lat="59.985606" lon="17.7373273">
        <ele>62.6229</ele>
        <time>2014-05-13T18:53:49Z</time>
      </trkpt>
      <trkpt lat="59.9856289" lon="17.7372872">
        <ele>62.6229</ele>
        <time>2014-05-13T18:53:50Z</time>
      </trkpt>
      <trkpt lat="59.9856403" lon="17.7372327">
        <ele>60.7003</ele>
        <time>2014-05-13T18:53:51Z</time>
      </trkpt>
      <trkpt lat="59.9856581" lon="17.7371828">
        <ele>59.7391</ele>
        <time>2014-05-13T18:53:52Z</time>
      </trkpt>
      <trkpt lat="59.9856926" lon="17.7371401">
        <ele>61.181</ele>
        <time>2014-05-13T18:53:53Z</time>
      </trkpt>
      <trkpt lat="59.9857158" lon="17.7371018">
        <ele>60.7003</ele>
        <time>2014-05-13T18:53:54Z</time>
      </trkpt>
      <trkpt lat="59.9857329" lon="17.7370631">
        <ele>60.2197</ele>
        <time>2014-05-13T18:53:55Z</time>
      </trkpt>
      <trkpt lat="59.985741" lon="17.7370227">
        <ele>58.2971</ele>
        <time>2014-05-13T18:53:56Z</time>
      </trkpt>
      <trkpt lat="59.9857505" lon="17.7369842">
        <ele>57.8165</ele>
        <time>2014-05-13T18:53:57Z</time>
      </trkpt>
      <trkpt lat="59.9857516" lon="17.7369433">
        <ele>56.8551</ele>
        <time>2014-05-13T18:53:58Z</time>
      </trkpt>
      <trkpt lat="59.9857634" lon="17.7369107">
        <ele>56.8551</ele>
        <time>2014-05-13T18:53:59Z</time>
      </trkpt>
      <trkpt lat="59.9857902" lon="17.7368834">
        <ele>58.2971</ele>
        <time>2014-05-13T18:54:00Z</time>
      </trkpt>
      <trkpt lat="59.9858199" lon="17.7368372">
        <ele>59.2584</ele>
        <time>2014-05-13T18:54:01Z</time>
      </trkpt>
      <trkpt lat="59.9858515" lon="17.7367986">
        <ele>60.7003</ele>
        <time>2014-05-13T18:54:02Z</time>
      </trkpt>
      <trkpt lat="59.98587" lon="17.7367549">
        <ele>60.2197</ele>
        <time>2014-05-13T18:54:03Z</time>
      </trkpt>
      <trkpt lat="59.9858904" lon="17.7367191">
        <ele>60.2197</ele>
        <time>2014-05-13T18:54:04Z</time>
      </trkpt>
      <trkpt lat="59.9859109" lon="17.7366862">
        <ele>59.7391</ele>
        <time>2014-05-13T18:54:05Z</time>
      </trkpt>
      <trkpt lat="59.9859312" lon="17.7366615">
        <ele>59.7391</ele>
        <time>2014-05-13T18:54:06Z</time>
      </trkpt>
      <trkpt lat="59.9859567" lon="17.7366316">
        <ele>60.2197</ele>
        <time>2014-05-13T18:54:07Z</time>
      </trkpt>
      <trkpt lat="59.9859784" lon="17.7365928">
        <ele>59.7391</ele>
        <time>2014-05-13T18:54:08Z</time>
      </trkpt>
      <trkpt lat="59.9860036" lon="17.7365545">
        <ele>60.2197</ele>
        <time>2014-05-13T18:54:09Z</time>
      </trkpt>
      <trkpt lat="59.986035" lon="17.7365208">
        <ele>60.2197</ele>
        <time>2014-05-13T18:54:10Z</time>
      </trkpt>
      <trkpt lat="59.9860644" lon="17.7364812">
        <ele>60.7003</ele>
        <time>2014-05-13T18:54:11Z</time>
      </trkpt>
      <trkpt lat="59.9860901" lon="17.7364496">
        <ele>60.2197</ele>
        <time>2014-05-13T18:54:12Z</time>
      </trkpt>
      <trkpt lat="59.9861228" lon="17.7364214">
        <ele>61.181</ele>
        <time>2014-05-13T18:54:13Z</time>
      </trkpt>
      <trkpt lat="59.9861515" lon="17.7363903">
        <ele>61.181</ele>
        <time>2014-05-13T18:54:14Z</time>
      </trkpt>
      <trkpt lat="59.9861749" lon="17.7363551">
        <ele>60.2197</ele>
        <time>2014-05-13T18:54:15Z</time>
      </trkpt>
      <trkpt lat="59.986203" lon="17.7363156">
        <ele>60.2197</ele>
        <time>2014-05-13T18:54:16Z</time>
      </trkpt>
      <trkpt lat="59.9862264" lon="17.7362776">
        <ele>59.2584</ele>
        <time>2014-05-13T18:54:17Z</time>
      </trkpt>
      <trkpt lat="59.986241" lon="17.7362431">
        <ele>56.3745</ele>
        <time>2014-05-13T18:54:18Z</time>
      </trkpt>
      <trkpt lat="59.9862591" lon="17.7362064">
        <ele>54.4518</ele>
        <time>2014-05-13T18:54:19Z</time>
      </trkpt>
      <trkpt lat="59.9862813" lon="17.7361834">
        <ele>53.0098</ele>
        <time>2014-05-13T18:54:20Z</time>
      </trkpt>
      <trkpt lat="59.9863037" lon="17.7361618">
        <ele>51.5679</ele>
        <time>2014-05-13T18:54:21Z</time>
      </trkpt>
      <trkpt lat="59.9863312" lon="17.7361396">
        <ele>51.5679</ele>
        <time>2014-05-13T18:54:22Z</time>
      </trkpt>
      <trkpt lat="59.9863626" lon="17.7361017">
        <ele>51.5679</ele>
        <time>2014-05-13T18:54:23Z</time>
      </trkpt>
      <trkpt lat="59.9863833" lon="17.7360588">
        <ele>50.126</ele>
        <time>2014-05-13T18:54:24Z</time>
      </trkpt>
      <trkpt lat="59.9864073" lon="17.7360209">
        <ele>49.1646</ele>
        <time>2014-05-13T18:54:25Z</time>
      </trkpt>
      <trkpt lat="59.9864295" lon="17.7359847">
        <ele>47.7225</ele>
        <time>2014-05-13T18:54:26Z</time>
      </trkpt>
      <trkpt lat="59.9864493" lon="17.7359406">
        <ele>46.2806</ele>
        <time>2014-05-13T18:54:27Z</time>
      </trkpt>
      <trkpt lat="59.9864652" lon="17.735895">
        <ele>44.8386</ele>
        <time>2014-05-13T18:54:28Z</time>
      </trkpt>
      <trkpt lat="59.9864803" lon="17.7358531">
        <ele>43.3966</ele>
        <time>2014-05-13T18:54:29Z</time>
      </trkpt>
      <trkpt lat="59.986497" lon="17.735808">
        <ele>42.4354</ele>
        <time>2014-05-13T18:54:30Z</time>
      </trkpt>
      <trkpt lat="59.9865052" lon="17.7357534">
        <ele>40.5128</ele>
        <time>2014-05-13T18:54:31Z</time>
      </trkpt>
      <trkpt lat="59.9865182" lon="17.7357013">
        <ele>39.5513</ele>
        <time>2014-05-13T18:54:32Z</time>
      </trkpt>
      <trkpt lat="59.9865279" lon="17.7356498">
        <ele>38.5901</ele>
        <time>2014-05-13T18:54:33Z</time>
      </trkpt>
      <trkpt lat="59.9865385" lon="17.7355962">
        <ele>38.1094</ele>
        <time>2014-05-13T18:54:34Z</time>
      </trkpt>
      <trkpt lat="59.9865472" lon="17.7355424">
        <ele>36.6675</ele>
        <time>2014-05-13T18:54:35Z</time>
      </trkpt>
      <trkpt lat="59.986555" lon="17.7354971">
        <ele>35.2255</ele>
        <time>2014-05-13T18:54:36Z</time>
      </trkpt>
      <trkpt lat="59.9865642" lon="17.7354563">
        <ele>33.7834</ele>
        <time>2014-05-13T18:54:37Z</time>
      </trkpt>
      <trkpt lat="59.98657" lon="17.7354023">
        <ele>32.8223</ele>
        <time>2014-05-13T18:54:38Z</time>
      </trkpt>
      <trkpt lat="59.9865751" lon="17.7353457">
        <ele>31.8607</ele>
        <time>2014-05-13T18:54:39Z</time>
      </trkpt>
      <trkpt lat="59.9865781" lon="17.7352898">
        <ele>30.4188</ele>
        <time>2014-05-13T18:54:40Z</time>
      </trkpt>
      <trkpt lat="59.9865798" lon="17.7352339">
        <ele>28.9769</ele>
        <time>2014-05-13T18:54:41Z</time>
      </trkpt>
      <trkpt lat="59.9865814" lon="17.7351749">
        <ele>27.0543</ele>
        <time>2014-05-13T18:54:42Z</time>
      </trkpt>
      <trkpt lat="59.9865834" lon="17.7351214">
        <ele>25.6123</ele>
        <time>2014-05-13T18:54:43Z</time>
      </trkpt>
      <trkpt lat="59.9865843" lon="17.7350624">
        <ele>24.651</ele>
        <time>2014-05-13T18:54:44Z</time>
      </trkpt>
      <trkpt lat="59.9865849" lon="17.7350025">
        <ele>24.1703</ele>
        <time>2014-05-13T18:54:45Z</time>
      </trkpt>
      <trkpt lat="59.9865865" lon="17.7349427">
        <ele>22.7283</ele>
        <time>2014-05-13T18:54:46Z</time>
      </trkpt>
      <trkpt lat="59.9865958" lon="17.7348907">
        <ele>21.767</ele>
        <time>2014-05-13T18:54:47Z</time>
      </trkpt>
      <trkpt lat="59.9866021" lon="17.734833">
        <ele>21.2864</ele>
        <time>2014-05-13T18:54:48Z</time>
      </trkpt>
      <trkpt lat="59.9866109" lon="17.7347798">
        <ele>19.8444</ele>
        <time>2014-05-13T18:54:49Z</time>
      </trkpt>
      <trkpt lat="59.9866198" lon="17.7347329">
        <ele>18.8831</ele>
        <time>2014-05-13T18:54:50Z</time>
      </trkpt>
      <trkpt lat="59.986627" lon="17.7346803">
        <ele>18.4023</ele>
        <time>2014-05-13T18:54:51Z</time>
      </trkpt>
      <trkpt lat="59.9866395" lon="17.7346289">
        <ele>17.4412</ele>
        <time>2014-05-13T18:54:52Z</time>
      </trkpt>
      <trkpt lat="59.9866522" lon="17.7345726">
        <ele>16.9604</ele>
        <time>2014-05-13T18:54:53Z</time>
      </trkpt>
      <trkpt lat="59.9866615" lon="17.7345187">
        <ele>15.999</ele>
        <time>2014-05-13T18:54:54Z</time>
      </trkpt>
      <trkpt lat="59.9866715" lon="17.7344642">
        <ele>16.4797</ele>
        <time>2014-05-13T18:54:55Z</time>
      </trkpt>
      <trkpt lat="59.9866802" lon="17.7344074">
        <ele>16.4797</ele>
        <time>2014-05-13T18:54:56Z</time>
      </trkpt>
      <trkpt lat="59.9866892" lon="17.7343586">
        <ele>15.999</ele>
        <time>2014-05-13T18:54:57Z</time>
      </trkpt>
      <trkpt lat="59.9866959" lon="17.7343152">
        <ele>15.999</ele>
        <time>2014-05-13T18:54:58Z</time>
      </trkpt>
      <trkpt lat="59.9867037" lon="17.734274">
        <ele>15.0377</ele>
        <time>2014-05-13T18:54:59Z</time>
      </trkpt>
      <trkpt lat="59.9867203" lon="17.7342313">
        <ele>15.999</ele>
        <time>2014-05-13T18:55:00Z</time>
      </trkpt>
      <trkpt lat="59.9867388" lon="17.7341865">
        <ele>16.4797</ele>
        <time>2014-05-13T18:55:01Z</time>
      </trkpt>
      <trkpt lat="59.9867605" lon="17.7341468">
        <ele>18.4023</ele>
        <time>2014-05-13T18:55:02Z</time>
      </trkpt>
      <trkpt lat="59.9867749" lon="17.7341057">
        <ele>18.8831</ele>
        <time>2014-05-13T18:55:03Z</time>
      </trkpt>
      <trkpt lat="59.9867948" lon="17.7340623">
        <ele>19.8444</ele>
        <time>2014-05-13T18:55:04Z</time>
      </trkpt>
      <trkpt lat="59.9868114" lon="17.7340171">
        <ele>19.8444</ele>
        <time>2014-05-13T18:55:05Z</time>
      </trkpt>
      <trkpt lat="59.9868255" lon="17.7339685">
        <ele>20.325</ele>
        <time>2014-05-13T18:55:06Z</time>
      </trkpt>
      <trkpt lat="59.9868425" lon="17.7339199">
        <ele>20.325</ele>
        <time>2014-05-13T18:55:07Z</time>
      </trkpt>
      <trkpt lat="59.9868621" lon="17.7338841">
        <ele>21.2864</ele>
        <time>2014-05-13T18:55:08Z</time>
      </trkpt>
      <trkpt lat="59.9868718" lon="17.7338589">
        <ele>22.2476</ele>
        <time>2014-05-13T18:55:09Z</time>
      </trkpt>
      <trkpt lat="59.9868855" lon="17.7338193">
        <ele>23.6896</ele>
        <time>2014-05-13T18:55:10Z</time>
      </trkpt>
      <trkpt lat="59.986901" lon="17.7337777">
        <ele>25.1317</ele>
        <time>2014-05-13T18:55:11Z</time>
      </trkpt>
      <trkpt lat="59.9869212" lon="17.7337401">
        <ele>25.6123</ele>
        <time>2014-05-13T18:55:12Z</time>
      </trkpt>
      <trkpt lat="59.9869445" lon="17.7337064">
        <ele>26.5736</ele>
        <time>2014-05-13T18:55:13Z</time>
      </trkpt>
      <trkpt lat="59.9869607" lon="17.7336618">
        <ele>26.5736</ele>
        <time>2014-05-13T18:55:14Z</time>
      </trkpt>
      <trkpt lat="59.9869694" lon="17.7336128">
        <ele>26.0929</ele>
        <time>2014-05-13T18:55:15Z</time>
      </trkpt>
      <trkpt lat="59.9869854" lon="17.7335676">
        <ele>26.5736</ele>
        <time>2014-05-13T18:55:16Z</time>
      </trkpt>
      <trkpt lat="59.9870061" lon="17.7335335">
        <ele>28.0155</ele>
        <time>2014-05-13T18:55:17Z</time>
      </trkpt>
      <trkpt lat="59.9870227" lon="17.733492">
        <ele>28.9769</ele>
        <time>2014-05-13T18:55:18Z</time>
      </trkpt>
      <trkpt lat="59.9870367" lon="17.7334429">
        <ele>28.9769</ele>
        <time>2014-05-13T18:55:19Z</time>
      </trkpt>
      <trkpt lat="59.9870493" lon="17.7333847">
        <ele>28.9769</ele>
        <time>2014-05-13T18:55:20Z</time>
      </trkpt>
      <trkpt lat="59.9870617" lon="17.7333261">
        <ele>29.9381</ele>
        <time>2014-05-13T18:55:21Z</time>
      </trkpt>
      <trkpt lat="59.9870765" lon="17.7332724">
        <ele>30.8995</ele>
        <time>2014-05-13T18:55:22Z</time>
      </trkpt>
      <trkpt lat="59.987089" lon="17.7332255">
        <ele>31.3801</ele>
        <time>2014-05-13T18:55:23Z</time>
      </trkpt>
      <trkpt lat="59.987102" lon="17.7331738">
        <ele>31.3801</ele>
        <time>2014-05-13T18:55:24Z</time>
      </trkpt>
      <trkpt lat="59.9871215" lon="17.7331232">
        <ele>32.8223</ele>
        <time>2014-05-13T18:55:25Z</time>
      </trkpt>
      <trkpt lat="59.9871365" lon="17.7330694">
        <ele>33.7834</ele>
        <time>2014-05-13T18:55:26Z</time>
      </trkpt>
      <trkpt lat="59.9871422" lon="17.7330113">
        <ele>32.8223</ele>
        <time>2014-05-13T18:55:27Z</time>
      </trkpt>
      <trkpt lat="59.9871512" lon="17.7329688">
        <ele>34.7449</ele>
        <time>2014-05-13T18:55:28Z</time>
      </trkpt>
      <trkpt lat="59.9871682" lon="17.7329187">
        <ele>36.6675</ele>
        <time>2014-05-13T18:55:29Z</time>
      </trkpt>
      <trkpt lat="59.9871808" lon="17.7328653">
        <ele>35.2255</ele>
        <time>2014-05-13T18:55:30Z</time>
      </trkpt>
      <trkpt lat="59.9871906" lon="17.7328123">
        <ele>35.2255</ele>
        <time>2014-05-13T18:55:31Z</time>
      </trkpt>
      <trkpt lat="59.9871982" lon="17.7327606">
        <ele>34.7449</ele>
        <time>2014-05-13T18:55:32Z</time>
      </trkpt>
      <trkpt lat="59.987215" lon="17.7327098">
        <ele>34.7449</ele>
        <time>2014-05-13T18:55:33Z</time>
      </trkpt>
      <trkpt lat="59.9872227" lon="17.7326549">
        <ele>34.7449</ele>
        <time>2014-05-13T18:55:34Z</time>
      </trkpt>
      <trkpt lat="59.987239" lon="17.7326158">
        <ele>35.7061</ele>
        <time>2014-05-13T18:55:35Z</time>
      </trkpt>
      <trkpt lat="59.9872531" lon="17.7325693">
        <ele>35.2255</ele>
        <time>2014-05-13T18:55:36Z</time>
      </trkpt>
      <trkpt lat="59.9872621" lon="17.7325091">
        <ele>35.2255</ele>
        <time>2014-05-13T18:55:37Z</time>
      </trkpt>
      <trkpt lat="59.9872704" lon="17.7324465">
        <ele>34.2642</ele>
        <time>2014-05-13T18:55:38Z</time>
      </trkpt>
      <trkpt lat="59.9872854" lon="17.7323897">
        <ele>34.2642</ele>
        <time>2014-05-13T18:55:39Z</time>
      </trkpt>
      <trkpt lat="59.9873005" lon="17.7323413">
        <ele>33.7834</ele>
        <time>2014-05-13T18:55:40Z</time>
      </trkpt>
      <trkpt lat="59.9873071" lon="17.7322944">
        <ele>31.8607</ele>
        <time>2014-05-13T18:55:41Z</time>
      </trkpt>
      <trkpt lat="59.9873184" lon="17.7322462">
        <ele>31.8607</ele>
        <time>2014-05-13T18:55:42Z</time>
      </trkpt>
      <trkpt lat="59.9873366" lon="17.7321999">
        <ele>32.3416</ele>
        <time>2014-05-13T18:55:43Z</time>
      </trkpt>
      <trkpt lat="59.9873496" lon="17.7321494">
        <ele>31.8607</ele>
        <time>2014-05-13T18:55:44Z</time>
      </trkpt>
      <trkpt lat="59.9873646" lon="17.7321035">
        <ele>32.8223</ele>
        <time>2014-05-13T18:55:45Z</time>
      </trkpt>
      <trkpt lat="59.9873759" lon="17.7320581">
        <ele>34.7449</ele>
        <time>2014-05-13T18:55:46Z</time>
      </trkpt>
      <trkpt lat="59.987379" lon="17.7319999">
        <ele>33.7834</ele>
        <time>2014-05-13T18:55:47Z</time>
      </trkpt>
      <trkpt lat="59.9873815" lon="17.7319385">
        <ele>32.3416</ele>
        <time>2014-05-13T18:55:48Z</time>
      </trkpt>
      <trkpt lat="59.9873776" lon="17.7318732">
        <ele>31.8607</ele>
        <time>2014-05-13T18:55:49Z</time>
      </trkpt>
      <trkpt lat="59.9873779" lon="17.7318171">
        <ele>30.8995</ele>
        <time>2014-05-13T18:55:50Z</time>
      </trkpt>
      <trkpt lat="59.9873825" lon="17.7317689">
        <ele>30.4188</ele>
        <time>2014-05-13T18:55:51Z</time>
      </trkpt>
      <trkpt lat="59.9874029" lon="17.7317324">
        <ele>31.8607</ele>
        <time>2014-05-13T18:55:52Z</time>
      </trkpt>
      <trkpt lat="59.9874278" lon="17.7316949">
        <ele>33.3029</ele>
        <time>2014-05-13T18:55:53Z</time>
      </trkpt>
      <trkpt lat="59.9874496" lon="17.7316598">
        <ele>34.7449</ele>
        <time>2014-05-13T18:55:54Z</time>
      </trkpt>
      <trkpt lat="59.9874634" lon="17.7316244">
        <ele>35.2255</ele>
        <time>2014-05-13T18:55:55Z</time>
      </trkpt>
      <trkpt lat="59.9874799" lon="17.731599">
        <ele>35.7061</ele>
        <time>2014-05-13T18:55:56Z</time>
      </trkpt>
      <trkpt lat="59.9875049" lon="17.7315681">
        <ele>37.1481</ele>
        <time>2014-05-13T18:55:57Z</time>
      </trkpt>
      <trkpt lat="59.9875431" lon="17.7315417">
        <ele>40.0321</ele>
        <time>2014-05-13T18:55:58Z</time>
      </trkpt>
      <trkpt lat="59.9875708" lon="17.7315198">
        <ele>40.0321</ele>
        <time>2014-05-13T18:55:59Z</time>
      </trkpt>
      <trkpt lat="59.9875919" lon="17.7314926">
        <ele>39.0707</ele>
        <time>2014-05-13T18:56:00Z</time>
      </trkpt>
      <trkpt lat="59.9876164" lon="17.7314631">
        <ele>39.5513</ele>
        <time>2014-05-13T18:56:01Z</time>
      </trkpt>
      <trkpt lat="59.9876429" lon="17.7314349">
        <ele>40.0321</ele>
        <time>2014-05-13T18:56:02Z</time>
      </trkpt>
      <trkpt lat="59.9876718" lon="17.7313986">
        <ele>41.474</ele>
        <time>2014-05-13T18:56:03Z</time>
      </trkpt>
      <trkpt lat="59.9876944" lon="17.7313612">
        <ele>41.474</ele>
        <time>2014-05-13T18:56:04Z</time>
      </trkpt>
      <trkpt lat="59.9877198" lon="17.7313309">
        <ele>42.4354</ele>
        <time>2014-05-13T18:56:05Z</time>
      </trkpt>
      <trkpt lat="59.98775" lon="17.7312949">
        <ele>44.8386</ele>
        <time>2014-05-13T18:56:06Z</time>
      </trkpt>
      <trkpt lat="59.9877728" lon="17.7312476">
        <ele>45.3192</ele>
        <time>2014-05-13T18:56:07Z</time>
      </trkpt>
      <trkpt lat="59.987795" lon="17.7312045">
        <ele>45.3192</ele>
        <time>2014-05-13T18:56:08Z</time>
      </trkpt>
      <trkpt lat="59.9878178" lon="17.7311704">
        <ele>44.8386</ele>
        <time>2014-05-13T18:56:09Z</time>
      </trkpt>
      <trkpt lat="59.9878291" lon="17.7311286">
        <ele>43.8773</ele>
        <time>2014-05-13T18:56:10Z</time>
      </trkpt>
      <trkpt lat="59.9878459" lon="17.7310939">
        <ele>43.8773</ele>
        <time>2014-05-13T18:56:11Z</time>
      </trkpt>
      <trkpt lat="59.9878702" lon="17.7310593">
        <ele>42.916</ele>
        <time>2014-05-13T18:56:12Z</time>
      </trkpt>
      <trkpt lat="59.9878955" lon="17.7310205">
        <ele>43.3966</ele>
        <time>2014-05-13T18:56:13Z</time>
      </trkpt>
      <trkpt lat="59.9879202" lon="17.7309853">
        <ele>43.8773</ele>
        <time>2014-05-13T18:56:14Z</time>
      </trkpt>
      <trkpt lat="59.9879467" lon="17.7309481">
        <ele>43.8773</ele>
        <time>2014-05-13T18:56:15Z</time>
      </trkpt>
      <trkpt lat="59.9879741" lon="17.7309123">
        <ele>43.8773</ele>
        <time>2014-05-13T18:56:16Z</time>
      </trkpt>
      <trkpt lat="59.9879943" lon="17.7308712">
        <ele>42.4354</ele>
        <time>2014-05-13T18:56:17Z</time>
      </trkpt>
      <trkpt lat="59.9880116" lon="17.730829">
        <ele>41.9547</ele>
        <time>2014-05-13T18:56:18Z</time>
      </trkpt>
      <trkpt lat="59.9880334" lon="17.7307879">
        <ele>41.9547</ele>
        <time>2014-05-13T18:56:19Z</time>
      </trkpt>
      <trkpt lat="59.9880568" lon="17.7307544">
        <ele>41.474</ele>
        <time>2014-05-13T18:56:20Z</time>
      </trkpt>
      <trkpt lat="59.9880805" lon="17.7307243">
        <ele>40.9934</ele>
        <time>2014-05-13T18:56:21Z</time>
      </trkpt>
      <trkpt lat="59.9881007" lon="17.7306796">
        <ele>40.5128</ele>
        <time>2014-05-13T18:56:22Z</time>
      </trkpt>
      <trkpt lat="59.9881172" lon="17.730635">
        <ele>39.0707</ele>
        <time>2014-05-13T18:56:23Z</time>
      </trkpt>
      <trkpt lat="59.9881394" lon="17.7306056">
        <ele>37.6287</ele>
        <time>2014-05-13T18:56:24Z</time>
      </trkpt>
      <trkpt lat="59.9881603" lon="17.7305694">
        <ele>37.1481</ele>
        <time>2014-05-13T18:56:25Z</time>
      </trkpt>
      <trkpt lat="59.98818" lon="17.730542">
        <ele>38.5901</ele>
        <time>2014-05-13T18:56:26Z</time>
      </trkpt>
      <trkpt lat="59.9881922" lon="17.7305158">
        <ele>38.1094</ele>
        <time>2014-05-13T18:56:27Z</time>
      </trkpt>
      <trkpt lat="59.9882055" lon="17.7304746">
        <ele>37.6287</ele>
        <time>2014-05-13T18:56:28Z</time>
      </trkpt>
      <trkpt lat="59.9882178" lon="17.7304384">
        <ele>36.6675</ele>
        <time>2014-05-13T18:56:29Z</time>
      </trkpt>
      <trkpt lat="59.9882381" lon="17.7304055">
        <ele>36.6675</ele>
        <time>2014-05-13T18:56:30Z</time>
      </trkpt>
      <trkpt lat="59.9882679" lon="17.7303731">
        <ele>38.1094</ele>
        <time>2014-05-13T18:56:31Z</time>
      </trkpt>
      <trkpt lat="59.988295" lon="17.7303373">
        <ele>39.0707</ele>
        <time>2014-05-13T18:56:32Z</time>
      </trkpt>
      <trkpt lat="59.9883202" lon="17.7303019">
        <ele>40.5128</ele>
        <time>2014-05-13T18:56:33Z</time>
      </trkpt>
      <trkpt lat="59.98834" lon="17.7302638">
        <ele>40.0321</ele>
        <time>2014-05-13T18:56:34Z</time>
      </trkpt>
      <trkpt lat="59.9883572" lon="17.7302247">
        <ele>39.5513</ele>
        <time>2014-05-13T18:56:35Z</time>
      </trkpt>
      <trkpt lat="59.9883743" lon="17.7301879">
        <ele>39.5513</ele>
        <time>2014-05-13T18:56:36Z</time>
      </trkpt>
      <trkpt lat="59.9883898" lon="17.7301525">
        <ele>40.0321</ele>
        <time>2014-05-13T18:56:37Z</time>
      </trkpt>
      <trkpt lat="59.9883987" lon="17.7301107">
        <ele>38.1094</ele>
        <time>2014-05-13T18:56:38Z</time>
      </trkpt>
      <trkpt lat="59.9884066" lon="17.73007">
        <ele>36.1868</ele>
        <time>2014-05-13T18:56:39Z</time>
      </trkpt>
      <trkpt lat="59.9884219" lon="17.7300395">
        <ele>35.2255</ele>
        <time>2014-05-13T18:56:40Z</time>
      </trkpt>
      <trkpt lat="59.9884389" lon="17.7300026">
        <ele>34.2642</ele>
        <time>2014-05-13T18:56:41Z</time>
      </trkpt>
      <trkpt lat="59.9884587" lon="17.7299721">
        <ele>33.7834</ele>
        <time>2014-05-13T18:56:42Z</time>
      </trkpt>
      <trkpt lat="59.9884929" lon="17.7299512">
        <ele>34.2642</ele>
        <time>2014-05-13T18:56:43Z</time>
      </trkpt>
      <trkpt lat="59.9885194" lon="17.7299248">
        <ele>33.7834</ele>
        <time>2014-05-13T18:56:44Z</time>
      </trkpt>
      <trkpt lat="59.9885408" lon="17.7299033">
        <ele>33.3029</ele>
        <time>2014-05-13T18:56:45Z</time>
      </trkpt>
      <trkpt lat="59.9885638" lon="17.7298838">
        <ele>33.7834</ele>
        <time>2014-05-13T18:56:46Z</time>
      </trkpt>
      <trkpt lat="59.9885831" lon="17.7298648">
        <ele>33.3029</ele>
        <time>2014-05-13T18:56:47Z</time>
      </trkpt>
      <trkpt lat="59.9885964" lon="17.7298279">
        <ele>31.3801</ele>
        <time>2014-05-13T18:56:48Z</time>
      </trkpt>
      <trkpt lat="59.9886078" lon="17.7297877">
        <ele>28.9769</ele>
        <time>2014-05-13T18:56:49Z</time>
      </trkpt>
      <trkpt lat="59.9886342" lon="17.7297642">
        <ele>28.9769</ele>
        <time>2014-05-13T18:56:50Z</time>
      </trkpt>
      <trkpt lat="59.9886584" lon="17.7297363">
        <ele>29.4575</ele>
        <time>2014-05-13T18:56:51Z</time>
      </trkpt>
      <trkpt lat="59.9886877" lon="17.7297026">
        <ele>30.4188</ele>
        <time>2014-05-13T18:56:52Z</time>
      </trkpt>
      <trkpt lat="59.9887213" lon="17.7296726">
        <ele>32.3416</ele>
        <time>2014-05-13T18:56:53Z</time>
      </trkpt>
      <trkpt lat="59.9887466" lon="17.7296458">
        <ele>32.3416</ele>
        <time>2014-05-13T18:56:54Z</time>
      </trkpt>
      <trkpt lat="59.9887756" lon="17.7296192">
        <ele>33.7834</ele>
        <time>2014-05-13T18:56:55Z</time>
      </trkpt>
      <trkpt lat="59.9887957" lon="17.7295935">
        <ele>33.7834</ele>
        <time>2014-05-13T18:56:56Z</time>
      </trkpt>
      <trkpt lat="59.9888176" lon="17.729562">
        <ele>32.8223</ele>
        <time>2014-05-13T18:56:57Z</time>
      </trkpt>
      <trkpt lat="59.9888327" lon="17.7295369">
        <ele>30.8995</ele>
        <time>2014-05-13T18:56:58Z</time>
      </trkpt>
      <trkpt lat="59.988855" lon="17.7295223">
        <ele>30.4188</ele>
        <time>2014-05-13T18:56:59Z</time>
      </trkpt>
      <trkpt lat="59.9888745" lon="17.729497">
        <ele>29.4575</ele>
        <time>2014-05-13T18:57:00Z</time>
      </trkpt>
      <trkpt lat="59.9889046" lon="17.7294726">
        <ele>29.9381</ele>
        <time>2014-05-13T18:57:01Z</time>
      </trkpt>
      <trkpt lat="59.9889373" lon="17.7294532">
        <ele>31.3801</ele>
        <time>2014-05-13T18:57:02Z</time>
      </trkpt>
      <trkpt lat="59.9889534" lon="17.7294252">
        <ele>29.4575</ele>
        <time>2014-05-13T18:57:03Z</time>
      </trkpt>
      <trkpt lat="59.9889677" lon="17.7294022">
        <ele>27.5349</ele>
        <time>2014-05-13T18:57:04Z</time>
      </trkpt>
      <trkpt lat="59.9889901" lon="17.7293834">
        <ele>27.5349</ele>
        <time>2014-05-13T18:57:05Z</time>
      </trkpt>
      <trkpt lat="59.9890093" lon="17.7293627">
        <ele>27.0543</ele>
        <time>2014-05-13T18:57:06Z</time>
      </trkpt>
      <trkpt lat="59.9890347" lon="17.7293354">
        <ele>27.5349</ele>
        <time>2014-05-13T18:57:07Z</time>
      </trkpt>
      <trkpt lat="59.9890622" lon="17.7293021">
        <ele>28.0155</ele>
        <time>2014-05-13T18:57:08Z</time>
      </trkpt>
      <trkpt lat="59.989092" lon="17.7292719">
        <ele>28.4962</ele>
        <time>2014-05-13T18:57:09Z</time>
      </trkpt>
      <trkpt lat="59.9891218" lon="17.7292433">
        <ele>28.4962</ele>
        <time>2014-05-13T18:57:10Z</time>
      </trkpt>
      <trkpt lat="59.9891474" lon="17.72922">
        <ele>27.5349</ele>
        <time>2014-05-13T18:57:11Z</time>
      </trkpt>
      <trkpt lat="59.9891718" lon="17.7291967">
        <ele>27.0543</ele>
        <time>2014-05-13T18:57:12Z</time>
      </trkpt>
      <trkpt lat="59.989194" lon="17.7291671">
        <ele>26.5736</ele>
        <time>2014-05-13T18:57:13Z</time>
      </trkpt>
      <trkpt lat="59.9892238" lon="17.729139">
        <ele>28.0155</ele>
        <time>2014-05-13T18:57:14Z</time>
      </trkpt>
      <trkpt lat="59.9892512" lon="17.7291013">
        <ele>28.9769</ele>
        <time>2014-05-13T18:57:15Z</time>
      </trkpt>
      <trkpt lat="59.9892709" lon="17.7290602">
        <ele>28.4962</ele>
        <time>2014-05-13T18:57:16Z</time>
      </trkpt>
      <trkpt lat="59.9892868" lon="17.72902">
        <ele>27.5349</ele>
        <time>2014-05-13T18:57:17Z</time>
      </trkpt>
      <trkpt lat="59.9893154" lon="17.7289944">
        <ele>28.9769</ele>
        <time>2014-05-13T18:57:18Z</time>
      </trkpt>
      <trkpt lat="59.9893432" lon="17.7289651">
        <ele>28.9769</ele>
        <time>2014-05-13T18:57:19Z</time>
      </trkpt>
      <trkpt lat="59.9893665" lon="17.7289273">
        <ele>28.0155</ele>
        <time>2014-05-13T18:57:20Z</time>
      </trkpt>
      <trkpt lat="59.9893864" lon="17.728893">
        <ele>26.5736</ele>
        <time>2014-05-13T18:57:21Z</time>
      </trkpt>
      <trkpt lat="59.9894034" lon="17.728859">
        <ele>24.651</ele>
        <time>2014-05-13T18:57:22Z</time>
      </trkpt>
      <trkpt lat="59.9894283" lon="17.7288295">
        <ele>24.651</ele>
        <time>2014-05-13T18:57:23Z</time>
      </trkpt>
      <trkpt lat="59.9894518" lon="17.7288012">
        <ele>26.0929</ele>
        <time>2014-05-13T18:57:24Z</time>
      </trkpt>
      <trkpt lat="59.9894647" lon="17.7287598">
        <ele>26.0929</ele>
        <time>2014-05-13T18:57:25Z</time>
      </trkpt>
      <trkpt lat="59.9894728" lon="17.7287064">
        <ele>24.651</ele>
        <time>2014-05-13T18:57:26Z</time>
      </trkpt>
      <trkpt lat="59.9894886" lon="17.7286584">
        <ele>24.651</ele>
        <time>2014-05-13T18:57:27Z</time>
      </trkpt>
      <trkpt lat="59.9895071" lon="17.7286129">
        <ele>24.651</ele>
        <time>2014-05-13T18:57:28Z</time>
      </trkpt>
      <trkpt lat="59.9895242" lon="17.7285734">
        <ele>24.651</ele>
        <time>2014-05-13T18:57:29Z</time>
      </trkpt>
      <trkpt lat="59.9895328" lon="17.728528">
        <ele>25.1317</ele>
        <time>2014-05-13T18:57:30Z</time>
      </trkpt>
      <trkpt lat="59.9895385" lon="17.7284823">
        <ele>25.1317</ele>
        <time>2014-05-13T18:57:31Z</time>
      </trkpt>
      <trkpt lat="59.9895403" lon="17.7284351">
        <ele>25.1317</ele>
        <time>2014-05-13T18:57:32Z</time>
      </trkpt>
      <trkpt lat="59.989545" lon="17.7283859">
        <ele>25.1317</ele>
        <time>2014-05-13T18:57:33Z</time>
      </trkpt>
      <trkpt lat="59.9895473" lon="17.7283248">
        <ele>24.1703</ele>
        <time>2014-05-13T18:57:34Z</time>
      </trkpt>
      <trkpt lat="59.9895442" lon="17.7282623">
        <ele>22.7283</ele>
        <time>2014-05-13T18:57:35Z</time>
      </trkpt>
      <trkpt lat="59.9895515" lon="17.728214">
        <ele>22.2476</ele>
        <time>2014-05-13T18:57:36Z</time>
      </trkpt>
      <trkpt lat="59.9895495" lon="17.7281582">
        <ele>21.2864</ele>
        <time>2014-05-13T18:57:37Z</time>
      </trkpt>
      <trkpt lat="59.9895563" lon="17.728115">
        <ele>21.767</ele>
        <time>2014-05-13T18:57:38Z</time>
      </trkpt>
      <trkpt lat="59.9895557" lon="17.7280607">
        <ele>21.2864</ele>
        <time>2014-05-13T18:57:39Z</time>
      </trkpt>
      <trkpt lat="59.9895527" lon="17.7280042">
        <ele>20.8057</ele>
        <time>2014-05-13T18:57:40Z</time>
      </trkpt>
      <trkpt lat="59.9895546" lon="17.7279483">
        <ele>21.767</ele>
        <time>2014-05-13T18:57:41Z</time>
      </trkpt>
      <trkpt lat="59.9895483" lon="17.7278817">
        <ele>20.325</ele>
        <time>2014-05-13T18:57:42Z</time>
      </trkpt>
      <trkpt lat="59.9895528" lon="17.7278263">
        <ele>22.2476</ele>
        <time>2014-05-13T18:57:43Z</time>
      </trkpt>
      <trkpt lat="59.9895538" lon="17.7277681">
        <ele>22.7283</ele>
        <time>2014-05-13T18:57:44Z</time>
      </trkpt>
      <trkpt lat="59.9895594" lon="17.7277032">
        <ele>24.1703</ele>
        <time>2014-05-13T18:57:45Z</time>
      </trkpt>
      <trkpt lat="59.9895615" lon="17.7276468">
        <ele>25.1317</ele>
        <time>2014-05-13T18:57:46Z</time>
      </trkpt>
      <trkpt lat="59.9895631" lon="17.7275888">
        <ele>25.6123</ele>
        <time>2014-05-13T18:57:47Z</time>
      </trkpt>
      <trkpt lat="59.989561" lon="17.7275297">
        <ele>24.651</ele>
        <time>2014-05-13T18:57:48Z</time>
      </trkpt>
      <trkpt lat="59.9895703" lon="17.7274756">
        <ele>26.0929</ele>
        <time>2014-05-13T18:57:49Z</time>
      </trkpt>
      <trkpt lat="59.989577" lon="17.7274152">
        <ele>26.5736</ele>
        <time>2014-05-13T18:57:50Z</time>
      </trkpt>
      <trkpt lat="59.9895843" lon="17.7273614">
        <ele>27.0543</ele>
        <time>2014-05-13T18:57:51Z</time>
      </trkpt>
      <trkpt lat="59.9895883" lon="17.7273127">
        <ele>27.0543</ele>
        <time>2014-05-13T18:57:52Z</time>
      </trkpt>
      <trkpt lat="59.9895934" lon="17.7272613">
        <ele>27.0543</ele>
        <time>2014-05-13T18:57:53Z</time>
      </trkpt>
      <trkpt lat="59.9896003" lon="17.727214">
        <ele>27.5349</ele>
        <time>2014-05-13T18:57:54Z</time>
      </trkpt>
      <trkpt lat="59.9896107" lon="17.7271597">
        <ele>29.4575</ele>
        <time>2014-05-13T18:57:55Z</time>
      </trkpt>
      <trkpt lat="59.9896173" lon="17.7271018">
        <ele>29.9381</ele>
        <time>2014-05-13T18:57:56Z</time>
      </trkpt>
      <trkpt lat="59.98962" lon="17.72704">
        <ele>29.4575</ele>
        <time>2014-05-13T18:57:57Z</time>
      </trkpt>
      <trkpt lat="59.9896247" lon="17.7269791">
        <ele>28.9769</ele>
        <time>2014-05-13T18:57:58Z</time>
      </trkpt>
      <trkpt lat="59.9896286" lon="17.726925">
        <ele>28.9769</ele>
        <time>2014-05-13T18:57:59Z</time>
      </trkpt>
      <trkpt lat="59.9896336" lon="17.7268799">
        <ele>28.4962</ele>
        <time>2014-05-13T18:58:00Z</time>
      </trkpt>
      <trkpt lat="59.9896357" lon="17.7268305">
        <ele>28.0155</ele>
        <time>2014-05-13T18:58:01Z</time>
      </trkpt>
      <trkpt lat="59.9896335" lon="17.7267738">
        <ele>26.5736</ele>
        <time>2014-05-13T18:58:02Z</time>
      </trkpt>
      <trkpt lat="59.9896434" lon="17.7267294">
        <ele>27.0543</ele>
        <time>2014-05-13T18:58:03Z</time>
      </trkpt>
      <trkpt lat="59.9896521" lon="17.7266789">
        <ele>26.0929</ele>
        <time>2014-05-13T18:58:04Z</time>
      </trkpt>
      <trkpt lat="59.9896639" lon="17.7266269">
        <ele>27.5349</ele>
        <time>2014-05-13T18:58:05Z</time>
      </trkpt>
      <trkpt lat="59.9896667" lon="17.7265761">
        <ele>28.0155</ele>
        <time>2014-05-13T18:58:06Z</time>
      </trkpt>
      <trkpt lat="59.9896718" lon="17.7265381">
        <ele>29.4575</ele>
        <time>2014-05-13T18:58:07Z</time>
      </trkpt>
      <trkpt lat="59.9896626" lon="17.7264938">
        <ele>28.4962</ele>
        <time>2014-05-13T18:58:08Z</time>
      </trkpt>
      <trkpt lat="59.9896584" lon="17.7264598">
        <ele>28.0155</ele>
        <time>2014-05-13T18:58:09Z</time>
      </trkpt>
      <trkpt lat="59.9896392" lon="17.726459">
        <ele>28.0155</ele>
        <time>2014-05-13T18:58:10Z</time>
      </trkpt>
      <trkpt lat="59.9896043" lon="17.7264943">
        <ele>27.5349</ele>
        <time>2014-05-13T18:58:11Z</time>
      </trkpt>
      <trkpt lat="59.9895728" lon="17.7265185">
        <ele>26.5736</ele>
        <time>2014-05-13T18:58:12Z</time>
      </trkpt>
      <trkpt lat="59.9895387" lon="17.7265323">
        <ele>24.651</ele>
        <time>2014-05-13T18:58:13Z</time>
      </trkpt>
      <trkpt lat="59.9895072" lon="17.7265521">
        <ele>24.651</ele>
        <time>2014-05-13T18:58:14Z</time>
      </trkpt>
      <trkpt lat="59.9894806" lon="17.7265675">
        <ele>24.1703</ele>
        <time>2014-05-13T18:58:15Z</time>
      </trkpt>
      <trkpt lat="59.9894549" lon="17.7265795">
        <ele>23.6896</ele>
        <time>2014-05-13T18:58:16Z</time>
      </trkpt>
      <trkpt lat="59.9894318" lon="17.7265865">
        <ele>23.6896</ele>
        <time>2014-05-13T18:58:17Z</time>
      </trkpt>
      <trkpt lat="59.9894057" lon="17.7265925">
        <ele>24.651</ele>
        <time>2014-05-13T18:58:18Z</time>
      </trkpt>
      <trkpt lat="59.9893755" lon="17.7265885">
        <ele>24.651</ele>
        <time>2014-05-13T18:58:19Z</time>
      </trkpt>
      <trkpt lat="59.9893465" lon="17.7265862">
        <ele>25.6123</ele>
        <time>2014-05-13T18:58:20Z</time>
      </trkpt>
      <trkpt lat="59.9893174" lon="17.7265854">
        <ele>25.6123</ele>
        <time>2014-05-13T18:58:21Z</time>
      </trkpt>
      <trkpt lat="59.989285" lon="17.7265834">
        <ele>25.1317</ele>
        <time>2014-05-13T18:58:22Z</time>
      </trkpt>
      <trkpt lat="59.9892528" lon="17.726589">
        <ele>26.0929</ele>
        <time>2014-05-13T18:58:23Z</time>
      </trkpt>
      <trkpt lat="59.9892222" lon="17.7265978">
        <ele>26.0929</ele>
        <time>2014-05-13T18:58:24Z</time>
      </trkpt>
      <trkpt lat="59.9891919" lon="17.7265926">
        <ele>25.6123</ele>
        <time>2014-05-13T18:58:25Z</time>
      </trkpt>
      <trkpt lat="59.9891647" lon="17.7265849">
        <ele>25.6123</ele>
        <time>2014-05-13T18:58:26Z</time>
      </trkpt>
      <trkpt lat="59.9891392" lon="17.7265746">
        <ele>25.6123</ele>
        <time>2014-05-13T18:58:27Z</time>
      </trkpt>
      <trkpt lat="59.9891119" lon="17.7265681">
        <ele>26.0929</ele>
        <time>2014-05-13T18:58:28Z</time>
      </trkpt>
      <trkpt lat="59.9890832" lon="17.7265709">
        <ele>26.0929</ele>
        <time>2014-05-13T18:58:29Z</time>
      </trkpt>
      <trkpt lat="59.9890518" lon="17.7265831">
        <ele>26.5736</ele>
        <time>2014-05-13T18:58:30Z</time>
      </trkpt>
      <trkpt lat="59.9890185" lon="17.7265978">
        <ele>27.0543</ele>
        <time>2014-05-13T18:58:31Z</time>
      </trkpt>
      <trkpt lat="59.9889834" lon="17.7266145">
        <ele>27.5349</ele>
        <time>2014-05-13T18:58:32Z</time>
      </trkpt>
      <trkpt lat="59.9889539" lon="17.7266243">
        <ele>28.0155</ele>
        <time>2014-05-13T18:58:33Z</time>
      </trkpt>
      <trkpt lat="59.9889274" lon="17.7266242">
        <ele>28.4962</ele>
        <time>2014-05-13T18:58:34Z</time>
      </trkpt>
      <trkpt lat="59.9889026" lon="17.7266273">
        <ele>28.9769</ele>
        <time>2014-05-13T18:58:35Z</time>
      </trkpt>
      <trkpt lat="59.9888776" lon="17.7266292">
        <ele>29.4575</ele>
        <time>2014-05-13T18:58:36Z</time>
      </trkpt>
      <trkpt lat="59.9888488" lon="17.7266324">
        <ele>29.4575</ele>
        <time>2014-05-13T18:58:37Z</time>
      </trkpt>
      <trkpt lat="59.9888176" lon="17.726634">
        <ele>29.4575</ele>
        <time>2014-05-13T18:58:38Z</time>
      </trkpt>
      <trkpt lat="59.9887849" lon="17.7266331">
        <ele>28.9769</ele>
        <time>2014-05-13T18:58:39Z</time>
      </trkpt>
      <trkpt lat="59.9887559" lon="17.7266366">
        <ele>29.4575</ele>
        <time>2014-05-13T18:58:40Z</time>
      </trkpt>
      <trkpt lat="59.9887281" lon="17.7266378">
        <ele>29.9381</ele>
        <time>2014-05-13T18:58:41Z</time>
      </trkpt>
      <trkpt lat="59.988702" lon="17.7266479">
        <ele>30.4188</ele>
        <time>2014-05-13T18:58:42Z</time>
      </trkpt>
      <trkpt lat="59.9886716" lon="17.7266533">
        <ele>30.4188</ele>
        <time>2014-05-13T18:58:43Z</time>
      </trkpt>
      <trkpt lat="59.9886442" lon="17.7266587">
        <ele>30.4188</ele>
        <time>2014-05-13T18:58:44Z</time>
      </trkpt>
      <trkpt lat="59.9886151" lon="17.7266594">
        <ele>29.9381</ele>
        <time>2014-05-13T18:58:45Z</time>
      </trkpt>
      <trkpt lat="59.9885864" lon="17.7266596">
        <ele>29.9381</ele>
        <time>2014-05-13T18:58:46Z</time>
      </trkpt>
      <trkpt lat="59.9885597" lon="17.7266605">
        <ele>29.9381</ele>
        <time>2014-05-13T18:58:47Z</time>
      </trkpt>
      <trkpt lat="59.9885296" lon="17.7266647">
        <ele>29.4575</ele>
        <time>2014-05-13T18:58:48Z</time>
      </trkpt>
      <trkpt lat="59.988501" lon="17.7266624">
        <ele>28.9769</ele>
        <time>2014-05-13T18:58:49Z</time>
      </trkpt>
      <trkpt lat="59.9884759" lon="17.7266647">
        <ele>28.9769</ele>
        <time>2014-05-13T18:58:50Z</time>
      </trkpt>
      <trkpt lat="59.9884488" lon="17.7266626">
        <ele>28.9769</ele>
        <time>2014-05-13T18:58:51Z</time>
      </trkpt>
      <trkpt lat="59.9884214" lon="17.7266561">
        <ele>28.4962</ele>
        <time>2014-05-13T18:58:52Z</time>
      </trkpt>
      <trkpt lat="59.988394" lon="17.726648">
        <ele>28.0155</ele>
        <time>2014-05-13T18:58:53Z</time>
      </trkpt>
      <trkpt lat="59.9883669" lon="17.7266482">
        <ele>28.4962</ele>
        <time>2014-05-13T18:58:54Z</time>
      </trkpt>
      <trkpt lat="59.9883411" lon="17.7266435">
        <ele>28.0155</ele>
        <time>2014-05-13T18:58:55Z</time>
      </trkpt>
      <trkpt lat="59.9883141" lon="17.7266367">
        <ele>28.0155</ele>
        <time>2014-05-13T18:58:56Z</time>
      </trkpt>
      <trkpt lat="59.9882883" lon="17.7266336">
        <ele>28.0155</ele>
        <time>2014-05-13T18:58:57Z</time>
      </trkpt>
      <trkpt lat="59.9882655" lon="17.7266423">
        <ele>28.0155</ele>
        <time>2014-05-13T18:58:58Z</time>
      </trkpt>
      <trkpt lat="59.9882405" lon="17.7266506">
        <ele>28.0155</ele>
        <time>2014-05-13T18:58:59Z</time>
      </trkpt>
      <trkpt lat="59.9882153" lon="17.7266515">
        <ele>27.5349</ele>
        <time>2014-05-13T18:59:00Z</time>
      </trkpt>
      <trkpt lat="59.9881909" lon="17.7266541">
        <ele>27.5349</ele>
        <time>2014-05-13T18:59:01Z</time>
      </trkpt>
      <trkpt lat="59.9881647" lon="17.7266507">
        <ele>26.5736</ele>
        <time>2014-05-13T18:59:02Z</time>
      </trkpt>
      <trkpt lat="59.9881348" lon="17.7266424">
        <ele>26.0929</ele>
        <time>2014-05-13T18:59:03Z</time>
      </trkpt>
      <trkpt lat="59.9881002" lon="17.7266257">
        <ele>25.6123</ele>
        <time>2014-05-13T18:59:04Z</time>
      </trkpt>
      <trkpt lat="59.9880696" lon="17.7266056">
        <ele>25.6123</ele>
        <time>2014-05-13T18:59:05Z</time>
      </trkpt>
      <trkpt lat="59.9880432" lon="17.7265968">
        <ele>25.6123</ele>
        <time>2014-05-13T18:59:06Z</time>
      </trkpt>
      <trkpt lat="59.9880158" lon="17.7265932">
        <ele>25.1317</ele>
        <time>2014-05-13T18:59:07Z</time>
      </trkpt>
      <trkpt lat="59.9879873" lon="17.7265947">
        <ele>25.6123</ele>
        <time>2014-05-13T18:59:08Z</time>
      </trkpt>
      <trkpt lat="59.9879596" lon="17.7265977">
        <ele>26.0929</ele>
        <time>2014-05-13T18:59:09Z</time>
      </trkpt>
      <trkpt lat="59.9879313" lon="17.7265932">
        <ele>25.6123</ele>
        <time>2014-05-13T18:59:10Z</time>
      </trkpt>
      <trkpt lat="59.9879028" lon="17.7265958">
        <ele>25.1317</ele>
        <time>2014-05-13T18:59:11Z</time>
      </trkpt>
      <trkpt lat="59.9878763" lon="17.726608">
        <ele>25.1317</ele>
        <time>2014-05-13T18:59:12Z</time>
      </trkpt>
      <trkpt lat="59.9878488" lon="17.7266114">
        <ele>25.1317</ele>
        <time>2014-05-13T18:59:13Z</time>
      </trkpt>
      <trkpt lat="59.987824" lon="17.7266139">
        <ele>25.1317</ele>
        <time>2014-05-13T18:59:14Z</time>
      </trkpt>
      <trkpt lat="59.9877993" lon="17.7266237">
        <ele>26.0929</ele>
        <time>2014-05-13T18:59:15Z</time>
      </trkpt>
      <trkpt lat="59.9877733" lon="17.7266237">
        <ele>26.0929</ele>
        <time>2014-05-13T18:59:16Z</time>
      </trkpt>
      <trkpt lat="59.9877479" lon="17.7266124">
        <ele>26.0929</ele>
        <time>2014-05-13T18:59:17Z</time>
      </trkpt>
      <trkpt lat="59.9877246" lon="17.7266056">
        <ele>26.5736</ele>
        <time>2014-05-13T18:59:18Z</time>
      </trkpt>
      <trkpt lat="59.9876994" lon="17.7266121">
        <ele>27.0543</ele>
        <time>2014-05-13T18:59:19Z</time>
      </trkpt>
      <trkpt lat="59.9876765" lon="17.7266165">
        <ele>27.5349</ele>
        <time>2014-05-13T18:59:20Z</time>
      </trkpt>
      <trkpt lat="59.9876572" lon="17.726617">
        <ele>28.0155</ele>
        <time>2014-05-13T18:59:21Z</time>
      </trkpt>
      <trkpt lat="59.9876355" lon="17.726615">
        <ele>28.0155</ele>
        <time>2014-05-13T18:59:22Z</time>
      </trkpt>
      <trkpt lat="59.9876095" lon="17.7266096">
        <ele>28.0155</ele>
        <time>2014-05-13T18:59:23Z</time>
      </trkpt>
      <trkpt lat="59.9875858" lon="17.7266083">
        <ele>28.0155</ele>
        <time>2014-05-13T18:59:24Z</time>
      </trkpt>
      <trkpt lat="59.987562" lon="17.726606">
        <ele>28.0155</ele>
        <time>2014-05-13T18:59:25Z</time>
      </trkpt>
      <trkpt lat="59.9875382" lon="17.7266056">
        <ele>28.0155</ele>
        <time>2014-05-13T18:59:26Z</time>
      </trkpt>
      <trkpt lat="59.9875149" lon="17.7266069">
        <ele>28.0155</ele>
        <time>2014-05-13T18:59:27Z</time>
      </trkpt>
      <trkpt lat="59.9874878" lon="17.7266051">
        <ele>27.5349</ele>
        <time>2014-05-13T18:59:28Z</time>
      </trkpt>
      <trkpt lat="59.987462" lon="17.7265946">
        <ele>28.0155</ele>
        <time>2014-05-13T18:59:29Z</time>
      </trkpt>
      <trkpt lat="59.9874395" lon="17.7265854">
        <ele>28.0155</ele>
        <time>2014-05-13T18:59:30Z</time>
      </trkpt>
      <trkpt lat="59.9874134" lon="17.7265854">
        <ele>28.0155</ele>
        <time>2014-05-13T18:59:31Z</time>
      </trkpt>
      <trkpt lat="59.987389" lon="17.7265758">
        <ele>27.5349</ele>
        <time>2014-05-13T18:59:32Z</time>
      </trkpt>
      <trkpt lat="59.9873627" lon="17.7265705">
        <ele>27.0543</ele>
        <time>2014-05-13T18:59:33Z</time>
      </trkpt>
      <trkpt lat="59.9873309" lon="17.7265762">
        <ele>26.5736</ele>
        <time>2014-05-13T18:59:34Z</time>
      </trkpt>
      <trkpt lat="59.987303" lon="17.72659">
        <ele>27.0543</ele>
        <time>2014-05-13T18:59:35Z</time>
      </trkpt>
      <trkpt lat="59.9872724" lon="17.7265988">
        <ele>26.5736</ele>
        <time>2014-05-13T18:59:36Z</time>
      </trkpt>
      <trkpt lat="59.9872427" lon="17.7266033">
        <ele>26.0929</ele>
        <time>2014-05-13T18:59:37Z</time>
      </trkpt>
      <trkpt lat="59.9872145" lon="17.7266098">
        <ele>25.6123</ele>
        <time>2014-05-13T18:59:38Z</time>
      </trkpt>
      <trkpt lat="59.9871845" lon="17.7266122">
        <ele>25.1317</ele>
        <time>2014-05-13T18:59:39Z</time>
      </trkpt>
      <trkpt lat="59.9871562" lon="17.7266154">
        <ele>25.1317</ele>
        <time>2014-05-13T18:59:40Z</time>
      </trkpt>
      <trkpt lat="59.9871274" lon="17.72662">
        <ele>24.651</ele>
        <time>2014-05-13T18:59:41Z</time>
      </trkpt>
      <trkpt lat="59.9870974" lon="17.72663">
        <ele>25.1317</ele>
        <time>2014-05-13T18:59:42Z</time>
      </trkpt>
      <trkpt lat="59.9870683" lon="17.7266359">
        <ele>24.651</ele>
        <time>2014-05-13T18:59:43Z</time>
      </trkpt>
      <trkpt lat="59.9870424" lon="17.7266361">
        <ele>25.1317</ele>
        <time>2014-05-13T18:59:44Z</time>
      </trkpt>
      <trkpt lat="59.9870149" lon="17.7266398">
        <ele>25.6123</ele>
        <time>2014-05-13T18:59:45Z</time>
      </trkpt>
      <trkpt lat="59.9869874" lon="17.7266336">
        <ele>25.1317</ele>
        <time>2014-05-13T18:59:46Z</time>
      </trkpt>
      <trkpt lat="59.9869666" lon="17.7266282">
        <ele>25.6123</ele>
        <time>2014-05-13T18:59:47Z</time>
      </trkpt>
      <trkpt lat="59.9869451" lon="17.7266274">
        <ele>25.6123</ele>
        <time>2014-05-13T18:59:48Z</time>
      </trkpt>
      <trkpt lat="59.9869252" lon="17.7266232">
        <ele>26.5736</ele>
        <time>2014-05-13T18:59:49Z</time>
      </trkpt>
      <trkpt lat="59.986898" lon="17.7266178">
        <ele>26.0929</ele>
        <time>2014-05-13T18:59:50Z</time>
      </trkpt>
      <trkpt lat="59.9868747" lon="17.7266139">
        <ele>26.5736</ele>
        <time>2014-05-13T18:59:51Z</time>
      </trkpt>
      <trkpt lat="59.9868503" lon="17.7266196">
        <ele>27.0543</ele>
        <time>2014-05-13T18:59:52Z</time>
      </trkpt>
      <trkpt lat="59.9868222" lon="17.7266313">
        <ele>27.5349</ele>
        <time>2014-05-13T18:59:53Z</time>
      </trkpt>
      <trkpt lat="59.9867922" lon="17.7266366">
        <ele>27.0543</ele>
        <time>2014-05-13T18:59:54Z</time>
      </trkpt>
      <trkpt lat="59.9867668" lon="17.7266347">
        <ele>27.5349</ele>
        <time>2014-05-13T18:59:55Z</time>
      </trkpt>
      <trkpt lat="59.9867347" lon="17.7266367">
        <ele>27.5349</ele>
        <time>2014-05-13T18:59:56Z</time>
      </trkpt>
      <trkpt lat="59.9866994" lon="17.7266445">
        <ele>27.0543</ele>
        <time>2014-05-13T18:59:57Z</time>
      </trkpt>
      <trkpt lat="59.9866683" lon="17.7266458">
        <ele>27.0543</ele>
        <time>2014-05-13T18:59:58Z</time>
      </trkpt>
      <trkpt lat="59.9866362" lon="17.726644">
        <ele>27.0543</ele>
        <time>2014-05-13T18:59:59Z</time>
      </trkpt>
      <trkpt lat="59.9866045" lon="17.726647">
        <ele>27.0543</ele>
        <time>2014-05-13T19:00:00Z</time>
      </trkpt>
      <trkpt lat="59.9865755" lon="17.726651">
        <ele>27.0543</ele>
        <time>2014-05-13T19:00:01Z</time>
      </trkpt>
      <trkpt lat="59.9865462" lon="17.7266543">
        <ele>27.5349</ele>
        <time>2014-05-13T19:00:02Z</time>
      </trkpt>
      <trkpt lat="59.9865162" lon="17.7266582">
        <ele>27.5349</ele>
        <time>2014-05-13T19:00:03Z</time>
      </trkpt>
      <trkpt lat="59.9864866" lon="17.7266583">
        <ele>28.0155</ele>
        <time>2014-05-13T19:00:04Z</time>
      </trkpt>
      <trkpt lat="59.98646" lon="17.7266518">
        <ele>28.0155</ele>
        <time>2014-05-13T19:00:05Z</time>
      </trkpt>
      <trkpt lat="59.9864347" lon="17.7266495">
        <ele>28.4962</ele>
        <time>2014-05-13T19:00:06Z</time>
      </trkpt>
      <trkpt lat="59.9864074" lon="17.7266513">
        <ele>28.9769</ele>
        <time>2014-05-13T19:00:07Z</time>
      </trkpt>
      <trkpt lat="59.9863802" lon="17.7266531">
        <ele>28.4962</ele>
        <time>2014-05-13T19:00:08Z</time>
      </trkpt>
      <trkpt lat="59.9863518" lon="17.7266482">
        <ele>28.4962</ele>
        <time>2014-05-13T19:00:09Z</time>
      </trkpt>
      <trkpt lat="59.9863228" lon="17.7266447">
        <ele>28.4962</ele>
        <time>2014-05-13T19:00:10Z</time>
      </trkpt>
      <trkpt lat="59.9862952" lon="17.7266475">
        <ele>28.0155</ele>
        <time>2014-05-13T19:00:11Z</time>
      </trkpt>
      <trkpt lat="59.9862674" lon="17.7266447">
        <ele>28.0155</ele>
        <time>2014-05-13T19:00:12Z</time>
      </trkpt>
      <trkpt lat="59.9862404" lon="17.7266433">
        <ele>28.4962</ele>
        <time>2014-05-13T19:00:13Z</time>
      </trkpt>
      <trkpt lat="59.9862122" lon="17.7266414">
        <ele>28.4962</ele>
        <time>2014-05-13T19:00:14Z</time>
      </trkpt>
      <trkpt lat="59.986183" lon="17.7266346">
        <ele>28.4962</ele>
        <time>2014-05-13T19:00:15Z</time>
      </trkpt>
      <trkpt lat="59.9861569" lon="17.726633">
        <ele>28.4962</ele>
        <time>2014-05-13T19:00:16Z</time>
      </trkpt>
      <trkpt lat="59.9861293" lon="17.7266299">
        <ele>28.4962</ele>
        <time>2014-05-13T19:00:17Z</time>
      </trkpt>
      <trkpt lat="59.986101" lon="17.7266206">
        <ele>28.4962</ele>
        <time>2014-05-13T19:00:18Z</time>
      </trkpt>
      <trkpt lat="59.9860752" lon="17.7266131">
        <ele>28.0155</ele>
        <time>2014-05-13T19:00:19Z</time>
      </trkpt>
      <trkpt lat="59.9860521" lon="17.7266142">
        <ele>28.0155</ele>
        <time>2014-05-13T19:00:20Z</time>
      </trkpt>
      <trkpt lat="59.9860277" lon="17.7266183">
        <ele>28.0155</ele>
        <time>2014-05-13T19:00:21Z</time>
      </trkpt>
      <trkpt lat="59.9860024" lon="17.726622">
        <ele>28.0155</ele>
        <time>2014-05-13T19:00:22Z</time>
      </trkpt>
      <trkpt lat="59.9859768" lon="17.7266261">
        <ele>28.0155</ele>
        <time>2014-05-13T19:00:23Z</time>
      </trkpt>
      <trkpt lat="59.9859524" lon="17.7266341">
        <ele>28.0155</ele>
        <time>2014-05-13T19:00:24Z</time>
      </trkpt>
      <trkpt lat="59.9859283" lon="17.7266417">
        <ele>28.4962</ele>
        <time>2014-05-13T19:00:25Z</time>
      </trkpt>
      <trkpt lat="59.9859049" lon="17.7266392">
        <ele>28.4962</ele>
        <time>2014-05-13T19:00:26Z</time>
      </trkpt>
      <trkpt lat="59.985883" lon="17.7266378">
        <ele>28.4962</ele>
        <time>2014-05-13T19:00:27Z</time>
      </trkpt>
      <trkpt lat="59.9858613" lon="17.7266402">
        <ele>28.9769</ele>
        <time>2014-05-13T19:00:28Z</time>
      </trkpt>
      <trkpt lat="59.985836" lon="17.7266387">
        <ele>28.9769</ele>
        <time>2014-05-13T19:00:29Z</time>
      </trkpt>
      <trkpt lat="59.9858106" lon="17.7266349">
        <ele>28.4962</ele>
        <time>2014-05-13T19:00:30Z</time>
      </trkpt>
      <trkpt lat="59.9857853" lon="17.726633">
        <ele>28.4962</ele>
        <time>2014-05-13T19:00:31Z</time>
      </trkpt>
      <trkpt lat="59.9857601" lon="17.7266351">
        <ele>28.4962</ele>
        <time>2014-05-13T19:00:32Z</time>
      </trkpt>
      <trkpt lat="59.9857363" lon="17.7266399">
        <ele>28.4962</ele>
        <time>2014-05-13T19:00:33Z</time>
      </trkpt>
      <trkpt lat="59.9857109" lon="17.7266392">
        <ele>28.9769</ele>
        <time>2014-05-13T19:00:34Z</time>
      </trkpt>
      <trkpt lat="59.9856861" lon="17.7266418">
        <ele>28.9769</ele>
        <time>2014-05-13T19:00:35Z</time>
      </trkpt>
      <trkpt lat="59.9856591" lon="17.7266444">
        <ele>28.9769</ele>
        <time>2014-05-13T19:00:36Z</time>
      </trkpt>
      <trkpt lat="59.9856338" lon="17.7266423">
        <ele>29.4575</ele>
        <time>2014-05-13T19:00:37Z</time>
      </trkpt>
      <trkpt lat="59.9856089" lon="17.7266466">
        <ele>29.9381</ele>
        <time>2014-05-13T19:00:38Z</time>
      </trkpt>
      <trkpt lat="59.9855816" lon="17.7266504">
        <ele>29.9381</ele>
        <time>2014-05-13T19:00:39Z</time>
      </trkpt>
      <trkpt lat="59.9855558" lon="17.7266495">
        <ele>30.4188</ele>
        <time>2014-05-13T19:00:40Z</time>
      </trkpt>
      <trkpt lat="59.9855319" lon="17.7266526">
        <ele>30.8995</ele>
        <time>2014-05-13T19:00:41Z</time>
      </trkpt>
      <trkpt lat="59.9855051" lon="17.7266562">
        <ele>30.8995</ele>
        <time>2014-05-13T19:00:42Z</time>
      </trkpt>
      <trkpt lat="59.9854799" lon="17.7266589">
        <ele>30.8995</ele>
        <time>2014-05-13T19:00:43Z</time>
      </trkpt>
      <trkpt lat="59.9854559" lon="17.7266632">
        <ele>31.3801</ele>
        <time>2014-05-13T19:00:44Z</time>
      </trkpt>
      <trkpt lat="59.9854302" lon="17.7266683">
        <ele>31.3801</ele>
        <time>2014-05-13T19:00:45Z</time>
      </trkpt>
      <trkpt lat="59.985405" lon="17.7266772">
        <ele>32.3416</ele>
        <time>2014-05-13T19:00:46Z</time>
      </trkpt>
      <trkpt lat="59.9853792" lon="17.7266822">
        <ele>32.3416</ele>
        <time>2014-05-13T19:00:47Z</time>
      </trkpt>
      <trkpt lat="59.9853553" lon="17.7266886">
        <ele>32.8223</ele>
        <time>2014-05-13T19:00:48Z</time>
      </trkpt>
      <trkpt lat="59.9853299" lon="17.7266935">
        <ele>33.7834</ele>
        <time>2014-05-13T19:00:49Z</time>
      </trkpt>
      <trkpt lat="59.9853036" lon="17.7266965">
        <ele>34.2642</ele>
        <time>2014-05-13T19:00:50Z</time>
      </trkpt>
      <trkpt lat="59.9852773" lon="17.7266952">
        <ele>34.7449</ele>
        <time>2014-05-13T19:00:51Z</time>
      </trkpt>
      <trkpt lat="59.9852527" lon="17.7266932">
        <ele>35.7061</ele>
        <time>2014-05-13T19:00:52Z</time>
      </trkpt>
      <trkpt lat="59.9852278" lon="17.7266878">
        <ele>35.7061</ele>
        <time>2014-05-13T19:00:53Z</time>
      </trkpt>
      <trkpt lat="59.9852013" lon="17.7266828">
        <ele>36.1868</ele>
        <time>2014-05-13T19:00:54Z</time>
      </trkpt>
      <trkpt lat="59.9851738" lon="17.7266795">
        <ele>36.6675</ele>
        <time>2014-05-13T19:00:55Z</time>
      </trkpt>
      <trkpt lat="59.9851469" lon="17.7266781">
        <ele>36.6675</ele>
        <time>2014-05-13T19:00:56Z</time>
      </trkpt>
      <trkpt lat="59.9851205" lon="17.7266781">
        <ele>37.1481</ele>
        <time>2014-05-13T19:00:57Z</time>
      </trkpt>
      <trkpt lat="59.9850945" lon="17.7266797">
        <ele>37.1481</ele>
        <time>2014-05-13T19:00:58Z</time>
      </trkpt>
      <trkpt lat="59.9850675" lon="17.7266828">
        <ele>37.1481</ele>
        <time>2014-05-13T19:00:59Z</time>
      </trkpt>
      <trkpt lat="59.9850411" lon="17.7266877">
        <ele>37.1481</ele>
        <time>2014-05-13T19:01:00Z</time>
      </trkpt>
      <trkpt lat="59.9850148" lon="17.7266932">
        <ele>37.6287</ele>
        <time>2014-05-13T19:01:01Z</time>
      </trkpt>
      <trkpt lat="59.9849867" lon="17.726695">
        <ele>37.6287</ele>
        <time>2014-05-13T19:01:02Z</time>
      </trkpt>
      <trkpt lat="59.9849599" lon="17.7266965">
        <ele>37.6287</ele>
        <time>2014-05-13T19:01:03Z</time>
      </trkpt>
      <trkpt lat="59.984931" lon="17.7266993">
        <ele>37.6287</ele>
        <time>2014-05-13T19:01:04Z</time>
      </trkpt>
      <trkpt lat="59.9849003" lon="17.7266957">
        <ele>37.6287</ele>
        <time>2014-05-13T19:01:05Z</time>
      </trkpt>
      <trkpt lat="59.9848735" lon="17.7266905">
        <ele>37.1481</ele>
        <time>2014-05-13T19:01:06Z</time>
      </trkpt>
      <trkpt lat="59.9848466" lon="17.7266898">
        <ele>37.1481</ele>
        <time>2014-05-13T19:01:07Z</time>
      </trkpt>
      <trkpt lat="59.9848191" lon="17.7266914">
        <ele>37.6287</ele>
        <time>2014-05-13T19:01:08Z</time>
      </trkpt>
      <trkpt lat="59.984793" lon="17.7266925">
        <ele>37.1481</ele>
        <time>2014-05-13T19:01:09Z</time>
      </trkpt>
      <trkpt lat="59.9847659" lon="17.7266869">
        <ele>36.6675</ele>
        <time>2014-05-13T19:01:10Z</time>
      </trkpt>
      <trkpt lat="59.9847396" lon="17.7266728">
        <ele>36.1868</ele>
        <time>2014-05-13T19:01:11Z</time>
      </trkpt>
      <trkpt lat="59.984713" lon="17.7266657">
        <ele>35.7061</ele>
        <time>2014-05-13T19:01:12Z</time>
      </trkpt>
      <trkpt lat="59.9846858" lon="17.7266631">
        <ele>35.2255</ele>
        <time>2014-05-13T19:01:13Z</time>
      </trkpt>
      <trkpt lat="59.9846586" lon="17.7266621">
        <ele>35.2255</ele>
        <time>2014-05-13T19:01:14Z</time>
      </trkpt>
      <trkpt lat="59.984629" lon="17.7266583">
        <ele>34.2642</ele>
        <time>2014-05-13T19:01:15Z</time>
      </trkpt>
      <trkpt lat="59.9846008" lon="17.7266523">
        <ele>34.2642</ele>
        <time>2014-05-13T19:01:16Z</time>
      </trkpt>
      <trkpt lat="59.9845729" lon="17.7266404">
        <ele>33.3029</ele>
        <time>2014-05-13T19:01:17Z</time>
      </trkpt>
      <trkpt lat="59.984548" lon="17.7266228">
        <ele>32.8223</ele>
        <time>2014-05-13T19:01:18Z</time>
      </trkpt>
      <trkpt lat="59.98452" lon="17.7266148">
        <ele>31.8607</ele>
        <time>2014-05-13T19:01:19Z</time>
      </trkpt>
      <trkpt lat="59.9844927" lon="17.7266119">
        <ele>31.8607</ele>
        <time>2014-05-13T19:01:20Z</time>
      </trkpt>
      <trkpt lat="59.9844644" lon="17.7266036">
        <ele>31.3801</ele>
        <time>2014-05-13T19:01:21Z</time>
      </trkpt>
      <trkpt lat="59.9844379" lon="17.7265938">
        <ele>30.8995</ele>
        <time>2014-05-13T19:01:22Z</time>
      </trkpt>
      <trkpt lat="59.9844145" lon="17.7265914">
        <ele>30.8995</ele>
        <time>2014-05-13T19:01:23Z</time>
      </trkpt>
      <trkpt lat="59.9843885" lon="17.7265888">
        <ele>30.8995</ele>
        <time>2014-05-13T19:01:24Z</time>
      </trkpt>
      <trkpt lat="59.9843601" lon="17.7265843">
        <ele>30.8995</ele>
        <time>2014-05-13T19:01:25Z</time>
      </trkpt>
      <trkpt lat="59.9843322" lon="17.7265867">
        <ele>30.8995</ele>
        <time>2014-05-13T19:01:26Z</time>
      </trkpt>
      <trkpt lat="59.9843035" lon="17.7265909">
        <ele>31.3801</ele>
        <time>2014-05-13T19:01:27Z</time>
      </trkpt>
      <trkpt lat="59.9842736" lon="17.7265903">
        <ele>31.3801</ele>
        <time>2014-05-13T19:01:28Z</time>
      </trkpt>
      <trkpt lat="59.984242" lon="17.7265869">
        <ele>31.3801</ele>
        <time>2014-05-13T19:01:29Z</time>
      </trkpt>
      <trkpt lat="59.9842098" lon="17.7265807">
        <ele>30.8995</ele>
        <time>2014-05-13T19:01:30Z</time>
      </trkpt>
      <trkpt lat="59.9841794" lon="17.7265813">
        <ele>30.8995</ele>
        <time>2014-05-13T19:01:31Z</time>
      </trkpt>
      <trkpt lat="59.9841503" lon="17.7265831">
        <ele>30.8995</ele>
        <time>2014-05-13T19:01:32Z</time>
      </trkpt>
      <trkpt lat="59.9841198" lon="17.7265826">
        <ele>30.8995</ele>
        <time>2014-05-13T19:01:33Z</time>
      </trkpt>
      <trkpt lat="59.9840912" lon="17.7265719">
        <ele>30.4188</ele>
        <time>2014-05-13T19:01:34Z</time>
      </trkpt>
      <trkpt lat="59.9840631" lon="17.7265611">
        <ele>30.4188</ele>
        <time>2014-05-13T19:01:35Z</time>
      </trkpt>
      <trkpt lat="59.9840333" lon="17.7265543">
        <ele>29.9381</ele>
        <time>2014-05-13T19:01:36Z</time>
      </trkpt>
      <trkpt lat="59.9840054" lon="17.7265562">
        <ele>29.9381</ele>
        <time>2014-05-13T19:01:37Z</time>
      </trkpt>
      <trkpt lat="59.9839792" lon="17.7265636">
        <ele>30.4188</ele>
        <time>2014-05-13T19:01:38Z</time>
      </trkpt>
      <trkpt lat="59.9839519" lon="17.7265582">
        <ele>30.4188</ele>
        <time>2014-05-13T19:01:39Z</time>
      </trkpt>
      <trkpt lat="59.9839246" lon="17.7265563">
        <ele>30.4188</ele>
        <time>2014-05-13T19:01:40Z</time>
      </trkpt>
      <trkpt lat="59.9838935" lon="17.7265593">
        <ele>30.8995</ele>
        <time>2014-05-13T19:01:41Z</time>
      </trkpt>
      <trkpt lat="59.9838664" lon="17.7265584">
        <ele>30.8995</ele>
        <time>2014-05-13T19:01:42Z</time>
      </trkpt>
      <trkpt lat="59.9838411" lon="17.7265564">
        <ele>30.4188</ele>
        <time>2014-05-13T19:01:43Z</time>
      </trkpt>
      <trkpt lat="59.9838131" lon="17.7265624">
        <ele>30.8995</ele>
        <time>2014-05-13T19:01:44Z</time>
      </trkpt>
      <trkpt lat="59.983784" lon="17.7265579">
        <ele>30.4188</ele>
        <time>2014-05-13T19:01:45Z</time>
      </trkpt>
      <trkpt lat="59.9837562" lon="17.7265512">
        <ele>30.4188</ele>
        <time>2014-05-13T19:01:46Z</time>
      </trkpt>
      <trkpt lat="59.9837287" lon="17.7265542">
        <ele>30.4188</ele>
        <time>2014-05-13T19:01:47Z</time>
      </trkpt>
      <trkpt lat="59.9837012" lon="17.72656">
        <ele>30.8995</ele>
        <time>2014-05-13T19:01:48Z</time>
      </trkpt>
      <trkpt lat="59.9836718" lon="17.7265646">
        <ele>30.8995</ele>
        <time>2014-05-13T19:01:49Z</time>
      </trkpt>
      <trkpt lat="59.9836437" lon="17.7265663">
        <ele>30.8995</ele>
        <time>2014-05-13T19:01:50Z</time>
      </trkpt>
      <trkpt lat="59.9836192" lon="17.7265709">
        <ele>31.3801</ele>
        <time>2014-05-13T19:01:51Z</time>
      </trkpt>
      <trkpt lat="59.9835923" lon="17.7265745">
        <ele>31.8607</ele>
        <time>2014-05-13T19:01:52Z</time>
      </trkpt>
      <trkpt lat="59.9835619" lon="17.7265679">
        <ele>31.8607</ele>
        <time>2014-05-13T19:01:53Z</time>
      </trkpt>
      <trkpt lat="59.9835324" lon="17.7265621">
        <ele>31.8607</ele>
        <time>2014-05-13T19:01:54Z</time>
      </trkpt>
      <trkpt lat="59.9835033" lon="17.726561">
        <ele>31.8607</ele>
        <time>2014-05-13T19:01:55Z</time>
      </trkpt>
      <trkpt lat="59.9834758" lon="17.7265656">
        <ele>31.8607</ele>
        <time>2014-05-13T19:01:56Z</time>
      </trkpt>
      <trkpt lat="59.9834501" lon="17.7265703">
        <ele>32.3416</ele>
        <time>2014-05-13T19:01:57Z</time>
      </trkpt>
      <trkpt lat="59.9834266" lon="17.7265751">
        <ele>32.3416</ele>
        <time>2014-05-13T19:01:58Z</time>
      </trkpt>
      <trkpt lat="59.9834048" lon="17.7265828">
        <ele>32.3416</ele>
        <time>2014-05-13T19:01:59Z</time>
      </trkpt>
      <trkpt lat="59.9833822" lon="17.7265921">
        <ele>32.8223</ele>
        <time>2014-05-13T19:02:00Z</time>
      </trkpt>
      <trkpt lat="59.9833578" lon="17.726593">
        <ele>32.3416</ele>
        <time>2014-05-13T19:02:01Z</time>
      </trkpt>
      <trkpt lat="59.9833354" lon="17.7265912">
        <ele>32.3416</ele>
        <time>2014-05-13T19:02:02Z</time>
      </trkpt>
      <trkpt lat="59.9833136" lon="17.7265926">
        <ele>31.8607</ele>
        <time>2014-05-13T19:02:03Z</time>
      </trkpt>
      <trkpt lat="59.9832877" lon="17.7265958">
        <ele>31.8607</ele>
        <time>2014-05-13T19:02:04Z</time>
      </trkpt>
      <trkpt lat="59.9832604" lon="17.7265999">
        <ele>31.3801</ele>
        <time>2014-05-13T19:02:05Z</time>
      </trkpt>
      <trkpt lat="59.983234" lon="17.7266107">
        <ele>31.3801</ele>
        <time>2014-05-13T19:02:06Z</time>
      </trkpt>
      <trkpt lat="59.9832076" lon="17.7266155">
        <ele>31.3801</ele>
        <time>2014-05-13T19:02:07Z</time>
      </trkpt>
      <trkpt lat="59.9831842" lon="17.7266183">
        <ele>30.8995</ele>
        <time>2014-05-13T19:02:08Z</time>
      </trkpt>
      <trkpt lat="59.9831626" lon="17.7266184">
        <ele>30.4188</ele>
        <time>2014-05-13T19:02:09Z</time>
      </trkpt>
      <trkpt lat="59.9831221" lon="17.7266096">
        <ele>29.9381</ele>
        <time>2014-05-13T19:02:10Z</time>
      </trkpt>
      <trkpt lat="59.9831014" lon="17.7266092">
        <ele>29.4575</ele>
        <time>2014-05-13T19:02:11Z</time>
      </trkpt>
      <trkpt lat="59.9830776" lon="17.7266136">
        <ele>28.9769</ele>
        <time>2014-05-13T19:02:12Z</time>
      </trkpt>
      <trkpt lat="59.9830569" lon="17.7266231">
        <ele>28.4962</ele>
        <time>2014-05-13T19:02:13Z</time>
      </trkpt>
      <trkpt lat="59.9830318" lon="17.7266308">
        <ele>28.9769</ele>
        <time>2014-05-13T19:02:14Z</time>
      </trkpt>
      <trkpt lat="59.9830055" lon="17.7266283">
        <ele>28.4962</ele>
        <time>2014-05-13T19:02:15Z</time>
      </trkpt>
      <trkpt lat="59.9829798" lon="17.7266287">
        <ele>28.4962</ele>
        <time>2014-05-13T19:02:16Z</time>
      </trkpt>
      <trkpt lat="59.9829507" lon="17.7266284">
        <ele>28.4962</ele>
        <time>2014-05-13T19:02:17Z</time>
      </trkpt>
      <trkpt lat="59.9829249" lon="17.7266319">
        <ele>28.4962</ele>
        <time>2014-05-13T19:02:18Z</time>
      </trkpt>
      <trkpt lat="59.9828999" lon="17.7266319">
        <ele>28.0155</ele>
        <time>2014-05-13T19:02:19Z</time>
      </trkpt>
      <trkpt lat="59.9828709" lon="17.7266293">
        <ele>27.5349</ele>
        <time>2014-05-13T19:02:20Z</time>
      </trkpt>
      <trkpt lat="59.9828445" lon="17.726633">
        <ele>27.0543</ele>
        <time>2014-05-13T19:02:21Z</time>
      </trkpt>
      <trkpt lat="59.9828158" lon="17.7266388">
        <ele>27.0543</ele>
        <time>2014-05-13T19:02:22Z</time>
      </trkpt>
      <trkpt lat="59.9827885" lon="17.7266454">
        <ele>26.5736</ele>
        <time>2014-05-13T19:02:23Z</time>
      </trkpt>
      <trkpt lat="59.9827611" lon="17.7266553">
        <ele>26.5736</ele>
        <time>2014-05-13T19:02:24Z</time>
      </trkpt>
      <trkpt lat="59.982736" lon="17.7266635">
        <ele>26.5736</ele>
        <time>2014-05-13T19:02:25Z</time>
      </trkpt>
      <trkpt lat="59.982713" lon="17.7266678">
        <ele>25.6123</ele>
        <time>2014-05-13T19:02:26Z</time>
      </trkpt>
      <trkpt lat="59.98269" lon="17.7266794">
        <ele>25.1317</ele>
        <time>2014-05-13T19:02:27Z</time>
      </trkpt>
      <trkpt lat="59.9826678" lon="17.7267043">
        <ele>25.1317</ele>
        <time>2014-05-13T19:02:28Z</time>
      </trkpt>
      <trkpt lat="59.9826461" lon="17.726729">
        <ele>25.1317</ele>
        <time>2014-05-13T19:02:29Z</time>
      </trkpt>
      <trkpt lat="59.982622" lon="17.7267585">
        <ele>24.651</ele>
        <time>2014-05-13T19:02:30Z</time>
      </trkpt>
      <trkpt lat="59.9826" lon="17.7267903">
        <ele>24.651</ele>
        <time>2014-05-13T19:02:31Z</time>
      </trkpt>
      <trkpt lat="59.9825747" lon="17.726812">
        <ele>24.1703</ele>
        <time>2014-05-13T19:02:32Z</time>
      </trkpt>
      <trkpt lat="59.9825503" lon="17.7268345">
        <ele>23.6896</ele>
        <time>2014-05-13T19:02:33Z</time>
      </trkpt>
      <trkpt lat="59.9825275" lon="17.7268574">
        <ele>23.6896</ele>
        <time>2014-05-13T19:02:34Z</time>
      </trkpt>
      <trkpt lat="59.9825032" lon="17.7268821">
        <ele>23.6896</ele>
        <time>2014-05-13T19:02:35Z</time>
      </trkpt>
      <trkpt lat="59.9824823" lon="17.7269064">
        <ele>23.6896</ele>
        <time>2014-05-13T19:02:36Z</time>
      </trkpt>
      <trkpt lat="59.9824596" lon="17.7269262">
        <ele>23.6896</ele>
        <time>2014-05-13T19:02:37Z</time>
      </trkpt>
      <trkpt lat="59.9824351" lon="17.7269411">
        <ele>23.6896</ele>
        <time>2014-05-13T19:02:38Z</time>
      </trkpt>
      <trkpt lat="59.9824094" lon="17.7269562">
        <ele>23.209</ele>
        <time>2014-05-13T19:02:39Z</time>
      </trkpt>
      <trkpt lat="59.9823848" lon="17.7269828">
        <ele>22.2476</ele>
        <time>2014-05-13T19:02:40Z</time>
      </trkpt>
      <trkpt lat="59.9823597" lon="17.7270152">
        <ele>21.767</ele>
        <time>2014-05-13T19:02:41Z</time>
      </trkpt>
      <trkpt lat="59.9823378" lon="17.7270514">
        <ele>21.2864</ele>
        <time>2014-05-13T19:02:42Z</time>
      </trkpt>
      <trkpt lat="59.9823174" lon="17.727093">
        <ele>21.2864</ele>
        <time>2014-05-13T19:02:43Z</time>
      </trkpt>
      <trkpt lat="59.9822991" lon="17.7271334">
        <ele>21.2864</ele>
        <time>2014-05-13T19:02:44Z</time>
      </trkpt>
      <trkpt lat="59.982284" lon="17.7271679">
        <ele>20.8057</ele>
        <time>2014-05-13T19:02:45Z</time>
      </trkpt>
      <trkpt lat="59.9822678" lon="17.7272059">
        <ele>20.325</ele>
        <time>2014-05-13T19:02:46Z</time>
      </trkpt>
      <trkpt lat="59.9822485" lon="17.7272531">
        <ele>20.325</ele>
        <time>2014-05-13T19:02:47Z</time>
      </trkpt>
      <trkpt lat="59.9822328" lon="17.7272987">
        <ele>20.325</ele>
        <time>2014-05-13T19:02:48Z</time>
      </trkpt>
      <trkpt lat="59.9822166" lon="17.7273354">
        <ele>19.8444</ele>
        <time>2014-05-13T19:02:49Z</time>
      </trkpt>
      <trkpt lat="59.9821968" lon="17.7273764">
        <ele>19.3638</ele>
        <time>2014-05-13T19:02:50Z</time>
      </trkpt>
      <trkpt lat="59.9821789" lon="17.7274177">
        <ele>19.3638</ele>
        <time>2014-05-13T19:02:51Z</time>
      </trkpt>
      <trkpt lat="59.9821612" lon="17.7274582">
        <ele>18.8831</ele>
        <time>2014-05-13T19:02:52Z</time>
      </trkpt>
      <trkpt lat="59.9821413" lon="17.727498">
        <ele>18.4023</ele>
        <time>2014-05-13T19:02:53Z</time>
      </trkpt>
      <trkpt lat="59.9821207" lon="17.727536">
        <ele>17.9218</ele>
        <time>2014-05-13T19:02:54Z</time>
      </trkpt>
      <trkpt lat="59.9821006" lon="17.7275722">
        <ele>17.4412</ele>
        <time>2014-05-13T19:02:55Z</time>
      </trkpt>
      <trkpt lat="59.9820774" lon="17.7276044">
        <ele>17.4412</ele>
        <time>2014-05-13T19:02:56Z</time>
      </trkpt>
      <trkpt lat="59.9820586" lon="17.7276358">
        <ele>17.4412</ele>
        <time>2014-05-13T19:02:57Z</time>
      </trkpt>
      <trkpt lat="59.9820377" lon="17.7276633">
        <ele>16.9604</ele>
        <time>2014-05-13T19:02:58Z</time>
      </trkpt>
      <trkpt lat="59.9820161" lon="17.7276978">
        <ele>17.4412</ele>
        <time>2014-05-13T19:02:59Z</time>
      </trkpt>
      <trkpt lat="59.9819959" lon="17.7277253">
        <ele>17.4412</ele>
        <time>2014-05-13T19:03:00Z</time>
      </trkpt>
      <trkpt lat="59.9819753" lon="17.7277498">
        <ele>16.9604</ele>
        <time>2014-05-13T19:03:01Z</time>
      </trkpt>
      <trkpt lat="59.9819548" lon="17.727782">
        <ele>16.9604</ele>
        <time>2014-05-13T19:03:02Z</time>
      </trkpt>
      <trkpt lat="59.9819359" lon="17.727814">
        <ele>16.4797</ele>
        <time>2014-05-13T19:03:03Z</time>
      </trkpt>
      <trkpt lat="59.9819183" lon="17.727846">
        <ele>16.4797</ele>
        <time>2014-05-13T19:03:04Z</time>
      </trkpt>
      <trkpt lat="59.981899" lon="17.7278781">
        <ele>16.4797</ele>
        <time>2014-05-13T19:03:05Z</time>
      </trkpt>
      <trkpt lat="59.9818809" lon="17.7279069">
        <ele>16.4797</ele>
        <time>2014-05-13T19:03:06Z</time>
      </trkpt>
      <trkpt lat="59.9818623" lon="17.7279337">
        <ele>16.4797</ele>
        <time>2014-05-13T19:03:07Z</time>
      </trkpt>
      <trkpt lat="59.9818406" lon="17.7279576">
        <ele>15.999</ele>
        <time>2014-05-13T19:03:08Z</time>
      </trkpt>
      <trkpt lat="59.9818214" lon="17.727981">
        <ele>15.999</ele>
        <time>2014-05-13T19:03:09Z</time>
      </trkpt>
      <trkpt lat="59.9817997" lon="17.7280094">
        <ele>15.5184</ele>
        <time>2014-05-13T19:03:10Z</time>
      </trkpt>
      <trkpt lat="59.981778" lon="17.7280373">
        <ele>15.5184</ele>
        <time>2014-05-13T19:03:11Z</time>
      </trkpt>
      <trkpt lat="59.9817585" lon="17.7280659">
        <ele>15.999</ele>
        <time>2014-05-13T19:03:12Z</time>
      </trkpt>
      <trkpt lat="59.981737" lon="17.7280913">
        <ele>15.5184</ele>
        <time>2014-05-13T19:03:13Z</time>
      </trkpt>
      <trkpt lat="59.9817137" lon="17.7281109">
        <ele>15.5184</ele>
        <time>2014-05-13T19:03:14Z</time>
      </trkpt>
      <trkpt lat="59.9816909" lon="17.7281327">
        <ele>15.999</ele>
        <time>2014-05-13T19:03:15Z</time>
      </trkpt>
      <trkpt lat="59.981667" lon="17.7281565">
        <ele>15.999</ele>
        <time>2014-05-13T19:03:16Z</time>
      </trkpt>
      <trkpt lat="59.9816435" lon="17.728174">
        <ele>16.4797</ele>
        <time>2014-05-13T19:03:17Z</time>
      </trkpt>
      <trkpt lat="59.9816214" lon="17.7281943">
        <ele>16.4797</ele>
        <time>2014-05-13T19:03:18Z</time>
      </trkpt>
      <trkpt lat="59.9816019" lon="17.7282202">
        <ele>16.9604</ele>
        <time>2014-05-13T19:03:19Z</time>
      </trkpt>
      <trkpt lat="59.98158" lon="17.7282359">
        <ele>16.9604</ele>
        <time>2014-05-13T19:03:20Z</time>
      </trkpt>
      <trkpt lat="59.9815555" lon="17.7282563">
        <ele>16.9604</ele>
        <time>2014-05-13T19:03:21Z</time>
      </trkpt>
      <trkpt lat="59.9815309" lon="17.7282803">
        <ele>16.9604</ele>
        <time>2014-05-13T19:03:22Z</time>
      </trkpt>
      <trkpt lat="59.9815059" lon="17.7282901">
        <ele>16.9604</ele>
        <time>2014-05-13T19:03:23Z</time>
      </trkpt>
      <trkpt lat="59.9814837" lon="17.7283005">
        <ele>16.9604</ele>
        <time>2014-05-13T19:03:24Z</time>
      </trkpt>
      <trkpt lat="59.9814654" lon="17.7283228">
        <ele>17.4412</ele>
        <time>2014-05-13T19:03:25Z</time>
      </trkpt>
      <trkpt lat="59.9814441" lon="17.7283492">
        <ele>16.9604</ele>
        <time>2014-05-13T19:03:26Z</time>
      </trkpt>
      <trkpt lat="59.9814228" lon="17.72837">
        <ele>16.4797</ele>
        <time>2014-05-13T19:03:27Z</time>
      </trkpt>
      <trkpt lat="59.9814006" lon="17.7283974">
        <ele>16.4797</ele>
        <time>2014-05-13T19:03:28Z</time>
      </trkpt>
      <trkpt lat="59.9813786" lon="17.7284239">
        <ele>16.4797</ele>
        <time>2014-05-13T19:03:29Z</time>
      </trkpt>
      <trkpt lat="59.9813609" lon="17.7284544">
        <ele>16.4797</ele>
        <time>2014-05-13T19:03:30Z</time>
      </trkpt>
      <trkpt lat="59.9813407" lon="17.7284829">
        <ele>16.9604</ele>
        <time>2014-05-13T19:03:31Z</time>
      </trkpt>
      <trkpt lat="59.9813194" lon="17.7285093">
        <ele>17.4412</ele>
        <time>2014-05-13T19:03:32Z</time>
      </trkpt>
      <trkpt lat="59.9812992" lon="17.7285386">
        <ele>16.9604</ele>
        <time>2014-05-13T19:03:33Z</time>
      </trkpt>
      <trkpt lat="59.9812766" lon="17.7285693">
        <ele>16.9604</ele>
        <time>2014-05-13T19:03:34Z</time>
      </trkpt>
      <trkpt lat="59.9812506" lon="17.7285922">
        <ele>15.999</ele>
        <time>2014-05-13T19:03:35Z</time>
      </trkpt>
      <trkpt lat="59.9812299" lon="17.7286149">
        <ele>16.4797</ele>
        <time>2014-05-13T19:03:36Z</time>
      </trkpt>
      <trkpt lat="59.9812069" lon="17.7286387">
        <ele>16.4797</ele>
        <time>2014-05-13T19:03:37Z</time>
      </trkpt>
      <trkpt lat="59.9811822" lon="17.7286622">
        <ele>15.999</ele>
        <time>2014-05-13T19:03:38Z</time>
      </trkpt>
      <trkpt lat="59.9811615" lon="17.7286909">
        <ele>15.999</ele>
        <time>2014-05-13T19:03:39Z</time>
      </trkpt>
      <trkpt lat="59.9811392" lon="17.7287178">
        <ele>15.5184</ele>
        <time>2014-05-13T19:03:40Z</time>
      </trkpt>
      <trkpt lat="59.9811154" lon="17.7287478">
        <ele>15.5184</ele>
        <time>2014-05-13T19:03:41Z</time>
      </trkpt>
      <trkpt lat="59.9810949" lon="17.7287782">
        <ele>15.5184</ele>
        <time>2014-05-13T19:03:42Z</time>
      </trkpt>
      <trkpt lat="59.9810708" lon="17.728804">
        <ele>15.0377</ele>
        <time>2014-05-13T19:03:43Z</time>
      </trkpt>
      <trkpt lat="59.9810464" lon="17.7288284">
        <ele>15.0377</ele>
        <time>2014-05-13T19:03:44Z</time>
      </trkpt>
      <trkpt lat="59.9810231" lon="17.728846">
        <ele>15.0377</ele>
        <time>2014-05-13T19:03:45Z</time>
      </trkpt>
      <trkpt lat="59.9809999" lon="17.7288577">
        <ele>14.557</ele>
        <time>2014-05-13T19:03:46Z</time>
      </trkpt>
      <trkpt lat="59.9809756" lon="17.7288652">
        <ele>14.0764</ele>
        <time>2014-05-13T19:03:47Z</time>
      </trkpt>
      <trkpt lat="59.9809542" lon="17.7288746">
        <ele>14.0764</ele>
        <time>2014-05-13T19:03:48Z</time>
      </trkpt>
      <trkpt lat="59.9809336" lon="17.7288882">
        <ele>14.557</ele>
        <time>2014-05-13T19:03:49Z</time>
      </trkpt>
      <trkpt lat="59.9809082" lon="17.7288941">
        <ele>14.557</ele>
        <time>2014-05-13T19:03:50Z</time>
      </trkpt>
      <trkpt lat="59.9808849" lon="17.7289033">
        <ele>14.557</ele>
        <time>2014-05-13T19:03:51Z</time>
      </trkpt>
      <trkpt lat="59.9808626" lon="17.7289033">
        <ele>14.557</ele>
        <time>2014-05-13T19:03:52Z</time>
      </trkpt>
      <trkpt lat="59.9808423" lon="17.7288978">
        <ele>15.0377</ele>
        <time>2014-05-13T19:03:53Z</time>
      </trkpt>
      <trkpt lat="59.9808193" lon="17.7288862">
        <ele>15.5184</ele>
        <time>2014-05-13T19:03:54Z</time>
      </trkpt>
      <trkpt lat="59.9807932" lon="17.7288628">
        <ele>15.5184</ele>
        <time>2014-05-13T19:03:55Z</time>
      </trkpt>
      <trkpt lat="59.9807688" lon="17.7288354">
        <ele>15.5184</ele>
        <time>2014-05-13T19:03:56Z</time>
      </trkpt>
      <trkpt lat="59.980743" lon="17.7288076">
        <ele>15.5184</ele>
        <time>2014-05-13T19:03:57Z</time>
      </trkpt>
      <trkpt lat="59.9807175" lon="17.7287862">
        <ele>15.999</ele>
        <time>2014-05-13T19:03:58Z</time>
      </trkpt>
      <trkpt lat="59.9806906" lon="17.7287416">
        <ele>15.5184</ele>
        <time>2014-05-13T19:03:59Z</time>
      </trkpt>
      <trkpt lat="59.9806683" lon="17.7286988">
        <ele>14.557</ele>
        <time>2014-05-13T19:04:00Z</time>
      </trkpt>
      <trkpt lat="59.9806439" lon="17.7286551">
        <ele>14.0764</ele>
        <time>2014-05-13T19:04:01Z</time>
      </trkpt>
      <trkpt lat="59.9806201" lon="17.7286072">
        <ele>13.5958</ele>
        <time>2014-05-13T19:04:02Z</time>
      </trkpt>
      <trkpt lat="59.9806002" lon="17.7285698">
        <ele>13.5958</ele>
        <time>2014-05-13T19:04:03Z</time>
      </trkpt>
      <trkpt lat="59.9805774" lon="17.7285249">
        <ele>13.1151</ele>
        <time>2014-05-13T19:04:04Z</time>
      </trkpt>
      <trkpt lat="59.9805572" lon="17.7284834">
        <ele>12.6344</ele>
        <time>2014-05-13T19:04:05Z</time>
      </trkpt>
      <trkpt lat="59.9805409" lon="17.7284453">
        <ele>12.6344</ele>
        <time>2014-05-13T19:04:06Z</time>
      </trkpt>
      <trkpt lat="59.9805258" lon="17.7284088">
        <ele>12.6344</ele>
        <time>2014-05-13T19:04:07Z</time>
      </trkpt>
      <trkpt lat="59.9805077" lon="17.7283617">
        <ele>12.6344</ele>
        <time>2014-05-13T19:04:08Z</time>
      </trkpt>
      <trkpt lat="59.980488" lon="17.7283217">
        <ele>12.6344</ele>
        <time>2014-05-13T19:04:09Z</time>
      </trkpt>
      <trkpt lat="59.9804683" lon="17.7282874">
        <ele>13.1151</ele>
        <time>2014-05-13T19:04:10Z</time>
      </trkpt>
      <trkpt lat="59.9804479" lon="17.7282466">
        <ele>12.6344</ele>
        <time>2014-05-13T19:04:11Z</time>
      </trkpt>
      <trkpt lat="59.98043" lon="17.728206">
        <ele>12.1538</ele>
        <time>2014-05-13T19:04:12Z</time>
      </trkpt>
      <trkpt lat="59.9804094" lon="17.7281641">
        <ele>11.6732</ele>
        <time>2014-05-13T19:04:13Z</time>
      </trkpt>
      <trkpt lat="59.980387" lon="17.7281275">
        <ele>12.1538</ele>
        <time>2014-05-13T19:04:14Z</time>
      </trkpt>
      <trkpt lat="59.9803659" lon="17.7280897">
        <ele>11.6732</ele>
        <time>2014-05-13T19:04:15Z</time>
      </trkpt>
      <trkpt lat="59.9803461" lon="17.7280461">
        <ele>11.6732</ele>
        <time>2014-05-13T19:04:16Z</time>
      </trkpt>
      <trkpt lat="59.9803249" lon="17.7280011">
        <ele>11.6732</ele>
        <time>2014-05-13T19:04:17Z</time>
      </trkpt>
      <trkpt lat="59.9803048" lon="17.7279653">
        <ele>11.6732</ele>
        <time>2014-05-13T19:04:18Z</time>
      </trkpt>
      <trkpt lat="59.9802866" lon="17.7279335">
        <ele>12.1538</ele>
        <time>2014-05-13T19:04:19Z</time>
      </trkpt>
      <trkpt lat="59.9802654" lon="17.7278896">
        <ele>12.1538</ele>
        <time>2014-05-13T19:04:20Z</time>
      </trkpt>
      <trkpt lat="59.9802485" lon="17.7278489">
        <ele>12.6344</ele>
        <time>2014-05-13T19:04:21Z</time>
      </trkpt>
      <trkpt lat="59.9802347" lon="17.7278135">
        <ele>13.5958</ele>
        <time>2014-05-13T19:04:22Z</time>
      </trkpt>
      <trkpt lat="59.9802192" lon="17.7277789">
        <ele>13.5958</ele>
        <time>2014-05-13T19:04:23Z</time>
      </trkpt>
      <trkpt lat="59.980203" lon="17.7277469">
        <ele>13.5958</ele>
        <time>2014-05-13T19:04:24Z</time>
      </trkpt>
      <trkpt lat="59.9801866" lon="17.7277172">
        <ele>14.0764</ele>
        <time>2014-05-13T19:04:25Z</time>
      </trkpt>
      <trkpt lat="59.9801708" lon="17.7276864">
        <ele>14.557</ele>
        <time>2014-05-13T19:04:26Z</time>
      </trkpt>
      <trkpt lat="59.9801517" lon="17.7276498">
        <ele>14.0764</ele>
        <time>2014-05-13T19:04:27Z</time>
      </trkpt>
      <trkpt lat="59.9801345" lon="17.727614">
        <ele>14.0764</ele>
        <time>2014-05-13T19:04:28Z</time>
      </trkpt>
      <trkpt lat="59.9801197" lon="17.7275816">
        <ele>14.557</ele>
        <time>2014-05-13T19:04:29Z</time>
      </trkpt>
      <trkpt lat="59.9801052" lon="17.7275397">
        <ele>14.557</ele>
        <time>2014-05-13T19:04:30Z</time>
      </trkpt>
      <trkpt lat="59.9800887" lon="17.7274967">
        <ele>14.557</ele>
        <time>2014-05-13T19:04:31Z</time>
      </trkpt>
      <trkpt lat="59.980072" lon="17.727466">
        <ele>14.557</ele>
        <time>2014-05-13T19:04:32Z</time>
      </trkpt>
      <trkpt lat="59.9800519" lon="17.7274281">
        <ele>14.557</ele>
        <time>2014-05-13T19:04:33Z</time>
      </trkpt>
      <trkpt lat="59.9800377" lon="17.7273964">
        <ele>15.0377</ele>
        <time>2014-05-13T19:04:34Z</time>
      </trkpt>
      <trkpt lat="59.9800208" lon="17.7273592">
        <ele>15.0377</ele>
        <time>2014-05-13T19:04:35Z</time>
      </trkpt>
      <trkpt lat="59.9800005" lon="17.727322">
        <ele>15.5184</ele>
        <time>2014-05-13T19:04:36Z</time>
      </trkpt>
      <trkpt lat="59.9799768" lon="17.7272852">
        <ele>15.0377</ele>
        <time>2014-05-13T19:04:37Z</time>
      </trkpt>
      <trkpt lat="59.979957" lon="17.7272483">
        <ele>15.0377</ele>
        <time>2014-05-13T19:04:38Z</time>
      </trkpt>
      <trkpt lat="59.9799382" lon="17.7272091">
        <ele>15.0377</ele>
        <time>2014-05-13T19:04:39Z</time>
      </trkpt>
      <trkpt lat="59.9799247" lon="17.72718">
        <ele>15.5184</ele>
        <time>2014-05-13T19:04:40Z</time>
      </trkpt>
      <trkpt lat="59.9799085" lon="17.727142">
        <ele>15.0377</ele>
        <time>2014-05-13T19:04:41Z</time>
      </trkpt>
      <trkpt lat="59.9798908" lon="17.7271075">
        <ele>15.5184</ele>
        <time>2014-05-13T19:04:42Z</time>
      </trkpt>
      <trkpt lat="59.9798705" lon="17.7270736">
        <ele>15.999</ele>
        <time>2014-05-13T19:04:43Z</time>
      </trkpt>
      <trkpt lat="59.9798448" lon="17.7270329">
        <ele>15.5184</ele>
        <time>2014-05-13T19:04:44Z</time>
      </trkpt>
      <trkpt lat="59.9798215" lon="17.726999">
        <ele>15.5184</ele>
        <time>2014-05-13T19:04:45Z</time>
      </trkpt>
      <trkpt lat="59.9797989" lon="17.7269602">
        <ele>14.557</ele>
        <time>2014-05-13T19:04:46Z</time>
      </trkpt>
      <trkpt lat="59.9797792" lon="17.7269241">
        <ele>14.557</ele>
        <time>2014-05-13T19:04:47Z</time>
      </trkpt>
      <trkpt lat="59.9797619" lon="17.7268926">
        <ele>14.557</ele>
        <time>2014-05-13T19:04:48Z</time>
      </trkpt>
      <trkpt lat="59.9797435" lon="17.7268548">
        <ele>14.0764</ele>
        <time>2014-05-13T19:04:49Z</time>
      </trkpt>
      <trkpt lat="59.9797241" lon="17.7268181">
        <ele>14.0764</ele>
        <time>2014-05-13T19:04:50Z</time>
      </trkpt>
      <trkpt lat="59.9797089" lon="17.7267827">
        <ele>14.0764</ele>
        <time>2014-05-13T19:04:51Z</time>
      </trkpt>
      <trkpt lat="59.9796908" lon="17.7267459">
        <ele>14.0764</ele>
        <time>2014-05-13T19:04:52Z</time>
      </trkpt>
      <trkpt lat="59.9796707" lon="17.7267093">
        <ele>14.0764</ele>
        <time>2014-05-13T19:04:53Z</time>
      </trkpt>
      <trkpt lat="59.9796543" lon="17.7266745">
        <ele>14.0764</ele>
        <time>2014-05-13T19:04:54Z</time>
      </trkpt>
      <trkpt lat="59.9796336" lon="17.7266316">
        <ele>14.0764</ele>
        <time>2014-05-13T19:04:55Z</time>
      </trkpt>
      <trkpt lat="59.979615" lon="17.7265875">
        <ele>14.0764</ele>
        <time>2014-05-13T19:04:56Z</time>
      </trkpt>
      <trkpt lat="59.979594" lon="17.7265454">
        <ele>14.0764</ele>
        <time>2014-05-13T19:04:57Z</time>
      </trkpt>
      <trkpt lat="59.9795694" lon="17.7265071">
        <ele>14.0764</ele>
        <time>2014-05-13T19:04:58Z</time>
      </trkpt>
      <trkpt lat="59.9795454" lon="17.7264722">
        <ele>14.0764</ele>
        <time>2014-05-13T19:04:59Z</time>
      </trkpt>
      <trkpt lat="59.9795213" lon="17.7264377">
        <ele>13.5958</ele>
        <time>2014-05-13T19:05:00Z</time>
      </trkpt>
      <trkpt lat="59.9795003" lon="17.7264117">
        <ele>14.0764</ele>
        <time>2014-05-13T19:05:01Z</time>
      </trkpt>
      <trkpt lat="59.979477" lon="17.7263952">
        <ele>14.0764</ele>
        <time>2014-05-13T19:05:02Z</time>
      </trkpt>
      <trkpt lat="59.9794541" lon="17.7263905">
        <ele>14.0764</ele>
        <time>2014-05-13T19:05:03Z</time>
      </trkpt>
      <trkpt lat="59.9794309" lon="17.7263912">
        <ele>14.0764</ele>
        <time>2014-05-13T19:05:04Z</time>
      </trkpt>
      <trkpt lat="59.9794068" lon="17.726389">
        <ele>14.0764</ele>
        <time>2014-05-13T19:05:05Z</time>
      </trkpt>
      <trkpt lat="59.979381" lon="17.7263769">
        <ele>13.5958</ele>
        <time>2014-05-13T19:05:06Z</time>
      </trkpt>
      <trkpt lat="59.9793583" lon="17.7263606">
        <ele>14.0764</ele>
        <time>2014-05-13T19:05:07Z</time>
      </trkpt>
      <trkpt lat="59.9793382" lon="17.7263562">
        <ele>14.557</ele>
        <time>2014-05-13T19:05:08Z</time>
      </trkpt>
      <trkpt lat="59.9793164" lon="17.7263502">
        <ele>15.0377</ele>
        <time>2014-05-13T19:05:09Z</time>
      </trkpt>
      <trkpt lat="59.9792929" lon="17.7263365">
        <ele>15.0377</ele>
        <time>2014-05-13T19:05:10Z</time>
      </trkpt>
      <trkpt lat="59.9792727" lon="17.7263252">
        <ele>15.0377</ele>
        <time>2014-05-13T19:05:11Z</time>
      </trkpt>
      <trkpt lat="59.9792495" lon="17.7263093">
        <ele>15.0377</ele>
        <time>2014-05-13T19:05:12Z</time>
      </trkpt>
      <trkpt lat="59.9792263" lon="17.7262896">
        <ele>15.0377</ele>
        <time>2014-05-13T19:05:13Z</time>
      </trkpt>
      <trkpt lat="59.9792039" lon="17.7262651">
        <ele>15.5184</ele>
        <time>2014-05-13T19:05:14Z</time>
      </trkpt>
      <trkpt lat="59.9791804" lon="17.7262393">
        <ele>15.999</ele>
        <time>2014-05-13T19:05:15Z</time>
      </trkpt>
      <trkpt lat="59.9791584" lon="17.7262165">
        <ele>16.4797</ele>
        <time>2014-05-13T19:05:16Z</time>
      </trkpt>
      <trkpt lat="59.9791375" lon="17.7261988">
        <ele>16.9604</ele>
        <time>2014-05-13T19:05:17Z</time>
      </trkpt>
      <trkpt lat="59.9791158" lon="17.7261746">
        <ele>16.9604</ele>
        <time>2014-05-13T19:05:18Z</time>
      </trkpt>
      <trkpt lat="59.9790921" lon="17.7261464">
        <ele>16.9604</ele>
        <time>2014-05-13T19:05:19Z</time>
      </trkpt>
      <trkpt lat="59.9790692" lon="17.7261181">
        <ele>16.4797</ele>
        <time>2014-05-13T19:05:20Z</time>
      </trkpt>
      <trkpt lat="59.9790465" lon="17.7260901">
        <ele>16.4797</ele>
        <time>2014-05-13T19:05:21Z</time>
      </trkpt>
      <trkpt lat="59.9790248" lon="17.7260627">
        <ele>16.4797</ele>
        <time>2014-05-13T19:05:22Z</time>
      </trkpt>
      <trkpt lat="59.9790055" lon="17.7260366">
        <ele>17.4412</ele>
        <time>2014-05-13T19:05:23Z</time>
      </trkpt>
      <trkpt lat="59.9789853" lon="17.7260066">
        <ele>17.4412</ele>
        <time>2014-05-13T19:05:24Z</time>
      </trkpt>
      <trkpt lat="59.978965" lon="17.725977">
        <ele>17.4412</ele>
        <time>2014-05-13T19:05:25Z</time>
      </trkpt>
      <trkpt lat="59.9789401" lon="17.7259387">
        <ele>16.9604</ele>
        <time>2014-05-13T19:05:26Z</time>
      </trkpt>
      <trkpt lat="59.9789152" lon="17.7259026">
        <ele>16.4797</ele>
        <time>2014-05-13T19:05:27Z</time>
      </trkpt>
      <trkpt lat="59.978891" lon="17.7258713">
        <ele>16.4797</ele>
        <time>2014-05-13T19:05:28Z</time>
      </trkpt>
      <trkpt lat="59.9788699" lon="17.7258445">
        <ele>15.999</ele>
        <time>2014-05-13T19:05:29Z</time>
      </trkpt>
      <trkpt lat="59.9788485" lon="17.7258162">
        <ele>16.4797</ele>
        <time>2014-05-13T19:05:30Z</time>
      </trkpt>
      <trkpt lat="59.9788262" lon="17.7257881">
        <ele>15.999</ele>
        <time>2014-05-13T19:05:31Z</time>
      </trkpt>
      <trkpt lat="59.9788048" lon="17.7257615">
        <ele>15.5184</ele>
        <time>2014-05-13T19:05:32Z</time>
      </trkpt>
      <trkpt lat="59.9787795" lon="17.7257338">
        <ele>15.0377</ele>
        <time>2014-05-13T19:05:33Z</time>
      </trkpt>
      <trkpt lat="59.9787566" lon="17.7257139">
        <ele>15.0377</ele>
        <time>2014-05-13T19:05:34Z</time>
      </trkpt>
      <trkpt lat="59.9787341" lon="17.7256955">
        <ele>14.557</ele>
        <time>2014-05-13T19:05:35Z</time>
      </trkpt>
      <trkpt lat="59.9787171" lon="17.7256835">
        <ele>15.0377</ele>
        <time>2014-05-13T19:05:36Z</time>
      </trkpt>
      <trkpt lat="59.978696" lon="17.7256654">
        <ele>15.999</ele>
        <time>2014-05-13T19:05:37Z</time>
      </trkpt>
      <trkpt lat="59.9786717" lon="17.7256409">
        <ele>15.999</ele>
        <time>2014-05-13T19:05:38Z</time>
      </trkpt>
      <trkpt lat="59.9786481" lon="17.7256171">
        <ele>15.999</ele>
        <time>2014-05-13T19:05:39Z</time>
      </trkpt>
      <trkpt lat="59.9786243" lon="17.7255906">
        <ele>15.999</ele>
        <time>2014-05-13T19:05:40Z</time>
      </trkpt>
      <trkpt lat="59.9785986" lon="17.7255701">
        <ele>15.999</ele>
        <time>2014-05-13T19:05:41Z</time>
      </trkpt>
      <trkpt lat="59.9785693" lon="17.7255474">
        <ele>15.5184</ele>
        <time>2014-05-13T19:05:42Z</time>
      </trkpt>
      <trkpt lat="59.9785425" lon="17.7255281">
        <ele>15.5184</ele>
        <time>2014-05-13T19:05:43Z</time>
      </trkpt>
      <trkpt lat="59.9785173" lon="17.7255131">
        <ele>15.5184</ele>
        <time>2014-05-13T19:05:44Z</time>
      </trkpt>
      <trkpt lat="59.978494" lon="17.725493">
        <ele>15.0377</ele>
        <time>2014-05-13T19:05:45Z</time>
      </trkpt>
      <trkpt lat="59.9784699" lon="17.7254723">
        <ele>15.0377</ele>
        <time>2014-05-13T19:05:46Z</time>
      </trkpt>
      <trkpt lat="59.9784461" lon="17.7254528">
        <ele>15.0377</ele>
        <time>2014-05-13T19:05:47Z</time>
      </trkpt>
      <trkpt lat="59.9784253" lon="17.7254384">
        <ele>15.0377</ele>
        <time>2014-05-13T19:05:48Z</time>
      </trkpt>
      <trkpt lat="59.9784045" lon="17.725423">
        <ele>15.0377</ele>
        <time>2014-05-13T19:05:49Z</time>
      </trkpt>
      <trkpt lat="59.9783808" lon="17.7254002">
        <ele>15.0377</ele>
        <time>2014-05-13T19:05:50Z</time>
      </trkpt>
      <trkpt lat="59.9783581" lon="17.7253789">
        <ele>15.0377</ele>
        <time>2014-05-13T19:05:51Z</time>
      </trkpt>
      <trkpt lat="59.9783368" lon="17.7253586">
        <ele>15.0377</ele>
        <time>2014-05-13T19:05:52Z</time>
      </trkpt>
      <trkpt lat="59.978316" lon="17.7253395">
        <ele>15.5184</ele>
        <time>2014-05-13T19:05:53Z</time>
      </trkpt>
      <trkpt lat="59.9782942" lon="17.7253214">
        <ele>15.5184</ele>
        <time>2014-05-13T19:05:54Z</time>
      </trkpt>
      <trkpt lat="59.9782692" lon="17.7253037">
        <ele>15.999</ele>
        <time>2014-05-13T19:05:55Z</time>
      </trkpt>
      <trkpt lat="59.9782449" lon="17.7252872">
        <ele>15.5184</ele>
        <time>2014-05-13T19:05:56Z</time>
      </trkpt>
      <trkpt lat="59.9782193" lon="17.7252701">
        <ele>15.5184</ele>
        <time>2014-05-13T19:05:57Z</time>
      </trkpt>
      <trkpt lat="59.9781912" lon="17.7252504">
        <ele>15.5184</ele>
        <time>2014-05-13T19:05:58Z</time>
      </trkpt>
      <trkpt lat="59.9781649" lon="17.7252343">
        <ele>15.999</ele>
        <time>2014-05-13T19:05:59Z</time>
      </trkpt>
      <trkpt lat="59.9781383" lon="17.7252152">
        <ele>15.999</ele>
        <time>2014-05-13T19:06:00Z</time>
      </trkpt>
      <trkpt lat="59.9781162" lon="17.7251997">
        <ele>16.4797</ele>
        <time>2014-05-13T19:06:01Z</time>
      </trkpt>
      <trkpt lat="59.9780913" lon="17.7251832">
        <ele>15.999</ele>
        <time>2014-05-13T19:06:02Z</time>
      </trkpt>
      <trkpt lat="59.9780652" lon="17.7251675">
        <ele>16.4797</ele>
        <time>2014-05-13T19:06:03Z</time>
      </trkpt>
      <trkpt lat="59.9780393" lon="17.7251521">
        <ele>16.4797</ele>
        <time>2014-05-13T19:06:04Z</time>
      </trkpt>
      <trkpt lat="59.978012" lon="17.7251352">
        <ele>16.9604</ele>
        <time>2014-05-13T19:06:05Z</time>
      </trkpt>
      <trkpt lat="59.9779841" lon="17.7251145">
        <ele>16.4797</ele>
        <time>2014-05-13T19:06:06Z</time>
      </trkpt>
      <trkpt lat="59.9779613" lon="17.7251003">
        <ele>16.9604</ele>
        <time>2014-05-13T19:06:07Z</time>
      </trkpt>
      <trkpt lat="59.9779372" lon="17.725093">
        <ele>16.9604</ele>
        <time>2014-05-13T19:06:08Z</time>
      </trkpt>
      <trkpt lat="59.9779146" lon="17.7250898">
        <ele>17.4412</ele>
        <time>2014-05-13T19:06:09Z</time>
      </trkpt>
      <trkpt lat="59.9778901" lon="17.7250878">
        <ele>17.4412</ele>
        <time>2014-05-13T19:06:10Z</time>
      </trkpt>
      <trkpt lat="59.9778667" lon="17.7250876">
        <ele>17.4412</ele>
        <time>2014-05-13T19:06:11Z</time>
      </trkpt>
      <trkpt lat="59.9778418" lon="17.7250837">
        <ele>17.9218</ele>
        <time>2014-05-13T19:06:12Z</time>
      </trkpt>
      <trkpt lat="59.9778164" lon="17.7250809">
        <ele>18.4023</ele>
        <time>2014-05-13T19:06:13Z</time>
      </trkpt>
      <trkpt lat="59.977794" lon="17.7250824">
        <ele>18.8831</ele>
        <time>2014-05-13T19:06:14Z</time>
      </trkpt>
      <trkpt lat="59.9777684" lon="17.7250774">
        <ele>18.8831</ele>
        <time>2014-05-13T19:06:15Z</time>
      </trkpt>
      <trkpt lat="59.9777432" lon="17.7250749">
        <ele>18.8831</ele>
        <time>2014-05-13T19:06:16Z</time>
      </trkpt>
      <trkpt lat="59.977716" lon="17.7250655">
        <ele>18.4023</ele>
        <time>2014-05-13T19:06:17Z</time>
      </trkpt>
      <trkpt lat="59.9776923" lon="17.7250576">
        <ele>18.4023</ele>
        <time>2014-05-13T19:06:18Z</time>
      </trkpt>
      <trkpt lat="59.9776664" lon="17.7250505">
        <ele>17.9218</ele>
        <time>2014-05-13T19:06:19Z</time>
      </trkpt>
      <trkpt lat="59.9776425" lon="17.7250495">
        <ele>17.9218</ele>
        <time>2014-05-13T19:06:20Z</time>
      </trkpt>
      <trkpt lat="59.9776178" lon="17.7250423">
        <ele>17.9218</ele>
        <time>2014-05-13T19:06:21Z</time>
      </trkpt>
      <trkpt lat="59.9775944" lon="17.7250329">
        <ele>17.9218</ele>
        <time>2014-05-13T19:06:22Z</time>
      </trkpt>
      <trkpt lat="59.9775696" lon="17.7250164">
        <ele>17.4412</ele>
        <time>2014-05-13T19:06:23Z</time>
      </trkpt>
      <trkpt lat="59.9775468" lon="17.7250024">
        <ele>16.9604</ele>
        <time>2014-05-13T19:06:24Z</time>
      </trkpt>
      <trkpt lat="59.9775224" lon="17.7249956">
        <ele>16.9604</ele>
        <time>2014-05-13T19:06:25Z</time>
      </trkpt>
      <trkpt lat="59.9774953" lon="17.7249888">
        <ele>16.4797</ele>
        <time>2014-05-13T19:06:26Z</time>
      </trkpt>
      <trkpt lat="59.9774702" lon="17.724977">
        <ele>15.5184</ele>
        <time>2014-05-13T19:06:27Z</time>
      </trkpt>
      <trkpt lat="59.9774478" lon="17.7249651">
        <ele>15.5184</ele>
        <time>2014-05-13T19:06:28Z</time>
      </trkpt>
      <trkpt lat="59.9774214" lon="17.7249574">
        <ele>15.0377</ele>
        <time>2014-05-13T19:06:29Z</time>
      </trkpt>
      <trkpt lat="59.9773965" lon="17.7249636">
        <ele>15.5184</ele>
        <time>2014-05-13T19:06:30Z</time>
      </trkpt>
      <trkpt lat="59.977369" lon="17.7249641">
        <ele>15.5184</ele>
        <time>2014-05-13T19:06:31Z</time>
      </trkpt>
      <trkpt lat="59.9773432" lon="17.7249645">
        <ele>15.999</ele>
        <time>2014-05-13T19:06:32Z</time>
      </trkpt>
      <trkpt lat="59.9773182" lon="17.724963">
        <ele>15.999</ele>
        <time>2014-05-13T19:06:33Z</time>
      </trkpt>
      <trkpt lat="59.9772929" lon="17.7249576">
        <ele>15.999</ele>
        <time>2014-05-13T19:06:34Z</time>
      </trkpt>
      <trkpt lat="59.9772699" lon="17.7249607">
        <ele>16.4797</ele>
        <time>2014-05-13T19:06:35Z</time>
      </trkpt>
      <trkpt lat="59.9772482" lon="17.7249676">
        <ele>16.4797</ele>
        <time>2014-05-13T19:06:36Z</time>
      </trkpt>
      <trkpt lat="59.977227" lon="17.7249718">
        <ele>16.4797</ele>
        <time>2014-05-13T19:06:37Z</time>
      </trkpt>
      <trkpt lat="59.977204" lon="17.7249675">
        <ele>16.4797</ele>
        <time>2014-05-13T19:06:38Z</time>
      </trkpt>
      <trkpt lat="59.97718" lon="17.7249703">
        <ele>16.4797</ele>
        <time>2014-05-13T19:06:39Z</time>
      </trkpt>
      <trkpt lat="59.9771567" lon="17.7249858">
        <ele>16.4797</ele>
        <time>2014-05-13T19:06:40Z</time>
      </trkpt>
      <trkpt lat="59.9771356" lon="17.7250052">
        <ele>16.4797</ele>
        <time>2014-05-13T19:06:41Z</time>
      </trkpt>
      <trkpt lat="59.9771102" lon="17.7250251">
        <ele>15.999</ele>
        <time>2014-05-13T19:06:42Z</time>
      </trkpt>
      <trkpt lat="59.9770856" lon="17.7250482">
        <ele>15.5184</ele>
        <time>2014-05-13T19:06:43Z</time>
      </trkpt>
      <trkpt lat="59.9770625" lon="17.7250708">
        <ele>15.999</ele>
        <time>2014-05-13T19:06:44Z</time>
      </trkpt>
      <trkpt lat="59.9770394" lon="17.7250915">
        <ele>15.999</ele>
        <time>2014-05-13T19:06:45Z</time>
      </trkpt>
      <trkpt lat="59.9770179" lon="17.7251168">
        <ele>15.999</ele>
        <time>2014-05-13T19:06:46Z</time>
      </trkpt>
      <trkpt lat="59.9769947" lon="17.7251428">
        <ele>15.999</ele>
        <time>2014-05-13T19:06:47Z</time>
      </trkpt>
      <trkpt lat="59.97697" lon="17.7251676">
        <ele>15.5184</ele>
        <time>2014-05-13T19:06:48Z</time>
      </trkpt>
      <trkpt lat="59.976946" lon="17.7251925">
        <ele>15.5184</ele>
        <time>2014-05-13T19:06:49Z</time>
      </trkpt>
      <trkpt lat="59.9769215" lon="17.7252176">
        <ele>15.5184</ele>
        <time>2014-05-13T19:06:50Z</time>
      </trkpt>
      <trkpt lat="59.9768946" lon="17.725239">
        <ele>15.5184</ele>
        <time>2014-05-13T19:06:51Z</time>
      </trkpt>
      <trkpt lat="59.9768688" lon="17.7252593">
        <ele>15.5184</ele>
        <time>2014-05-13T19:06:52Z</time>
      </trkpt>
      <trkpt lat="59.9768426" lon="17.7252789">
        <ele>15.5184</ele>
        <time>2014-05-13T19:06:53Z</time>
      </trkpt>
      <trkpt lat="59.9768174" lon="17.7252984">
        <ele>15.0377</ele>
        <time>2014-05-13T19:06:54Z</time>
      </trkpt>
      <trkpt lat="59.9767941" lon="17.7253207">
        <ele>15.5184</ele>
        <time>2014-05-13T19:06:55Z</time>
      </trkpt>
      <trkpt lat="59.9767698" lon="17.7253411">
        <ele>15.5184</ele>
        <time>2014-05-13T19:06:56Z</time>
      </trkpt>
      <trkpt lat="59.9767437" lon="17.7253639">
        <ele>15.5184</ele>
        <time>2014-05-13T19:06:57Z</time>
      </trkpt>
      <trkpt lat="59.976717" lon="17.7253913">
        <ele>15.0377</ele>
        <time>2014-05-13T19:06:58Z</time>
      </trkpt>
      <trkpt lat="59.9766921" lon="17.7254193">
        <ele>15.0377</ele>
        <time>2014-05-13T19:06:59Z</time>
      </trkpt>
      <trkpt lat="59.9766693" lon="17.7254393">
        <ele>15.0377</ele>
        <time>2014-05-13T19:07:00Z</time>
      </trkpt>
      <trkpt lat="59.9766478" lon="17.7254596">
        <ele>15.0377</ele>
        <time>2014-05-13T19:07:01Z</time>
      </trkpt>
      <trkpt lat="59.9766253" lon="17.7254815">
        <ele>14.557</ele>
        <time>2014-05-13T19:07:02Z</time>
      </trkpt>
      <trkpt lat="59.9766045" lon="17.7255053">
        <ele>15.0377</ele>
        <time>2014-05-13T19:07:03Z</time>
      </trkpt>
      <trkpt lat="59.9765818" lon="17.7255285">
        <ele>15.0377</ele>
        <time>2014-05-13T19:07:04Z</time>
      </trkpt>
      <trkpt lat="59.9765578" lon="17.7255519">
        <ele>14.557</ele>
        <time>2014-05-13T19:07:05Z</time>
      </trkpt>
      <trkpt lat="59.976533" lon="17.7255743">
        <ele>14.557</ele>
        <time>2014-05-13T19:07:06Z</time>
      </trkpt>
      <trkpt lat="59.9765082" lon="17.725603">
        <ele>14.0764</ele>
        <time>2014-05-13T19:07:07Z</time>
      </trkpt>
      <trkpt lat="59.9764831" lon="17.725632">
        <ele>14.0764</ele>
        <time>2014-05-13T19:07:08Z</time>
      </trkpt>
      <trkpt lat="59.9764575" lon="17.7256575">
        <ele>14.0764</ele>
        <time>2014-05-13T19:07:09Z</time>
      </trkpt>
      <trkpt lat="59.9764342" lon="17.7256777">
        <ele>14.0764</ele>
        <time>2014-05-13T19:07:10Z</time>
      </trkpt>
      <trkpt lat="59.9764129" lon="17.7257021">
        <ele>14.0764</ele>
        <time>2014-05-13T19:07:11Z</time>
      </trkpt>
      <trkpt lat="59.976388" lon="17.7257234">
        <ele>14.0764</ele>
        <time>2014-05-13T19:07:12Z</time>
      </trkpt>
      <trkpt lat="59.9763629" lon="17.7257431">
        <ele>13.5958</ele>
        <time>2014-05-13T19:07:13Z</time>
      </trkpt>
      <trkpt lat="59.9763387" lon="17.7257664">
        <ele>13.5958</ele>
        <time>2014-05-13T19:07:14Z</time>
      </trkpt>
      <trkpt lat="59.976316" lon="17.7257933">
        <ele>13.5958</ele>
        <time>2014-05-13T19:07:15Z</time>
      </trkpt>
      <trkpt lat="59.9762932" lon="17.7258172">
        <ele>14.0764</ele>
        <time>2014-05-13T19:07:16Z</time>
      </trkpt>
      <trkpt lat="59.9762704" lon="17.7258389">
        <ele>14.0764</ele>
        <time>2014-05-13T19:07:17Z</time>
      </trkpt>
      <trkpt lat="59.9762486" lon="17.7258678">
        <ele>14.0764</ele>
        <time>2014-05-13T19:07:18Z</time>
      </trkpt>
      <trkpt lat="59.9762263" lon="17.7258988">
        <ele>14.0764</ele>
        <time>2014-05-13T19:07:19Z</time>
      </trkpt>
      <trkpt lat="59.9762063" lon="17.7259264">
        <ele>14.557</ele>
        <time>2014-05-13T19:07:20Z</time>
      </trkpt>
      <trkpt lat="59.976185" lon="17.7259524">
        <ele>14.0764</ele>
        <time>2014-05-13T19:07:21Z</time>
      </trkpt>
      <trkpt lat="59.976162" lon="17.7259768">
        <ele>14.557</ele>
        <time>2014-05-13T19:07:22Z</time>
      </trkpt>
      <trkpt lat="59.9761414" lon="17.7260052">
        <ele>14.557</ele>
        <time>2014-05-13T19:07:23Z</time>
      </trkpt>
      <trkpt lat="59.9761194" lon="17.7260328">
        <ele>14.0764</ele>
        <time>2014-05-13T19:07:24Z</time>
      </trkpt>
      <trkpt lat="59.9760961" lon="17.7260595">
        <ele>14.0764</ele>
        <time>2014-05-13T19:07:25Z</time>
      </trkpt>
      <trkpt lat="59.9760734" lon="17.726084">
        <ele>13.5958</ele>
        <time>2014-05-13T19:07:26Z</time>
      </trkpt>
      <trkpt lat="59.9760511" lon="17.7261068">
        <ele>13.5958</ele>
        <time>2014-05-13T19:07:27Z</time>
      </trkpt>
      <trkpt lat="59.9760311" lon="17.7261295">
        <ele>13.5958</ele>
        <time>2014-05-13T19:07:28Z</time>
      </trkpt>
      <trkpt lat="59.9760067" lon="17.7261478">
        <ele>13.1151</ele>
        <time>2014-05-13T19:07:29Z</time>
      </trkpt>
      <trkpt lat="59.975982" lon="17.7261734">
        <ele>12.6344</ele>
        <time>2014-05-13T19:07:30Z</time>
      </trkpt>
      <trkpt lat="59.9759545" lon="17.726201">
        <ele>12.1538</ele>
        <time>2014-05-13T19:07:31Z</time>
      </trkpt>
      <trkpt lat="59.9759281" lon="17.7262222">
        <ele>11.6732</ele>
        <time>2014-05-13T19:07:32Z</time>
      </trkpt>
      <trkpt lat="59.9759036" lon="17.7262376">
        <ele>11.6732</ele>
        <time>2014-05-13T19:07:33Z</time>
      </trkpt>
      <trkpt lat="59.9758802" lon="17.7262523">
        <ele>11.6732</ele>
        <time>2014-05-13T19:07:34Z</time>
      </trkpt>
      <trkpt lat="59.9758571" lon="17.7262715">
        <ele>11.6732</ele>
        <time>2014-05-13T19:07:35Z</time>
      </trkpt>
      <trkpt lat="59.9758358" lon="17.7262895">
        <ele>11.6732</ele>
        <time>2014-05-13T19:07:36Z</time>
      </trkpt>
      <trkpt lat="59.9758157" lon="17.7263024">
        <ele>11.6732</ele>
        <time>2014-05-13T19:07:37Z</time>
      </trkpt>
      <trkpt lat="59.9757954" lon="17.7263211">
        <ele>11.6732</ele>
        <time>2014-05-13T19:07:38Z</time>
      </trkpt>
      <trkpt lat="59.9757736" lon="17.726341">
        <ele>11.1925</ele>
        <time>2014-05-13T19:07:39Z</time>
      </trkpt>
      <trkpt lat="59.9757522" lon="17.7263652">
        <ele>11.1925</ele>
        <time>2014-05-13T19:07:40Z</time>
      </trkpt>
      <trkpt lat="59.9757301" lon="17.7263874">
        <ele>10.7118</ele>
        <time>2014-05-13T19:07:41Z</time>
      </trkpt>
      <trkpt lat="59.9757074" lon="17.7264091">
        <ele>10.2312</ele>
        <time>2014-05-13T19:07:42Z</time>
      </trkpt>
      <trkpt lat="59.9756836" lon="17.7264284">
        <ele>9.75061</ele>
        <time>2014-05-13T19:07:43Z</time>
      </trkpt>
      <trkpt lat="59.9756566" lon="17.726445">
        <ele>9.75061</ele>
        <time>2014-05-13T19:07:44Z</time>
      </trkpt>
      <trkpt lat="59.9756338" lon="17.7264656">
        <ele>9.75061</ele>
        <time>2014-05-13T19:07:45Z</time>
      </trkpt>
      <trkpt lat="59.9756126" lon="17.7264841">
        <ele>9.2699</ele>
        <time>2014-05-13T19:07:46Z</time>
      </trkpt>
      <trkpt lat="59.9755928" lon="17.7265056">
        <ele>9.2699</ele>
        <time>2014-05-13T19:07:47Z</time>
      </trkpt>
      <trkpt lat="59.9755737" lon="17.726531">
        <ele>9.2699</ele>
        <time>2014-05-13T19:07:48Z</time>
      </trkpt>
      <trkpt lat="59.9755553" lon="17.7265556">
        <ele>9.2699</ele>
        <time>2014-05-13T19:07:49Z</time>
      </trkpt>
      <trkpt lat="59.9755338" lon="17.726572">
        <ele>8.78918</ele>
        <time>2014-05-13T19:07:50Z</time>
      </trkpt>
      <trkpt lat="59.9755125" lon="17.7265978">
        <ele>8.78918</ele>
        <time>2014-05-13T19:07:51Z</time>
      </trkpt>
      <trkpt lat="59.9754886" lon="17.7266201">
        <ele>8.78918</ele>
        <time>2014-05-13T19:07:52Z</time>
      </trkpt>
      <trkpt lat="59.9754676" lon="17.7266422">
        <ele>9.2699</ele>
        <time>2014-05-13T19:07:53Z</time>
      </trkpt>
      <trkpt lat="59.97545" lon="17.726662">
        <ele>10.2312</ele>
        <time>2014-05-13T19:07:54Z</time>
      </trkpt>
      <trkpt lat="59.9754323" lon="17.7266849">
        <ele>10.7118</ele>
        <time>2014-05-13T19:07:55Z</time>
      </trkpt>
      <trkpt lat="59.9754126" lon="17.7267081">
        <ele>10.2312</ele>
        <time>2014-05-13T19:07:56Z</time>
      </trkpt>
      <trkpt lat="59.9753899" lon="17.7267307">
        <ele>10.2312</ele>
        <time>2014-05-13T19:07:57Z</time>
      </trkpt>
      <trkpt lat="59.9753705" lon="17.7267589">
        <ele>10.2312</ele>
        <time>2014-05-13T19:07:58Z</time>
      </trkpt>
      <trkpt lat="59.9753494" lon="17.7267874">
        <ele>10.7118</ele>
        <time>2014-05-13T19:07:59Z</time>
      </trkpt>
      <trkpt lat="59.9753272" lon="17.726818">
        <ele>10.7118</ele>
        <time>2014-05-13T19:08:00Z</time>
      </trkpt>
      <trkpt lat="59.9752996" lon="17.7268412">
        <ele>10.7118</ele>
        <time>2014-05-13T19:08:01Z</time>
      </trkpt>
      <trkpt lat="59.9752749" lon="17.7268546">
        <ele>10.7118</ele>
        <time>2014-05-13T19:08:02Z</time>
      </trkpt>
      <trkpt lat="59.9752515" lon="17.726877">
        <ele>10.2312</ele>
        <time>2014-05-13T19:08:03Z</time>
      </trkpt>
      <trkpt lat="59.9752274" lon="17.7268965">
        <ele>9.75061</ele>
        <time>2014-05-13T19:08:04Z</time>
      </trkpt>
      <trkpt lat="59.9752031" lon="17.7269184">
        <ele>10.2312</ele>
        <time>2014-05-13T19:08:05Z</time>
      </trkpt>
      <trkpt lat="59.9751779" lon="17.7269417">
        <ele>10.2312</ele>
        <time>2014-05-13T19:08:06Z</time>
      </trkpt>
      <trkpt lat="59.9751515" lon="17.7269638">
        <ele>10.7118</ele>
        <time>2014-05-13T19:08:07Z</time>
      </trkpt>
      <trkpt lat="59.9751276" lon="17.7269888">
        <ele>10.7118</ele>
        <time>2014-05-13T19:08:08Z</time>
      </trkpt>
      <trkpt lat="59.9751042" lon="17.7270165">
        <ele>11.1925</ele>
        <time>2014-05-13T19:08:09Z</time>
      </trkpt>
      <trkpt lat="59.9750805" lon="17.7270437">
        <ele>11.1925</ele>
        <time>2014-05-13T19:08:10Z</time>
      </trkpt>
      <trkpt lat="59.9750577" lon="17.7270754">
        <ele>11.6732</ele>
        <time>2014-05-13T19:08:11Z</time>
      </trkpt>
      <trkpt lat="59.9750339" lon="17.7271061">
        <ele>11.6732</ele>
        <time>2014-05-13T19:08:12Z</time>
      </trkpt>
      <trkpt lat="59.9750156" lon="17.7271371">
        <ele>12.6344</ele>
        <time>2014-05-13T19:08:13Z</time>
      </trkpt>
      <trkpt lat="59.974993" lon="17.727165">
        <ele>13.1151</ele>
        <time>2014-05-13T19:08:14Z</time>
      </trkpt>
      <trkpt lat="59.974967" lon="17.7271842">
        <ele>13.5958</ele>
        <time>2014-05-13T19:08:15Z</time>
      </trkpt>
      <trkpt lat="59.9749432" lon="17.7272104">
        <ele>13.5958</ele>
        <time>2014-05-13T19:08:16Z</time>
      </trkpt>
      <trkpt lat="59.9749199" lon="17.7272392">
        <ele>14.0764</ele>
        <time>2014-05-13T19:08:17Z</time>
      </trkpt>
      <trkpt lat="59.9748972" lon="17.7272602">
        <ele>14.0764</ele>
        <time>2014-05-13T19:08:18Z</time>
      </trkpt>
      <trkpt lat="59.9748738" lon="17.7272817">
        <ele>13.5958</ele>
        <time>2014-05-13T19:08:19Z</time>
      </trkpt>
      <trkpt lat="59.9748509" lon="17.7273029">
        <ele>14.0764</ele>
        <time>2014-05-13T19:08:20Z</time>
      </trkpt>
      <trkpt lat="59.9748323" lon="17.727338">
        <ele>14.0764</ele>
        <time>2014-05-13T19:08:21Z</time>
      </trkpt>
      <trkpt lat="59.9748097" lon="17.7273653">
        <ele>14.0764</ele>
        <time>2014-05-13T19:08:22Z</time>
      </trkpt>
      <trkpt lat="59.9747878" lon="17.7273951">
        <ele>14.0764</ele>
        <time>2014-05-13T19:08:23Z</time>
      </trkpt>
      <trkpt lat="59.9747651" lon="17.7274214">
        <ele>14.0764</ele>
        <time>2014-05-13T19:08:24Z</time>
      </trkpt>
      <trkpt lat="59.9747392" lon="17.727443">
        <ele>14.0764</ele>
        <time>2014-05-13T19:08:25Z</time>
      </trkpt>
      <trkpt lat="59.974716" lon="17.7274722">
        <ele>13.5958</ele>
        <time>2014-05-13T19:08:26Z</time>
      </trkpt>
      <trkpt lat="59.9746956" lon="17.7275079">
        <ele>14.0764</ele>
        <time>2014-05-13T19:08:27Z</time>
      </trkpt>
      <trkpt lat="59.9746721" lon="17.7275359">
        <ele>14.0764</ele>
        <time>2014-05-13T19:08:28Z</time>
      </trkpt>
      <trkpt lat="59.9746509" lon="17.7275618">
        <ele>14.557</ele>
        <time>2014-05-13T19:08:29Z</time>
      </trkpt>
      <trkpt lat="59.9746294" lon="17.7275855">
        <ele>14.557</ele>
        <time>2014-05-13T19:08:30Z</time>
      </trkpt>
      <trkpt lat="59.9746074" lon="17.7276129">
        <ele>14.557</ele>
        <time>2014-05-13T19:08:31Z</time>
      </trkpt>
      <trkpt lat="59.9745838" lon="17.7276388">
        <ele>15.0377</ele>
        <time>2014-05-13T19:08:32Z</time>
      </trkpt>
      <trkpt lat="59.9745604" lon="17.7276665">
        <ele>15.0377</ele>
        <time>2014-05-13T19:08:33Z</time>
      </trkpt>
      <trkpt lat="59.9745366" lon="17.7276981">
        <ele>15.0377</ele>
        <time>2014-05-13T19:08:34Z</time>
      </trkpt>
      <trkpt lat="59.9745175" lon="17.7277184">
        <ele>15.999</ele>
        <time>2014-05-13T19:08:35Z</time>
      </trkpt>
      <trkpt lat="59.9744967" lon="17.7277446">
        <ele>15.999</ele>
        <time>2014-05-13T19:08:36Z</time>
      </trkpt>
      <trkpt lat="59.9744771" lon="17.7277779">
        <ele>16.4797</ele>
        <time>2014-05-13T19:08:37Z</time>
      </trkpt>
      <trkpt lat="59.9744604" lon="17.7278079">
        <ele>16.4797</ele>
        <time>2014-05-13T19:08:38Z</time>
      </trkpt>
      <trkpt lat="59.9744496" lon="17.7278467">
        <ele>16.9604</ele>
        <time>2014-05-13T19:08:39Z</time>
      </trkpt>
      <trkpt lat="59.9744422" lon="17.7278929">
        <ele>16.4797</ele>
        <time>2014-05-13T19:08:40Z</time>
      </trkpt>
      <trkpt lat="59.9744388" lon="17.7279421">
        <ele>15.999</ele>
        <time>2014-05-13T19:08:41Z</time>
      </trkpt>
      <trkpt lat="59.9744424" lon="17.7279914">
        <ele>15.5184</ele>
        <time>2014-05-13T19:08:42Z</time>
      </trkpt>
      <trkpt lat="59.9744411" lon="17.728046">
        <ele>15.5184</ele>
        <time>2014-05-13T19:08:43Z</time>
      </trkpt>
      <trkpt lat="59.974436" lon="17.7280981">
        <ele>15.0377</ele>
        <time>2014-05-13T19:08:44Z</time>
      </trkpt>
      <trkpt lat="59.9744366" lon="17.7281555">
        <ele>15.0377</ele>
        <time>2014-05-13T19:08:45Z</time>
      </trkpt>
      <trkpt lat="59.9744398" lon="17.7282079">
        <ele>14.557</ele>
        <time>2014-05-13T19:08:46Z</time>
      </trkpt>
      <trkpt lat="59.974443" lon="17.7282616">
        <ele>14.557</ele>
        <time>2014-05-13T19:08:47Z</time>
      </trkpt>
      <trkpt lat="59.9744364" lon="17.7283103">
        <ele>14.557</ele>
        <time>2014-05-13T19:08:48Z</time>
      </trkpt>
      <trkpt lat="59.974434" lon="17.728362">
        <ele>15.0377</ele>
        <time>2014-05-13T19:08:49Z</time>
      </trkpt>
      <trkpt lat="59.9744393" lon="17.7284201">
        <ele>15.0377</ele>
        <time>2014-05-13T19:08:50Z</time>
      </trkpt>
      <trkpt lat="59.9744395" lon="17.7284699">
        <ele>15.0377</ele>
        <time>2014-05-13T19:08:51Z</time>
      </trkpt>
      <trkpt lat="59.9744365" lon="17.7285223">
        <ele>15.5184</ele>
        <time>2014-05-13T19:08:52Z</time>
      </trkpt>
      <trkpt lat="59.9744288" lon="17.72858">
        <ele>15.999</ele>
        <time>2014-05-13T19:08:53Z</time>
      </trkpt>
      <trkpt lat="59.9744216" lon="17.7286324">
        <ele>15.5184</ele>
        <time>2014-05-13T19:08:54Z</time>
      </trkpt>
      <trkpt lat="59.9744238" lon="17.7286957">
        <ele>15.5184</ele>
        <time>2014-05-13T19:08:55Z</time>
      </trkpt>
      <trkpt lat="59.9744281" lon="17.7287595">
        <ele>16.4797</ele>
        <time>2014-05-13T19:08:56Z</time>
      </trkpt>
      <trkpt lat="59.9744304" lon="17.7288207">
        <ele>16.9604</ele>
        <time>2014-05-13T19:08:57Z</time>
      </trkpt>
      <trkpt lat="59.9744302" lon="17.7288765">
        <ele>16.9604</ele>
        <time>2014-05-13T19:08:58Z</time>
      </trkpt>
      <trkpt lat="59.9744242" lon="17.72892">
        <ele>16.4797</ele>
        <time>2014-05-13T19:08:59Z</time>
      </trkpt>
      <trkpt lat="59.9744205" lon="17.7289661">
        <ele>16.9604</ele>
        <time>2014-05-13T19:09:00Z</time>
      </trkpt>
      <trkpt lat="59.9744202" lon="17.7290113">
        <ele>16.4797</ele>
        <time>2014-05-13T19:09:01Z</time>
      </trkpt>
      <trkpt lat="59.9744349" lon="17.7290717">
        <ele>15.999</ele>
        <time>2014-05-13T19:09:02Z</time>
      </trkpt>
      <trkpt lat="59.9744481" lon="17.729135">
        <ele>16.4797</ele>
        <time>2014-05-13T19:09:03Z</time>
      </trkpt>
      <trkpt lat="59.9744522" lon="17.7291945">
        <ele>15.999</ele>
        <time>2014-05-13T19:09:04Z</time>
      </trkpt>
      <trkpt lat="59.9744548" lon="17.729254">
        <ele>16.4797</ele>
        <time>2014-05-13T19:09:05Z</time>
      </trkpt>
      <trkpt lat="59.9744554" lon="17.7293053">
        <ele>16.4797</ele>
        <time>2014-05-13T19:09:06Z</time>
      </trkpt>
      <trkpt lat="59.9744572" lon="17.7293622">
        <ele>16.4797</ele>
        <time>2014-05-13T19:09:07Z</time>
      </trkpt>
      <trkpt lat="59.9744584" lon="17.7294236">
        <ele>16.4797</ele>
        <time>2014-05-13T19:09:08Z</time>
      </trkpt>
      <trkpt lat="59.974457" lon="17.7294814">
        <ele>16.4797</ele>
        <time>2014-05-13T19:09:09Z</time>
      </trkpt>
      <trkpt lat="59.9744543" lon="17.7295387">
        <ele>16.9604</ele>
        <time>2014-05-13T19:09:10Z</time>
      </trkpt>
      <trkpt lat="59.9744542" lon="17.7295891">
        <ele>16.9604</ele>
        <time>2014-05-13T19:09:11Z</time>
      </trkpt>
      <trkpt lat="59.974453" lon="17.7296468">
        <ele>16.9604</ele>
        <time>2014-05-13T19:09:12Z</time>
      </trkpt>
      <trkpt lat="59.9744484" lon="17.7297028">
        <ele>16.9604</ele>
        <time>2014-05-13T19:09:13Z</time>
      </trkpt>
      <trkpt lat="59.9744404" lon="17.7297495">
        <ele>16.9604</ele>
        <time>2014-05-13T19:09:14Z</time>
      </trkpt>
      <trkpt lat="59.9744319" lon="17.7298017">
        <ele>16.9604</ele>
        <time>2014-05-13T19:09:15Z</time>
      </trkpt>
      <trkpt lat="59.9744243" lon="17.7298529">
        <ele>16.4797</ele>
        <time>2014-05-13T19:09:16Z</time>
      </trkpt>
      <trkpt lat="59.9744191" lon="17.7299043">
        <ele>16.4797</ele>
        <time>2014-05-13T19:09:17Z</time>
      </trkpt>
      <trkpt lat="59.9744129" lon="17.7299565">
        <ele>16.4797</ele>
        <time>2014-05-13T19:09:18Z</time>
      </trkpt>
      <trkpt lat="59.9744086" lon="17.7300068">
        <ele>16.4797</ele>
        <time>2014-05-13T19:09:19Z</time>
      </trkpt>
      <trkpt lat="59.9744043" lon="17.7300626">
        <ele>16.4797</ele>
        <time>2014-05-13T19:09:20Z</time>
      </trkpt>
      <trkpt lat="59.9744004" lon="17.7301187">
        <ele>16.4797</ele>
        <time>2014-05-13T19:09:21Z</time>
      </trkpt>
      <trkpt lat="59.9743957" lon="17.7301713">
        <ele>16.4797</ele>
        <time>2014-05-13T19:09:22Z</time>
      </trkpt>
      <trkpt lat="59.9743851" lon="17.7302274">
        <ele>16.4797</ele>
        <time>2014-05-13T19:09:23Z</time>
      </trkpt>
      <trkpt lat="59.9743775" lon="17.7302827">
        <ele>16.4797</ele>
        <time>2014-05-13T19:09:24Z</time>
      </trkpt>
      <trkpt lat="59.9743745" lon="17.7303343">
        <ele>15.999</ele>
        <time>2014-05-13T19:09:25Z</time>
      </trkpt>
      <trkpt lat="59.9743709" lon="17.7303917">
        <ele>15.999</ele>
        <time>2014-05-13T19:09:26Z</time>
      </trkpt>
      <trkpt lat="59.9743667" lon="17.7304451">
        <ele>15.5184</ele>
        <time>2014-05-13T19:09:27Z</time>
      </trkpt>
      <trkpt lat="59.9743625" lon="17.7304996">
        <ele>15.5184</ele>
        <time>2014-05-13T19:09:28Z</time>
      </trkpt>
      <trkpt lat="59.97436" lon="17.7305522">
        <ele>15.5184</ele>
        <time>2014-05-13T19:09:29Z</time>
      </trkpt>
      <trkpt lat="59.9743588" lon="17.7306082">
        <ele>15.5184</ele>
        <time>2014-05-13T19:09:30Z</time>
      </trkpt>
      <trkpt lat="59.9743556" lon="17.7306657">
        <ele>15.5184</ele>
        <time>2014-05-13T19:09:31Z</time>
      </trkpt>
      <trkpt lat="59.9743495" lon="17.7307241">
        <ele>15.5184</ele>
        <time>2014-05-13T19:09:32Z</time>
      </trkpt>
      <trkpt lat="59.9743434" lon="17.730775">
        <ele>15.0377</ele>
        <time>2014-05-13T19:09:33Z</time>
      </trkpt>
      <trkpt lat="59.9743418" lon="17.730823">
        <ele>15.0377</ele>
        <time>2014-05-13T19:09:34Z</time>
      </trkpt>
      <trkpt lat="59.9743398" lon="17.7308779">
        <ele>15.0377</ele>
        <time>2014-05-13T19:09:35Z</time>
      </trkpt>
      <trkpt lat="59.9743336" lon="17.7309279">
        <ele>15.0377</ele>
        <time>2014-05-13T19:09:36Z</time>
      </trkpt>
      <trkpt lat="59.9743302" lon="17.7309771">
        <ele>15.0377</ele>
        <time>2014-05-13T19:09:37Z</time>
      </trkpt>
      <trkpt lat="59.9743284" lon="17.7310314">
        <ele>14.557</ele>
        <time>2014-05-13T19:09:38Z</time>
      </trkpt>
      <trkpt lat="59.9743211" lon="17.7310861">
        <ele>14.557</ele>
        <time>2014-05-13T19:09:39Z</time>
      </trkpt>
      <trkpt lat="59.9743165" lon="17.7311395">
        <ele>14.557</ele>
        <time>2014-05-13T19:09:40Z</time>
      </trkpt>
      <trkpt lat="59.9743137" lon="17.7311952">
        <ele>15.0377</ele>
        <time>2014-05-13T19:09:41Z</time>
      </trkpt>
      <trkpt lat="59.9743114" lon="17.7312509">
        <ele>15.5184</ele>
        <time>2014-05-13T19:09:42Z</time>
      </trkpt>
      <trkpt lat="59.9743102" lon="17.7313104">
        <ele>15.999</ele>
        <time>2014-05-13T19:09:43Z</time>
      </trkpt>
      <trkpt lat="59.9743102" lon="17.7313652">
        <ele>15.999</ele>
        <time>2014-05-13T19:09:44Z</time>
      </trkpt>
      <trkpt lat="59.9743109" lon="17.7314213">
        <ele>15.999</ele>
        <time>2014-05-13T19:09:45Z</time>
      </trkpt>
      <trkpt lat="59.974307" lon="17.7314729">
        <ele>16.4797</ele>
        <time>2014-05-13T19:09:46Z</time>
      </trkpt>
      <trkpt lat="59.9743064" lon="17.7315237">
        <ele>16.9604</ele>
        <time>2014-05-13T19:09:47Z</time>
      </trkpt>
      <trkpt lat="59.9743059" lon="17.7315801">
        <ele>16.9604</ele>
        <time>2014-05-13T19:09:48Z</time>
      </trkpt>
      <trkpt lat="59.9743043" lon="17.7316339">
        <ele>16.9604</ele>
        <time>2014-05-13T19:09:49Z</time>
      </trkpt>
      <trkpt lat="59.9743025" lon="17.7316852">
        <ele>16.9604</ele>
        <time>2014-05-13T19:09:50Z</time>
      </trkpt>
      <trkpt lat="59.9743012" lon="17.7317379">
        <ele>16.9604</ele>
        <time>2014-05-13T19:09:51Z</time>
      </trkpt>
      <trkpt lat="59.9743041" lon="17.7317907">
        <ele>16.4797</ele>
        <time>2014-05-13T19:09:52Z</time>
      </trkpt>
      <trkpt lat="59.9743098" lon="17.7318528">
        <ele>16.4797</ele>
        <time>2014-05-13T19:09:53Z</time>
      </trkpt>
      <trkpt lat="59.9743076" lon="17.7319042">
        <ele>16.4797</ele>
        <time>2014-05-13T19:09:54Z</time>
      </trkpt>
      <trkpt lat="59.9743047" lon="17.7319488">
        <ele>16.4797</ele>
        <time>2014-05-13T19:09:55Z</time>
      </trkpt>
      <trkpt lat="59.974305" lon="17.7319958">
        <ele>16.4797</ele>
        <time>2014-05-13T19:09:56Z</time>
      </trkpt>
      <trkpt lat="59.9743076" lon="17.7320483">
        <ele>16.9604</ele>
        <time>2014-05-13T19:09:57Z</time>
      </trkpt>
      <trkpt lat="59.9743082" lon="17.7320989">
        <ele>16.4797</ele>
        <time>2014-05-13T19:09:58Z</time>
      </trkpt>
      <trkpt lat="59.9743077" lon="17.7321457">
        <ele>16.4797</ele>
        <time>2014-05-13T19:09:59Z</time>
      </trkpt>
      <trkpt lat="59.9743082" lon="17.7321909">
        <ele>16.9604</ele>
        <time>2014-05-13T19:10:00Z</time>
      </trkpt>
      <trkpt lat="59.9743077" lon="17.7322423">
        <ele>17.4412</ele>
        <time>2014-05-13T19:10:01Z</time>
      </trkpt>
      <trkpt lat="59.9743052" lon="17.7322921">
        <ele>17.4412</ele>
        <time>2014-05-13T19:10:02Z</time>
      </trkpt>
      <trkpt lat="59.9743078" lon="17.7323493">
        <ele>17.9218</ele>
        <time>2014-05-13T19:10:03Z</time>
      </trkpt>
      <trkpt lat="59.9743131" lon="17.7324072">
        <ele>18.4023</ele>
        <time>2014-05-13T19:10:04Z</time>
      </trkpt>
      <trkpt lat="59.9743191" lon="17.7324628">
        <ele>18.4023</ele>
        <time>2014-05-13T19:10:05Z</time>
      </trkpt>
      <trkpt lat="59.9743209" lon="17.7325145">
        <ele>18.4023</ele>
        <time>2014-05-13T19:10:06Z</time>
      </trkpt>
      <trkpt lat="59.9743232" lon="17.7325713">
        <ele>18.8831</ele>
        <time>2014-05-13T19:10:07Z</time>
      </trkpt>
      <trkpt lat="59.9743261" lon="17.7326286">
        <ele>18.8831</ele>
        <time>2014-05-13T19:10:08Z</time>
      </trkpt>
      <trkpt lat="59.9743253" lon="17.7326852">
        <ele>19.3638</ele>
        <time>2014-05-13T19:10:09Z</time>
      </trkpt>
      <trkpt lat="59.9743227" lon="17.7327409">
        <ele>19.3638</ele>
        <time>2014-05-13T19:10:10Z</time>
      </trkpt>
      <trkpt lat="59.9743225" lon="17.7327937">
        <ele>19.3638</ele>
        <time>2014-05-13T19:10:11Z</time>
      </trkpt>
      <trkpt lat="59.9743266" lon="17.7328563">
        <ele>18.8831</ele>
        <time>2014-05-13T19:10:12Z</time>
      </trkpt>
      <trkpt lat="59.9743283" lon="17.7329099">
        <ele>17.9218</ele>
        <time>2014-05-13T19:10:13Z</time>
      </trkpt>
      <trkpt lat="59.9743274" lon="17.7329663">
        <ele>17.9218</ele>
        <time>2014-05-13T19:10:14Z</time>
      </trkpt>
      <trkpt lat="59.974322" lon="17.7330149">
        <ele>17.9218</ele>
        <time>2014-05-13T19:10:15Z</time>
      </trkpt>
      <trkpt lat="59.9743192" lon="17.7330624">
        <ele>17.4412</ele>
        <time>2014-05-13T19:10:16Z</time>
      </trkpt>
      <trkpt lat="59.9743166" lon="17.733114">
        <ele>16.4797</ele>
        <time>2014-05-13T19:10:17Z</time>
      </trkpt>
      <trkpt lat="59.9743119" lon="17.7331652">
        <ele>15.5184</ele>
        <time>2014-05-13T19:10:18Z</time>
      </trkpt>
      <trkpt lat="59.9743083" lon="17.7332154">
        <ele>15.5184</ele>
        <time>2014-05-13T19:10:19Z</time>
      </trkpt>
      <trkpt lat="59.974306" lon="17.7332589">
        <ele>15.0377</ele>
        <time>2014-05-13T19:10:20Z</time>
      </trkpt>
      <trkpt lat="59.9743067" lon="17.7333045">
        <ele>14.557</ele>
        <time>2014-05-13T19:10:21Z</time>
      </trkpt>
      <trkpt lat="59.9743044" lon="17.7333502">
        <ele>14.0764</ele>
        <time>2014-05-13T19:10:22Z</time>
      </trkpt>
      <trkpt lat="59.9742994" lon="17.7334008">
        <ele>13.5958</ele>
        <time>2014-05-13T19:10:23Z</time>
      </trkpt>
      <trkpt lat="59.9742952" lon="17.7334526">
        <ele>14.0764</ele>
        <time>2014-05-13T19:10:24Z</time>
      </trkpt>
      <trkpt lat="59.9742938" lon="17.7334993">
        <ele>13.5958</ele>
        <time>2014-05-13T19:10:25Z</time>
      </trkpt>
      <trkpt lat="59.9742926" lon="17.7335562">
        <ele>13.5958</ele>
        <time>2014-05-13T19:10:26Z</time>
      </trkpt>
      <trkpt lat="59.9742911" lon="17.7336089">
        <ele>13.5958</ele>
        <time>2014-05-13T19:10:27Z</time>
      </trkpt>
      <trkpt lat="59.97429" lon="17.7336608">
        <ele>13.5958</ele>
        <time>2014-05-13T19:10:28Z</time>
      </trkpt>
      <trkpt lat="59.9742843" lon="17.7337111">
        <ele>13.5958</ele>
        <time>2014-05-13T19:10:29Z</time>
      </trkpt>
      <trkpt lat="59.9742774" lon="17.733758">
        <ele>13.5958</ele>
        <time>2014-05-13T19:10:30Z</time>
      </trkpt>
      <trkpt lat="59.9742741" lon="17.7338111">
        <ele>14.0764</ele>
        <time>2014-05-13T19:10:31Z</time>
      </trkpt>
      <trkpt lat="59.9742709" lon="17.7338681">
        <ele>14.0764</ele>
        <time>2014-05-13T19:10:32Z</time>
      </trkpt>
      <trkpt lat="59.974266" lon="17.7339178">
        <ele>13.5958</ele>
        <time>2014-05-13T19:10:33Z</time>
      </trkpt>
      <trkpt lat="59.9742613" lon="17.7339694">
        <ele>13.5958</ele>
        <time>2014-05-13T19:10:34Z</time>
      </trkpt>
      <trkpt lat="59.9742573" lon="17.7340143">
        <ele>13.5958</ele>
        <time>2014-05-13T19:10:35Z</time>
      </trkpt>
      <trkpt lat="59.9742557" lon="17.7340664">
        <ele>14.0764</ele>
        <time>2014-05-13T19:10:36Z</time>
      </trkpt>
      <trkpt lat="59.9742526" lon="17.7341177">
        <ele>14.557</ele>
        <time>2014-05-13T19:10:37Z</time>
      </trkpt>
      <trkpt lat="59.9742489" lon="17.7341629">
        <ele>14.0764</ele>
        <time>2014-05-13T19:10:38Z</time>
      </trkpt>
      <trkpt lat="59.9742474" lon="17.7342161">
        <ele>14.557</ele>
        <time>2014-05-13T19:10:39Z</time>
      </trkpt>
      <trkpt lat="59.9742459" lon="17.7342665">
        <ele>14.557</ele>
        <time>2014-05-13T19:10:40Z</time>
      </trkpt>
      <trkpt lat="59.9742456" lon="17.7343193">
        <ele>14.557</ele>
        <time>2014-05-13T19:10:41Z</time>
      </trkpt>
      <trkpt lat="59.9742449" lon="17.7343736">
        <ele>14.557</ele>
        <time>2014-05-13T19:10:42Z</time>
      </trkpt>
      <trkpt lat="59.974247" lon="17.7344275">
        <ele>14.557</ele>
        <time>2014-05-13T19:10:43Z</time>
      </trkpt>
      <trkpt lat="59.9742477" lon="17.7344819">
        <ele>15.0377</ele>
        <time>2014-05-13T19:10:44Z</time>
      </trkpt>
      <trkpt lat="59.9742469" lon="17.7345306">
        <ele>15.5184</ele>
        <time>2014-05-13T19:10:45Z</time>
      </trkpt>
      <trkpt lat="59.9742494" lon="17.7345829">
        <ele>15.5184</ele>
        <time>2014-05-13T19:10:46Z</time>
      </trkpt>
      <trkpt lat="59.9742548" lon="17.734643">
        <ele>15.999</ele>
        <time>2014-05-13T19:10:47Z</time>
      </trkpt>
      <trkpt lat="59.9742588" lon="17.7346964">
        <ele>15.999</ele>
        <time>2014-05-13T19:10:48Z</time>
      </trkpt>
      <trkpt lat="59.9742616" lon="17.7347502">
        <ele>16.4797</ele>
        <time>2014-05-13T19:10:49Z</time>
      </trkpt>
      <trkpt lat="59.974264" lon="17.7348026">
        <ele>16.4797</ele>
        <time>2014-05-13T19:10:50Z</time>
      </trkpt>
      <trkpt lat="59.9742672" lon="17.7348552">
        <ele>16.9604</ele>
        <time>2014-05-13T19:10:51Z</time>
      </trkpt>
      <trkpt lat="59.9742667" lon="17.734901">
        <ele>16.9604</ele>
        <time>2014-05-13T19:10:52Z</time>
      </trkpt>
      <trkpt lat="59.9742678" lon="17.734947">
        <ele>17.4412</ele>
        <time>2014-05-13T19:10:53Z</time>
      </trkpt>
      <trkpt lat="59.9742729" lon="17.7349992">
        <ele>17.4412</ele>
        <time>2014-05-13T19:10:54Z</time>
      </trkpt>
      <trkpt lat="59.9742817" lon="17.7350537">
        <ele>17.4412</ele>
        <time>2014-05-13T19:10:55Z</time>
      </trkpt>
      <trkpt lat="59.9742896" lon="17.7351082">
        <ele>17.4412</ele>
        <time>2014-05-13T19:10:56Z</time>
      </trkpt>
      <trkpt lat="59.9742926" lon="17.7351589">
        <ele>17.4412</ele>
        <time>2014-05-13T19:10:57Z</time>
      </trkpt>
      <trkpt lat="59.9742946" lon="17.7352014">
        <ele>16.9604</ele>
        <time>2014-05-13T19:10:58Z</time>
      </trkpt>
      <trkpt lat="59.9743" lon="17.7352543">
        <ele>17.4412</ele>
        <time>2014-05-13T19:10:59Z</time>
      </trkpt>
      <trkpt lat="59.974304" lon="17.7353007">
        <ele>16.9604</ele>
        <time>2014-05-13T19:11:00Z</time>
      </trkpt>
      <trkpt lat="59.974308" lon="17.7353475">
        <ele>16.9604</ele>
        <time>2014-05-13T19:11:01Z</time>
      </trkpt>
      <trkpt lat="59.9743104" lon="17.7353905">
        <ele>16.9604</ele>
        <time>2014-05-13T19:11:02Z</time>
      </trkpt>
      <trkpt lat="59.9743133" lon="17.7354315">
        <ele>16.9604</ele>
        <time>2014-05-13T19:11:03Z</time>
      </trkpt>
      <trkpt lat="59.974319" lon="17.735476">
        <ele>16.9604</ele>
        <time>2014-05-13T19:11:04Z</time>
      </trkpt>
      <trkpt lat="59.9743247" lon="17.7355179">
        <ele>16.4797</ele>
        <time>2014-05-13T19:11:05Z</time>
      </trkpt>
      <trkpt lat="59.9743335" lon="17.7355647">
        <ele>15.999</ele>
        <time>2014-05-13T19:11:06Z</time>
      </trkpt>
      <trkpt lat="59.9743432" lon="17.7356165">
        <ele>15.999</ele>
        <time>2014-05-13T19:11:07Z</time>
      </trkpt>
      <trkpt lat="59.9743523" lon="17.7356682">
        <ele>16.4797</ele>
        <time>2014-05-13T19:11:08Z</time>
      </trkpt>
      <trkpt lat="59.9743649" lon="17.735722">
        <ele>16.4797</ele>
        <time>2014-05-13T19:11:09Z</time>
      </trkpt>
      <trkpt lat="59.9743753" lon="17.7357688">
        <ele>15.999</ele>
        <time>2014-05-13T19:11:10Z</time>
      </trkpt>
      <trkpt lat="59.9743833" lon="17.7358142">
        <ele>15.5184</ele>
        <time>2014-05-13T19:11:11Z</time>
      </trkpt>
      <trkpt lat="59.9743916" lon="17.7358615">
        <ele>15.5184</ele>
        <time>2014-05-13T19:11:12Z</time>
      </trkpt>
      <trkpt lat="59.9744019" lon="17.7359094">
        <ele>15.0377</ele>
        <time>2014-05-13T19:11:13Z</time>
      </trkpt>
      <trkpt lat="59.9744142" lon="17.7359593">
        <ele>15.0377</ele>
        <time>2014-05-13T19:11:14Z</time>
      </trkpt>
      <trkpt lat="59.9744298" lon="17.7360121">
        <ele>15.5184</ele>
        <time>2014-05-13T19:11:15Z</time>
      </trkpt>
      <trkpt lat="59.9744473" lon="17.736062">
        <ele>15.5184</ele>
        <time>2014-05-13T19:11:16Z</time>
      </trkpt>
      <trkpt lat="59.9744619" lon="17.736114">
        <ele>15.5184</ele>
        <time>2014-05-13T19:11:17Z</time>
      </trkpt>
      <trkpt lat="59.9744729" lon="17.7361683">
        <ele>15.999</ele>
        <time>2014-05-13T19:11:18Z</time>
      </trkpt>
      <trkpt lat="59.9744864" lon="17.7362197">
        <ele>15.999</ele>
        <time>2014-05-13T19:11:19Z</time>
      </trkpt>
      <trkpt lat="59.9744984" lon="17.7362654">
        <ele>15.999</ele>
        <time>2014-05-13T19:11:20Z</time>
      </trkpt>
      <trkpt lat="59.9745106" lon="17.7363119">
        <ele>15.999</ele>
        <time>2014-05-13T19:11:21Z</time>
      </trkpt>
      <trkpt lat="59.9745268" lon="17.7363623">
        <ele>15.999</ele>
        <time>2014-05-13T19:11:22Z</time>
      </trkpt>
      <trkpt lat="59.9745423" lon="17.7364095">
        <ele>15.999</ele>
        <time>2014-05-13T19:11:23Z</time>
      </trkpt>
      <trkpt lat="59.9745583" lon="17.73646">
        <ele>15.999</ele>
        <time>2014-05-13T19:11:24Z</time>
      </trkpt>
      <trkpt lat="59.9745748" lon="17.7365067">
        <ele>16.4797</ele>
        <time>2014-05-13T19:11:25Z</time>
      </trkpt>
      <trkpt lat="59.9745887" lon="17.7365567">
        <ele>16.4797</ele>
        <time>2014-05-13T19:11:26Z</time>
      </trkpt>
      <trkpt lat="59.9745993" lon="17.7366084">
        <ele>16.4797</ele>
        <time>2014-05-13T19:11:27Z</time>
      </trkpt>
      <trkpt lat="59.9746117" lon="17.7366501">
        <ele>15.999</ele>
        <time>2014-05-13T19:11:28Z</time>
      </trkpt>
      <trkpt lat="59.9746276" lon="17.7366938">
        <ele>15.999</ele>
        <time>2014-05-13T19:11:29Z</time>
      </trkpt>
      <trkpt lat="59.9746412" lon="17.7367405">
        <ele>15.5184</ele>
        <time>2014-05-13T19:11:30Z</time>
      </trkpt>
      <trkpt lat="59.9746553" lon="17.7367886">
        <ele>15.5184</ele>
        <time>2014-05-13T19:11:31Z</time>
      </trkpt>
      <trkpt lat="59.974676" lon="17.7368357">
        <ele>15.0377</ele>
        <time>2014-05-13T19:11:32Z</time>
      </trkpt>
      <trkpt lat="59.9746955" lon="17.7368781">
        <ele>15.0377</ele>
        <time>2014-05-13T19:11:33Z</time>
      </trkpt>
      <trkpt lat="59.9747107" lon="17.7369238">
        <ele>15.5184</ele>
        <time>2014-05-13T19:11:34Z</time>
      </trkpt>
      <trkpt lat="59.9747252" lon="17.7369638">
        <ele>15.0377</ele>
        <time>2014-05-13T19:11:35Z</time>
      </trkpt>
      <trkpt lat="59.9747386" lon="17.7370039">
        <ele>15.0377</ele>
        <time>2014-05-13T19:11:36Z</time>
      </trkpt>
      <trkpt lat="59.9747531" lon="17.7370451">
        <ele>15.0377</ele>
        <time>2014-05-13T19:11:37Z</time>
      </trkpt>
      <trkpt lat="59.9747664" lon="17.7370905">
        <ele>15.0377</ele>
        <time>2014-05-13T19:11:38Z</time>
      </trkpt>
      <trkpt lat="59.9747804" lon="17.737133">
        <ele>15.5184</ele>
        <time>2014-05-13T19:11:39Z</time>
      </trkpt>
      <trkpt lat="59.9747991" lon="17.7371717">
        <ele>15.5184</ele>
        <time>2014-05-13T19:11:40Z</time>
      </trkpt>
      <trkpt lat="59.9748214" lon="17.7372134">
        <ele>15.999</ele>
        <time>2014-05-13T19:11:41Z</time>
      </trkpt>
      <trkpt lat="59.9748421" lon="17.7372525">
        <ele>16.4797</ele>
        <time>2014-05-13T19:11:42Z</time>
      </trkpt>
      <trkpt lat="59.9748625" lon="17.7372886">
        <ele>16.4797</ele>
        <time>2014-05-13T19:11:43Z</time>
      </trkpt>
      <trkpt lat="59.9748824" lon="17.7373201">
        <ele>16.9604</ele>
        <time>2014-05-13T19:11:44Z</time>
      </trkpt>
      <trkpt lat="59.9748987" lon="17.7373574">
        <ele>17.4412</ele>
        <time>2014-05-13T19:11:45Z</time>
      </trkpt>
      <trkpt lat="59.9749147" lon="17.7373926">
        <ele>17.4412</ele>
        <time>2014-05-13T19:11:46Z</time>
      </trkpt>
      <trkpt lat="59.9749344" lon="17.7374309">
        <ele>17.9218</ele>
        <time>2014-05-13T19:11:47Z</time>
      </trkpt>
      <trkpt lat="59.9749541" lon="17.7374743">
        <ele>17.9218</ele>
        <time>2014-05-13T19:11:48Z</time>
      </trkpt>
      <trkpt lat="59.9749742" lon="17.7375128">
        <ele>18.4023</ele>
        <time>2014-05-13T19:11:49Z</time>
      </trkpt>
      <trkpt lat="59.974993" lon="17.7375483">
        <ele>18.4023</ele>
        <time>2014-05-13T19:11:50Z</time>
      </trkpt>
      <trkpt lat="59.975009" lon="17.7375852">
        <ele>18.4023</ele>
        <time>2014-05-13T19:11:51Z</time>
      </trkpt>
      <trkpt lat="59.9750265" lon="17.7376195">
        <ele>18.4023</ele>
        <time>2014-05-13T19:11:52Z</time>
      </trkpt>
      <trkpt lat="59.9750479" lon="17.7376578">
        <ele>18.4023</ele>
        <time>2014-05-13T19:11:53Z</time>
      </trkpt>
      <trkpt lat="59.97507" lon="17.7376949">
        <ele>18.4023</ele>
        <time>2014-05-13T19:11:54Z</time>
      </trkpt>
      <trkpt lat="59.9750919" lon="17.7377278">
        <ele>18.4023</ele>
        <time>2014-05-13T19:11:55Z</time>
      </trkpt>
      <trkpt lat="59.9751152" lon="17.7377625">
        <ele>17.9218</ele>
        <time>2014-05-13T19:11:56Z</time>
      </trkpt>
      <trkpt lat="59.9751396" lon="17.7378021">
        <ele>18.4023</ele>
        <time>2014-05-13T19:11:57Z</time>
      </trkpt>
      <trkpt lat="59.9751634" lon="17.7378392">
        <ele>18.8831</ele>
        <time>2014-05-13T19:11:58Z</time>
      </trkpt>
      <trkpt lat="59.9751883" lon="17.7378706">
        <ele>18.4023</ele>
        <time>2014-05-13T19:11:59Z</time>
      </trkpt>
      <trkpt lat="59.9752143" lon="17.7379063">
        <ele>18.8831</ele>
        <time>2014-05-13T19:12:00Z</time>
      </trkpt>
      <trkpt lat="59.9752368" lon="17.7379422">
        <ele>18.8831</ele>
        <time>2014-05-13T19:12:01Z</time>
      </trkpt>
      <trkpt lat="59.9752557" lon="17.7379754">
        <ele>18.8831</ele>
        <time>2014-05-13T19:12:02Z</time>
      </trkpt>
      <trkpt lat="59.9752763" lon="17.7380063">
        <ele>19.3638</ele>
        <time>2014-05-13T19:12:03Z</time>
      </trkpt>
      <trkpt lat="59.9752964" lon="17.7380385">
        <ele>19.3638</ele>
        <time>2014-05-13T19:12:04Z</time>
      </trkpt>
      <trkpt lat="59.9753172" lon="17.7380752">
        <ele>19.8444</ele>
        <time>2014-05-13T19:12:05Z</time>
      </trkpt>
      <trkpt lat="59.9753429" lon="17.7381142">
        <ele>20.325</ele>
        <time>2014-05-13T19:12:06Z</time>
      </trkpt>
      <trkpt lat="59.9753654" lon="17.7381487">
        <ele>20.325</ele>
        <time>2014-05-13T19:12:07Z</time>
      </trkpt>
      <trkpt lat="59.975382" lon="17.7381762">
        <ele>20.325</ele>
        <time>2014-05-13T19:12:08Z</time>
      </trkpt>
      <trkpt lat="59.9754012" lon="17.7382103">
        <ele>20.8057</ele>
        <time>2014-05-13T19:12:09Z</time>
      </trkpt>
      <trkpt lat="59.9754239" lon="17.7382514">
        <ele>20.325</ele>
        <time>2014-05-13T19:12:10Z</time>
      </trkpt>
      <trkpt lat="59.9754468" lon="17.7382852">
        <ele>20.325</ele>
        <time>2014-05-13T19:12:11Z</time>
      </trkpt>
      <trkpt lat="59.9754671" lon="17.7383254">
        <ele>20.325</ele>
        <time>2014-05-13T19:12:12Z</time>
      </trkpt>
      <trkpt lat="59.9754877" lon="17.738366">
        <ele>20.325</ele>
        <time>2014-05-13T19:12:13Z</time>
      </trkpt>
      <trkpt lat="59.9755043" lon="17.7384006">
        <ele>20.325</ele>
        <time>2014-05-13T19:12:14Z</time>
      </trkpt>
      <trkpt lat="59.9755229" lon="17.7384369">
        <ele>20.8057</ele>
        <time>2014-05-13T19:12:15Z</time>
      </trkpt>
      <trkpt lat="59.9755457" lon="17.7384696">
        <ele>20.325</ele>
        <time>2014-05-13T19:12:16Z</time>
      </trkpt>
      <trkpt lat="59.9755647" lon="17.738501">
        <ele>20.325</ele>
        <time>2014-05-13T19:12:17Z</time>
      </trkpt>
      <trkpt lat="59.9755843" lon="17.7385365">
        <ele>20.325</ele>
        <time>2014-05-13T19:12:18Z</time>
      </trkpt>
      <trkpt lat="59.9756058" lon="17.7385719">
        <ele>20.325</ele>
        <time>2014-05-13T19:12:19Z</time>
      </trkpt>
      <trkpt lat="59.9756274" lon="17.7386066">
        <ele>20.325</ele>
        <time>2014-05-13T19:12:20Z</time>
      </trkpt>
      <trkpt lat="59.9756447" lon="17.7386405">
        <ele>20.325</ele>
        <time>2014-05-13T19:12:21Z</time>
      </trkpt>
      <trkpt lat="59.9756576" lon="17.7386726">
        <ele>20.325</ele>
        <time>2014-05-13T19:12:22Z</time>
      </trkpt>
      <trkpt lat="59.9756721" lon="17.7387084">
        <ele>20.325</ele>
        <time>2014-05-13T19:12:23Z</time>
      </trkpt>
      <trkpt lat="59.9756902" lon="17.7387425">
        <ele>20.325</ele>
        <time>2014-05-13T19:12:24Z</time>
      </trkpt>
      <trkpt lat="59.9757155" lon="17.7387742">
        <ele>20.8057</ele>
        <time>2014-05-13T19:12:25Z</time>
      </trkpt>
      <trkpt lat="59.9757409" lon="17.7388071">
        <ele>20.8057</ele>
        <time>2014-05-13T19:12:26Z</time>
      </trkpt>
      <trkpt lat="59.9757648" lon="17.7388403">
        <ele>21.2864</ele>
        <time>2014-05-13T19:12:27Z</time>
      </trkpt>
      <trkpt lat="59.9757896" lon="17.7388779">
        <ele>21.767</ele>
        <time>2014-05-13T19:12:28Z</time>
      </trkpt>
      <trkpt lat="59.9758156" lon="17.7389167">
        <ele>22.2476</ele>
        <time>2014-05-13T19:12:29Z</time>
      </trkpt>
      <trkpt lat="59.9758385" lon="17.7389501">
        <ele>21.767</ele>
        <time>2014-05-13T19:12:30Z</time>
      </trkpt>
      <trkpt lat="59.9758578" lon="17.7389881">
        <ele>22.2476</ele>
        <time>2014-05-13T19:12:31Z</time>
      </trkpt>
      <trkpt lat="59.9758763" lon="17.7390259">
        <ele>22.7283</ele>
        <time>2014-05-13T19:12:32Z</time>
      </trkpt>
      <trkpt lat="59.9758963" lon="17.7390628">
        <ele>22.7283</ele>
        <time>2014-05-13T19:12:33Z</time>
      </trkpt>
      <trkpt lat="59.9759148" lon="17.739102">
        <ele>23.209</ele>
        <time>2014-05-13T19:12:34Z</time>
      </trkpt>
      <trkpt lat="59.9759379" lon="17.7391414">
        <ele>23.6896</ele>
        <time>2014-05-13T19:12:35Z</time>
      </trkpt>
      <trkpt lat="59.9759627" lon="17.7391818">
        <ele>24.1703</ele>
        <time>2014-05-13T19:12:36Z</time>
      </trkpt>
      <trkpt lat="59.9759851" lon="17.7392195">
        <ele>25.1317</ele>
        <time>2014-05-13T19:12:37Z</time>
      </trkpt>
      <trkpt lat="59.976006" lon="17.7392574">
        <ele>25.6123</ele>
        <time>2014-05-13T19:12:38Z</time>
      </trkpt>
      <trkpt lat="59.976025" lon="17.7392989">
        <ele>26.5736</ele>
        <time>2014-05-13T19:12:39Z</time>
      </trkpt>
      <trkpt lat="59.9760452" lon="17.7393366">
        <ele>27.5349</ele>
        <time>2014-05-13T19:12:40Z</time>
      </trkpt>
      <trkpt lat="59.976064" lon="17.7393766">
        <ele>28.0155</ele>
        <time>2014-05-13T19:12:41Z</time>
      </trkpt>
      <trkpt lat="59.9760829" lon="17.7394161">
        <ele>28.4962</ele>
        <time>2014-05-13T19:12:42Z</time>
      </trkpt>
      <trkpt lat="59.976102" lon="17.7394543">
        <ele>29.4575</ele>
        <time>2014-05-13T19:12:43Z</time>
      </trkpt>
      <trkpt lat="59.9761197" lon="17.739488">
        <ele>29.9381</ele>
        <time>2014-05-13T19:12:44Z</time>
      </trkpt>
      <trkpt lat="59.976141" lon="17.7395174">
        <ele>30.4188</ele>
        <time>2014-05-13T19:12:45Z</time>
      </trkpt>
      <trkpt lat="59.9761596" lon="17.7395543">
        <ele>30.4188</ele>
        <time>2014-05-13T19:12:46Z</time>
      </trkpt>
      <trkpt lat="59.9761767" lon="17.7395925">
        <ele>30.8995</ele>
        <time>2014-05-13T19:12:47Z</time>
      </trkpt>
      <trkpt lat="59.9761963" lon="17.7396263">
        <ele>30.8995</ele>
        <time>2014-05-13T19:12:48Z</time>
      </trkpt>
      <trkpt lat="59.9762168" lon="17.7396563">
        <ele>31.3801</ele>
        <time>2014-05-13T19:12:49Z</time>
      </trkpt>
      <trkpt lat="59.9762321" lon="17.7396808">
        <ele>31.8607</ele>
        <time>2014-05-13T19:12:50Z</time>
      </trkpt>
      <trkpt lat="59.9762461" lon="17.7397045">
        <ele>31.8607</ele>
        <time>2014-05-13T19:12:51Z</time>
      </trkpt>
      <trkpt lat="59.9762666" lon="17.7397303">
        <ele>31.8607</ele>
        <time>2014-05-13T19:12:52Z</time>
      </trkpt>
      <trkpt lat="59.976289" lon="17.7397522">
        <ele>32.3416</ele>
        <time>2014-05-13T19:12:53Z</time>
      </trkpt>
      <trkpt lat="59.9763097" lon="17.739769">
        <ele>32.3416</ele>
        <time>2014-05-13T19:12:54Z</time>
      </trkpt>
      <trkpt lat="59.9763324" lon="17.7397802">
        <ele>32.8223</ele>
        <time>2014-05-13T19:12:55Z</time>
      </trkpt>
      <trkpt lat="59.976357" lon="17.7397874">
        <ele>33.3029</ele>
        <time>2014-05-13T19:12:56Z</time>
      </trkpt>
      <trkpt lat="59.9763795" lon="17.7397846">
        <ele>33.3029</ele>
        <time>2014-05-13T19:12:57Z</time>
      </trkpt>
      <trkpt lat="59.9763977" lon="17.7397718">
        <ele>33.7834</ele>
        <time>2014-05-13T19:12:58Z</time>
      </trkpt>
      <trkpt lat="59.9764139" lon="17.7397432">
        <ele>33.7834</ele>
        <time>2014-05-13T19:12:59Z</time>
      </trkpt>
      <trkpt lat="59.9764372" lon="17.7397122">
        <ele>34.2642</ele>
        <time>2014-05-13T19:13:00Z</time>
      </trkpt>
      <trkpt lat="59.9764584" lon="17.7396786">
        <ele>34.7449</ele>
        <time>2014-05-13T19:13:01Z</time>
      </trkpt>
      <trkpt lat="59.9764796" lon="17.7396377">
        <ele>34.7449</ele>
        <time>2014-05-13T19:13:02Z</time>
      </trkpt>
      <trkpt lat="59.9765009" lon="17.7395973">
        <ele>34.2642</ele>
        <time>2014-05-13T19:13:03Z</time>
      </trkpt>
      <trkpt lat="59.9765185" lon="17.739562">
        <ele>34.2642</ele>
        <time>2014-05-13T19:13:04Z</time>
      </trkpt>
      <trkpt lat="59.9765382" lon="17.7395309">
        <ele>33.7834</ele>
        <time>2014-05-13T19:13:05Z</time>
      </trkpt>
      <trkpt lat="59.9765562" lon="17.7395003">
        <ele>32.8223</ele>
        <time>2014-05-13T19:13:06Z</time>
      </trkpt>
      <trkpt lat="59.9765775" lon="17.7394797">
        <ele>32.8223</ele>
        <time>2014-05-13T19:13:07Z</time>
      </trkpt>
      <trkpt lat="59.9766017" lon="17.7394608">
        <ele>32.3416</ele>
        <time>2014-05-13T19:13:08Z</time>
      </trkpt>
      <trkpt lat="59.9766256" lon="17.7394451">
        <ele>32.3416</ele>
        <time>2014-05-13T19:13:09Z</time>
      </trkpt>
      <trkpt lat="59.976648" lon="17.7394305">
        <ele>31.3801</ele>
        <time>2014-05-13T19:13:10Z</time>
      </trkpt>
      <trkpt lat="59.9766751" lon="17.7394223">
        <ele>31.3801</ele>
        <time>2014-05-13T19:13:11Z</time>
      </trkpt>
      <trkpt lat="59.9766973" lon="17.7394072">
        <ele>30.4188</ele>
        <time>2014-05-13T19:13:12Z</time>
      </trkpt>
      <trkpt lat="59.9767221" lon="17.739393">
        <ele>29.9381</ele>
        <time>2014-05-13T19:13:13Z</time>
      </trkpt>
      <trkpt lat="59.9767471" lon="17.7393818">
        <ele>29.9381</ele>
        <time>2014-05-13T19:13:14Z</time>
      </trkpt>
      <trkpt lat="59.9767667" lon="17.7393734">
        <ele>28.4962</ele>
        <time>2014-05-13T19:13:15Z</time>
      </trkpt>
      <trkpt lat="59.9767919" lon="17.7393679">
        <ele>28.0155</ele>
        <time>2014-05-13T19:13:16Z</time>
      </trkpt>
      <trkpt lat="59.9768169" lon="17.7393585">
        <ele>28.0155</ele>
        <time>2014-05-13T19:13:17Z</time>
      </trkpt>
      <trkpt lat="59.9768433" lon="17.7393521">
        <ele>27.0543</ele>
        <time>2014-05-13T19:13:18Z</time>
      </trkpt>
      <trkpt lat="59.9768716" lon="17.7393476">
        <ele>27.0543</ele>
        <time>2014-05-13T19:13:19Z</time>
      </trkpt>
      <trkpt lat="59.9768957" lon="17.7393344">
        <ele>27.0543</ele>
        <time>2014-05-13T19:13:20Z</time>
      </trkpt>
      <trkpt lat="59.9769237" lon="17.7393311">
        <ele>27.5349</ele>
        <time>2014-05-13T19:13:21Z</time>
      </trkpt>
      <trkpt lat="59.9769478" lon="17.7393228">
        <ele>27.5349</ele>
        <time>2014-05-13T19:13:22Z</time>
      </trkpt>
      <trkpt lat="59.9769731" lon="17.7393101">
        <ele>27.0543</ele>
        <time>2014-05-13T19:13:23Z</time>
      </trkpt>
      <trkpt lat="59.9769907" lon="17.739287">
        <ele>26.0929</ele>
        <time>2014-05-13T19:13:24Z</time>
      </trkpt>
      <trkpt lat="59.977003" lon="17.7392611">
        <ele>24.651</ele>
        <time>2014-05-13T19:13:25Z</time>
      </trkpt>
      <trkpt lat="59.9770219" lon="17.7392429">
        <ele>23.209</ele>
        <time>2014-05-13T19:13:26Z</time>
      </trkpt>
      <trkpt lat="59.9770453" lon="17.7392234">
        <ele>22.7283</ele>
        <time>2014-05-13T19:13:27Z</time>
      </trkpt>
      <trkpt lat="59.9770773" lon="17.7392109">
        <ele>24.1703</ele>
        <time>2014-05-13T19:13:28Z</time>
      </trkpt>
      <trkpt lat="59.9770952" lon="17.7391943">
        <ele>23.209</ele>
        <time>2014-05-13T19:13:29Z</time>
      </trkpt>
      <trkpt lat="59.9771089" lon="17.7391773">
        <ele>21.767</ele>
        <time>2014-05-13T19:13:30Z</time>
      </trkpt>
      <trkpt lat="59.9771268" lon="17.7391621">
        <ele>20.8057</ele>
        <time>2014-05-13T19:13:31Z</time>
      </trkpt>
      <trkpt lat="59.9771432" lon="17.7391479">
        <ele>20.325</ele>
        <time>2014-05-13T19:13:32Z</time>
      </trkpt>
      <trkpt lat="59.9771632" lon="17.7391374">
        <ele>19.3638</ele>
        <time>2014-05-13T19:13:33Z</time>
      </trkpt>
      <trkpt lat="59.9771857" lon="17.7391312">
        <ele>18.8831</ele>
        <time>2014-05-13T19:13:34Z</time>
      </trkpt>
      <trkpt lat="59.9772013" lon="17.7391149">
        <ele>17.4412</ele>
        <time>2014-05-13T19:13:35Z</time>
      </trkpt>
      <trkpt lat="59.9772261" lon="17.7391104">
        <ele>16.9604</ele>
        <time>2014-05-13T19:13:36Z</time>
      </trkpt>
      <trkpt lat="59.9772474" lon="17.7391062">
        <ele>15.5184</ele>
        <time>2014-05-13T19:13:37Z</time>
      </trkpt>
      <trkpt lat="59.9772686" lon="17.7390949">
        <ele>14.0764</ele>
        <time>2014-05-13T19:13:38Z</time>
      </trkpt>
      <trkpt lat="59.9772901" lon="17.7390736">
        <ele>13.1151</ele>
        <time>2014-05-13T19:13:39Z</time>
      </trkpt>
      <trkpt lat="59.977312" lon="17.7390456">
        <ele>12.6344</ele>
        <time>2014-05-13T19:13:40Z</time>
      </trkpt>
      <trkpt lat="59.9773314" lon="17.7390192">
        <ele>11.6732</ele>
        <time>2014-05-13T19:13:41Z</time>
      </trkpt>
      <trkpt lat="59.9773656" lon="17.7389928">
        <ele>13.5958</ele>
        <time>2014-05-13T19:13:42Z</time>
      </trkpt>
      <trkpt lat="59.9774043" lon="17.7389736">
        <ele>16.4797</ele>
        <time>2014-05-13T19:13:43Z</time>
      </trkpt>
      <trkpt lat="59.9774342" lon="17.7389606">
        <ele>17.9218</ele>
        <time>2014-05-13T19:13:44Z</time>
      </trkpt>
      <trkpt lat="59.9774595" lon="17.7389549">
        <ele>18.4023</ele>
        <time>2014-05-13T19:13:45Z</time>
      </trkpt>
      <trkpt lat="59.9774863" lon="17.7389512">
        <ele>19.8444</ele>
        <time>2014-05-13T19:13:46Z</time>
      </trkpt>
      <trkpt lat="59.9775124" lon="17.7389475">
        <ele>20.325</ele>
        <time>2014-05-13T19:13:47Z</time>
      </trkpt>
      <trkpt lat="59.9775319" lon="17.7389414">
        <ele>19.8444</ele>
        <time>2014-05-13T19:13:48Z</time>
      </trkpt>
      <trkpt lat="59.9775482" lon="17.7389347">
        <ele>18.8831</ele>
        <time>2014-05-13T19:13:49Z</time>
      </trkpt>
      <trkpt lat="59.9775772" lon="17.7389451">
        <ele>20.8057</ele>
        <time>2014-05-13T19:13:50Z</time>
      </trkpt>
      <trkpt lat="59.9776002" lon="17.7389539">
        <ele>22.2476</ele>
        <time>2014-05-13T19:13:51Z</time>
      </trkpt>
      <trkpt lat="59.9776256" lon="17.7389596">
        <ele>22.7283</ele>
        <time>2014-05-13T19:13:52Z</time>
      </trkpt>
      <trkpt lat="59.9776545" lon="17.7389638">
        <ele>23.6896</ele>
        <time>2014-05-13T19:13:53Z</time>
      </trkpt>
      <trkpt lat="59.9776785" lon="17.7389673">
        <ele>24.1703</ele>
        <time>2014-05-13T19:13:54Z</time>
      </trkpt>
      <trkpt lat="59.9777079" lon="17.7389777">
        <ele>25.1317</ele>
        <time>2014-05-13T19:13:55Z</time>
      </trkpt>
      <trkpt lat="59.9777375" lon="17.7389922">
        <ele>26.0929</ele>
        <time>2014-05-13T19:13:56Z</time>
      </trkpt>
      <trkpt lat="59.977766" lon="17.7390076">
        <ele>27.5349</ele>
        <time>2014-05-13T19:13:57Z</time>
      </trkpt>
      <trkpt lat="59.9777927" lon="17.7390186">
        <ele>28.4962</ele>
        <time>2014-05-13T19:13:58Z</time>
      </trkpt>
      <trkpt lat="59.9778216" lon="17.7390301">
        <ele>29.9381</ele>
        <time>2014-05-13T19:13:59Z</time>
      </trkpt>
      <trkpt lat="59.9778467" lon="17.7390449">
        <ele>30.4188</ele>
        <time>2014-05-13T19:14:00Z</time>
      </trkpt>
      <trkpt lat="59.9778742" lon="17.7390638">
        <ele>30.8995</ele>
        <time>2014-05-13T19:14:01Z</time>
      </trkpt>
      <trkpt lat="59.9779009" lon="17.7390782">
        <ele>31.3801</ele>
        <time>2014-05-13T19:14:02Z</time>
      </trkpt>
      <trkpt lat="59.9779275" lon="17.7390906">
        <ele>32.3416</ele>
        <time>2014-05-13T19:14:03Z</time>
      </trkpt>
      <trkpt lat="59.9779513" lon="17.7391052">
        <ele>32.8223</ele>
        <time>2014-05-13T19:14:04Z</time>
      </trkpt>
      <trkpt lat="59.9779762" lon="17.7391177">
        <ele>33.3029</ele>
        <time>2014-05-13T19:14:05Z</time>
      </trkpt>
      <trkpt lat="59.9780029" lon="17.7391331">
        <ele>33.7834</ele>
        <time>2014-05-13T19:14:06Z</time>
      </trkpt>
      <trkpt lat="59.9780321" lon="17.7391474">
        <ele>34.2642</ele>
        <time>2014-05-13T19:14:07Z</time>
      </trkpt>
      <trkpt lat="59.9780604" lon="17.7391597">
        <ele>34.7449</ele>
        <time>2014-05-13T19:14:08Z</time>
      </trkpt>
      <trkpt lat="59.9780819" lon="17.7391708">
        <ele>34.7449</ele>
        <time>2014-05-13T19:14:09Z</time>
      </trkpt>
      <trkpt lat="59.9781056" lon="17.739173">
        <ele>33.7834</ele>
        <time>2014-05-13T19:14:10Z</time>
      </trkpt>
      <trkpt lat="59.9781325" lon="17.7391692">
        <ele>33.7834</ele>
        <time>2014-05-13T19:14:11Z</time>
      </trkpt>
      <trkpt lat="59.9781657" lon="17.7391724">
        <ele>34.2642</ele>
        <time>2014-05-13T19:14:12Z</time>
      </trkpt>
      <trkpt lat="59.978205" lon="17.7391767">
        <ele>35.2255</ele>
        <time>2014-05-13T19:14:13Z</time>
      </trkpt>
      <trkpt lat="59.9782361" lon="17.7391761">
        <ele>34.2642</ele>
        <time>2014-05-13T19:14:14Z</time>
      </trkpt>
      <trkpt lat="59.9782642" lon="17.7391868">
        <ele>33.7834</ele>
        <time>2014-05-13T19:14:15Z</time>
      </trkpt>
      <trkpt lat="59.9782923" lon="17.739191">
        <ele>33.3029</ele>
        <time>2014-05-13T19:14:16Z</time>
      </trkpt>
      <trkpt lat="59.9783211" lon="17.7391985">
        <ele>33.3029</ele>
        <time>2014-05-13T19:14:17Z</time>
      </trkpt>
      <trkpt lat="59.9783492" lon="17.7392129">
        <ele>33.3029</ele>
        <time>2014-05-13T19:14:18Z</time>
      </trkpt>
      <trkpt lat="59.9783813" lon="17.7392187">
        <ele>34.2642</ele>
        <time>2014-05-13T19:14:19Z</time>
      </trkpt>
      <trkpt lat="59.9784142" lon="17.7392257">
        <ele>36.1868</ele>
        <time>2014-05-13T19:14:20Z</time>
      </trkpt>
      <trkpt lat="59.9784482" lon="17.7392311">
        <ele>38.1094</ele>
        <time>2014-05-13T19:14:21Z</time>
      </trkpt>
      <trkpt lat="59.9784704" lon="17.7392389">
        <ele>36.1868</ele>
        <time>2014-05-13T19:14:22Z</time>
      </trkpt>
      <trkpt lat="59.9785014" lon="17.7392517">
        <ele>36.6675</ele>
        <time>2014-05-13T19:14:23Z</time>
      </trkpt>
      <trkpt lat="59.9785337" lon="17.7392636">
        <ele>37.6287</ele>
        <time>2014-05-13T19:14:24Z</time>
      </trkpt>
      <trkpt lat="59.9785636" lon="17.7392707">
        <ele>38.1094</ele>
        <time>2014-05-13T19:14:25Z</time>
      </trkpt>
      <trkpt lat="59.9785925" lon="17.7392795">
        <ele>37.6287</ele>
        <time>2014-05-13T19:14:26Z</time>
      </trkpt>
      <trkpt lat="59.9786191" lon="17.7392905">
        <ele>37.1481</ele>
        <time>2014-05-13T19:14:27Z</time>
      </trkpt>
      <trkpt lat="59.9786497" lon="17.7392999">
        <ele>37.6287</ele>
        <time>2014-05-13T19:14:28Z</time>
      </trkpt>
      <trkpt lat="59.9786807" lon="17.7393051">
        <ele>37.6287</ele>
        <time>2014-05-13T19:14:29Z</time>
      </trkpt>
      <trkpt lat="59.9787159" lon="17.739308">
        <ele>38.1094</ele>
        <time>2014-05-13T19:14:30Z</time>
      </trkpt>
      <trkpt lat="59.9787504" lon="17.7393046">
        <ele>38.5901</ele>
        <time>2014-05-13T19:14:31Z</time>
      </trkpt>
      <trkpt lat="59.9787771" lon="17.7393065">
        <ele>38.1094</ele>
        <time>2014-05-13T19:14:32Z</time>
      </trkpt>
      <trkpt lat="59.9788036" lon="17.7393042">
        <ele>37.6287</ele>
        <time>2014-05-13T19:14:33Z</time>
      </trkpt>
      <trkpt lat="59.9788345" lon="17.7393111">
        <ele>36.6675</ele>
        <time>2014-05-13T19:14:34Z</time>
      </trkpt>
      <trkpt lat="59.9788635" lon="17.739334">
        <ele>36.1868</ele>
        <time>2014-05-13T19:14:35Z</time>
      </trkpt>
    </trkseg>
  </trk>
</gpx>